<?xml version="1.0" encoding="UTF-8" standalone="no" ?>
<gpx xmlns="http://www.topografix.com/GPX/1/1" xmlns:xsi="http://www.w3.org/2001/XMLSchema-instance" xsi:schemaLocation="http://www.topografix.com/GPX/1/1 http://www.topografix.com/GPX/1/1/gpx.xsd" version="1.1" creator="VisuGPX - https://www.visugpx.com">
  <metadata>
    <name>VTT Bleu Petites Pyrénées</name>
  </metadata>
  <wpt lat="42.97793" lon="0.88648">
    <ele>825.5</ele>
    <name><![CDATA[]]></name>
    <desc><![CDATA[]]></desc>
  </wpt>
  <wpt lat="42.9753" lon="0.88906">
    <ele>902.7</ele>
    <name><![CDATA[]]></name>
    <desc><![CDATA[]]></desc>
  </wpt>
  <wpt lat="42.9644" lon="0.87865">
    <ele>1199.1</ele>
    <name><![CDATA[]]></name>
    <desc><![CDATA[]]></desc>
  </wpt>
  <wpt lat="42.96928" lon="0.88607">
    <ele>1105.9</ele>
    <name><![CDATA[Décollage parapentes]]></name>
    <desc><![CDATA[name=Décollage parapentes]]></desc>
  </wpt>
  <trk>
    <name><![CDATA[VTT Bleu Petites Pyrénées_3]]></name>
    <desc><![CDATA[time=2020-12-16T08:35:23.000Z]]></desc>
    <trkseg>
      <trkpt lat="42.96526" lon="0.8817">
        <ele>1206</ele>
        <time>2020-12-16T08:35:23.000Z</time>
      </trkpt>
      <trkpt lat="42.96527" lon="0.88168">
        <ele>1205.800049</ele>
        <time>2020-12-16T08:35:32.000Z</time>
      </trkpt>
      <trkpt lat="42.96529" lon="0.88162">
        <ele>1204.199951</ele>
        <time>2020-12-16T08:35:40.000Z</time>
      </trkpt>
      <trkpt lat="42.96528" lon="0.88157">
        <ele>1204.400024</ele>
        <time>2020-12-16T08:35:55.000Z</time>
      </trkpt>
      <trkpt lat="42.96537" lon="0.88153">
        <ele>1200.599976</ele>
        <time>2020-12-16T08:36:02.000Z</time>
      </trkpt>
      <trkpt lat="42.9654" lon="0.88155">
        <ele>1199.599976</ele>
        <time>2020-12-16T08:36:08.000Z</time>
      </trkpt>
      <trkpt lat="42.96542" lon="0.8816">
        <ele>1199.199951</ele>
        <time>2020-12-16T08:36:15.000Z</time>
      </trkpt>
      <trkpt lat="42.9654" lon="0.88165">
        <ele>1199.599976</ele>
        <time>2020-12-16T08:36:19.000Z</time>
      </trkpt>
      <trkpt lat="42.96543" lon="0.88165">
        <ele>1198.800049</ele>
        <time>2020-12-16T08:36:23.000Z</time>
      </trkpt>
      <trkpt lat="42.96545" lon="0.88164">
        <ele>1198</ele>
        <time>2020-12-16T08:36:24.000Z</time>
      </trkpt>
      <trkpt lat="42.96548" lon="0.88164">
        <ele>1196.599976</ele>
        <time>2020-12-16T08:36:27.000Z</time>
      </trkpt>
      <trkpt lat="42.96549" lon="0.8817">
        <ele>1196.400024</ele>
        <time>2020-12-16T08:36:33.000Z</time>
      </trkpt>
      <trkpt lat="42.96554" lon="0.88172">
        <ele>1194.599976</ele>
        <time>2020-12-16T08:36:37.000Z</time>
      </trkpt>
      <trkpt lat="42.96559" lon="0.88172">
        <ele>1192.599976</ele>
        <time>2020-12-16T08:36:42.000Z</time>
      </trkpt>
      <trkpt lat="42.96564" lon="0.88169">
        <ele>1190.400024</ele>
        <time>2020-12-16T08:36:47.000Z</time>
      </trkpt>
      <trkpt lat="42.96572" lon="0.88168">
        <ele>1187.199951</ele>
        <time>2020-12-16T08:36:54.000Z</time>
      </trkpt>
      <trkpt lat="42.96574" lon="0.88172">
        <ele>1186.400024</ele>
        <time>2020-12-16T08:37:00.000Z</time>
      </trkpt>
      <trkpt lat="42.96576" lon="0.88175">
        <ele>1185.599976</ele>
        <time>2020-12-16T08:37:06.000Z</time>
      </trkpt>
      <trkpt lat="42.96579" lon="0.88175">
        <ele>1184.599976</ele>
        <time>2020-12-16T08:37:11.000Z</time>
      </trkpt>
      <trkpt lat="42.96586" lon="0.88173">
        <ele>1181.599976</ele>
        <time>2020-12-16T08:37:15.000Z</time>
      </trkpt>
      <trkpt lat="42.96588" lon="0.88173">
        <ele>1181</ele>
        <time>2020-12-16T08:37:20.000Z</time>
      </trkpt>
      <trkpt lat="42.96594" lon="0.88174">
        <ele>1179.400024</ele>
        <time>2020-12-16T08:37:28.000Z</time>
      </trkpt>
      <trkpt lat="42.96599" lon="0.88173">
        <ele>1178.599976</ele>
        <time>2020-12-16T08:37:35.000Z</time>
      </trkpt>
      <trkpt lat="42.96605" lon="0.88177">
        <ele>1177.800049</ele>
        <time>2020-12-16T08:37:39.000Z</time>
      </trkpt>
      <trkpt lat="42.9661" lon="0.88182">
        <ele>1177.199951</ele>
        <time>2020-12-16T08:37:44.000Z</time>
      </trkpt>
      <trkpt lat="42.96612" lon="0.88184">
        <ele>1176.800049</ele>
        <time>2020-12-16T08:37:45.000Z</time>
      </trkpt>
      <trkpt lat="42.96616" lon="0.88192">
        <ele>1176.400024</ele>
        <time>2020-12-16T08:37:50.000Z</time>
      </trkpt>
      <trkpt lat="42.96622" lon="0.88201">
        <ele>1175.599976</ele>
        <time>2020-12-16T08:37:55.000Z</time>
      </trkpt>
      <trkpt lat="42.96624" lon="0.88206">
        <ele>1175.400024</ele>
        <time>2020-12-16T08:37:59.000Z</time>
      </trkpt>
      <trkpt lat="42.96627" lon="0.88213">
        <ele>1175.199951</ele>
        <time>2020-12-16T08:38:05.000Z</time>
      </trkpt>
      <trkpt lat="42.96624" lon="0.88225">
        <ele>1175.800049</ele>
        <time>2020-12-16T08:38:11.000Z</time>
      </trkpt>
      <trkpt lat="42.96629" lon="0.8823">
        <ele>1174.599976</ele>
        <time>2020-12-16T08:38:16.000Z</time>
      </trkpt>
      <trkpt lat="42.96637" lon="0.88236">
        <ele>1173</ele>
        <time>2020-12-16T08:38:23.000Z</time>
      </trkpt>
      <trkpt lat="42.96636" lon="0.88243">
        <ele>1172.599976</ele>
        <time>2020-12-16T08:38:28.000Z</time>
      </trkpt>
      <trkpt lat="42.96635" lon="0.8825">
        <ele>1172.199951</ele>
        <time>2020-12-16T08:38:34.000Z</time>
      </trkpt>
      <trkpt lat="42.96634" lon="0.88254">
        <ele>1172.199951</ele>
        <time>2020-12-16T08:38:38.000Z</time>
      </trkpt>
      <trkpt lat="42.96631" lon="0.88264">
        <ele>1171.800049</ele>
        <time>2020-12-16T08:38:45.000Z</time>
      </trkpt>
      <trkpt lat="42.96634" lon="0.8827">
        <ele>1171.199951</ele>
        <time>2020-12-16T08:38:51.000Z</time>
      </trkpt>
      <trkpt lat="42.96637" lon="0.88274">
        <ele>1170.400024</ele>
        <time>2020-12-16T08:38:56.000Z</time>
      </trkpt>
      <trkpt lat="42.96636" lon="0.88278">
        <ele>1170.800049</ele>
        <time>2020-12-16T08:39:03.000Z</time>
      </trkpt>
      <trkpt lat="42.9664" lon="0.88285">
        <ele>1170</ele>
        <time>2020-12-16T08:39:08.000Z</time>
      </trkpt>
      <trkpt lat="42.96648" lon="0.88295">
        <ele>1168</ele>
        <time>2020-12-16T08:39:14.000Z</time>
      </trkpt>
      <trkpt lat="42.96653" lon="0.88307">
        <ele>1166.800049</ele>
        <time>2020-12-16T08:39:20.000Z</time>
      </trkpt>
      <trkpt lat="42.96654" lon="0.88308">
        <ele>1166.599976</ele>
        <time>2020-12-16T08:39:25.000Z</time>
      </trkpt>
      <trkpt lat="42.96657" lon="0.88315">
        <ele>1165</ele>
        <time>2020-12-16T08:39:31.000Z</time>
      </trkpt>
      <trkpt lat="42.96664" lon="0.88318">
        <ele>1163.199951</ele>
        <time>2020-12-16T08:39:37.000Z</time>
      </trkpt>
      <trkpt lat="42.96665" lon="0.8832">
        <ele>1162.800049</ele>
        <time>2020-12-16T08:39:45.000Z</time>
      </trkpt>
      <trkpt lat="42.96671" lon="0.88332">
        <ele>1160</ele>
        <time>2020-12-16T08:39:51.000Z</time>
      </trkpt>
      <trkpt lat="42.96669" lon="0.8834">
        <ele>1159.599976</ele>
        <time>2020-12-16T08:39:55.000Z</time>
      </trkpt>
      <trkpt lat="42.96673" lon="0.88348">
        <ele>1157.800049</ele>
        <time>2020-12-16T08:40:02.000Z</time>
      </trkpt>
      <trkpt lat="42.9668" lon="0.88358">
        <ele>1156.800049</ele>
        <time>2020-12-16T08:40:08.000Z</time>
      </trkpt>
      <trkpt lat="42.96679" lon="0.8836">
        <ele>1156.400024</ele>
        <time>2020-12-16T08:40:15.000Z</time>
      </trkpt>
      <trkpt lat="42.96685" lon="0.88367">
        <ele>1156.199951</ele>
        <time>2020-12-16T08:40:23.000Z</time>
      </trkpt>
      <trkpt lat="42.96688" lon="0.8838">
        <ele>1154.800049</ele>
        <time>2020-12-16T08:40:29.000Z</time>
      </trkpt>
      <trkpt lat="42.9669" lon="0.88391">
        <ele>1153.800049</ele>
        <time>2020-12-16T08:40:35.000Z</time>
      </trkpt>
      <trkpt lat="42.96694" lon="0.88397">
        <ele>1153.599976</ele>
        <time>2020-12-16T08:40:41.000Z</time>
      </trkpt>
      <trkpt lat="42.96696" lon="0.88399">
        <ele>1153.599976</ele>
        <time>2020-12-16T08:40:47.000Z</time>
      </trkpt>
      <trkpt lat="42.96701" lon="0.884">
        <ele>1153.800049</ele>
        <time>2020-12-16T08:40:52.000Z</time>
      </trkpt>
      <trkpt lat="42.96705" lon="0.884">
        <ele>1154</ele>
        <time>2020-12-16T08:40:56.000Z</time>
      </trkpt>
      <trkpt lat="42.96722" lon="0.88403">
        <ele>1154.800049</ele>
        <time>2020-12-16T08:41:02.000Z</time>
      </trkpt>
      <trkpt lat="42.96729" lon="0.884">
        <ele>1155.400024</ele>
        <time>2020-12-16T08:41:07.000Z</time>
      </trkpt>
      <trkpt lat="42.96734" lon="0.88406">
        <ele>1155.199951</ele>
        <time>2020-12-16T08:41:14.000Z</time>
      </trkpt>
      <trkpt lat="42.96736" lon="0.88413">
        <ele>1154.800049</ele>
        <time>2020-12-16T08:41:20.000Z</time>
      </trkpt>
      <trkpt lat="42.96736" lon="0.88416">
        <ele>1154.400024</ele>
        <time>2020-12-16T08:41:25.000Z</time>
      </trkpt>
      <trkpt lat="42.96745" lon="0.88422">
        <ele>1154.400024</ele>
        <time>2020-12-16T08:41:33.000Z</time>
      </trkpt>
      <trkpt lat="42.96753" lon="0.88427">
        <ele>1154.599976</ele>
        <time>2020-12-16T08:41:41.000Z</time>
      </trkpt>
      <trkpt lat="42.96755" lon="0.88431">
        <ele>1154.400024</ele>
        <time>2020-12-16T08:41:48.000Z</time>
      </trkpt>
      <trkpt lat="42.96754" lon="0.88433">
        <ele>1154.199951</ele>
        <time>2020-12-16T08:41:56.000Z</time>
      </trkpt>
      <trkpt lat="42.96761" lon="0.88446">
        <ele>1153</ele>
        <time>2020-12-16T08:42:03.000Z</time>
      </trkpt>
      <trkpt lat="42.9677" lon="0.88448">
        <ele>1151.800049</ele>
        <time>2020-12-16T08:42:09.000Z</time>
      </trkpt>
      <trkpt lat="42.96775" lon="0.88447">
        <ele>1151.400024</ele>
        <time>2020-12-16T08:42:15.000Z</time>
      </trkpt>
      <trkpt lat="42.96785" lon="0.88447">
        <ele>1150.199951</ele>
        <time>2020-12-16T08:42:22.000Z</time>
      </trkpt>
      <trkpt lat="42.96788" lon="0.88449">
        <ele>1149.800049</ele>
        <time>2020-12-16T08:42:28.000Z</time>
      </trkpt>
      <trkpt lat="42.96792" lon="0.88453">
        <ele>1149</ele>
        <time>2020-12-16T08:42:36.000Z</time>
      </trkpt>
      <trkpt lat="42.96798" lon="0.88459">
        <ele>1147.800049</ele>
        <time>2020-12-16T08:42:39.000Z</time>
      </trkpt>
      <trkpt lat="42.96805" lon="0.88471">
        <ele>1146</ele>
        <time>2020-12-16T08:42:45.000Z</time>
      </trkpt>
      <trkpt lat="42.96811" lon="0.88477">
        <ele>1144</ele>
        <time>2020-12-16T08:42:50.000Z</time>
      </trkpt>
      <trkpt lat="42.96816" lon="0.88482">
        <ele>1142.199951</ele>
        <time>2020-12-16T08:42:56.000Z</time>
      </trkpt>
      <trkpt lat="42.96819" lon="0.88485">
        <ele>1141</ele>
        <time>2020-12-16T08:43:03.000Z</time>
      </trkpt>
      <trkpt lat="42.96823" lon="0.88488">
        <ele>1139.599976</ele>
        <time>2020-12-16T08:43:09.000Z</time>
      </trkpt>
      <trkpt lat="42.96827" lon="0.88492">
        <ele>1138</ele>
        <time>2020-12-16T08:43:14.000Z</time>
      </trkpt>
      <trkpt lat="42.96831" lon="0.88496">
        <ele>1136.599976</ele>
        <time>2020-12-16T08:43:19.000Z</time>
      </trkpt>
      <trkpt lat="42.96835" lon="0.88503">
        <ele>1134</ele>
        <time>2020-12-16T08:43:24.000Z</time>
      </trkpt>
      <trkpt lat="42.96841" lon="0.88511">
        <ele>1131</ele>
        <time>2020-12-16T08:43:30.000Z</time>
      </trkpt>
      <trkpt lat="42.96846" lon="0.8852">
        <ele>1128.199951</ele>
        <time>2020-12-16T08:43:36.000Z</time>
      </trkpt>
      <trkpt lat="42.9685" lon="0.88523">
        <ele>1127.199951</ele>
        <time>2020-12-16T08:43:43.000Z</time>
      </trkpt>
      <trkpt lat="42.96853" lon="0.88526">
        <ele>1126.199951</ele>
        <time>2020-12-16T08:43:51.000Z</time>
      </trkpt>
      <trkpt lat="42.96858" lon="0.88531">
        <ele>1124.599976</ele>
        <time>2020-12-16T08:43:56.000Z</time>
      </trkpt>
      <trkpt lat="42.96862" lon="0.88537">
        <ele>1122.599976</ele>
        <time>2020-12-16T08:44:04.000Z</time>
      </trkpt>
      <trkpt lat="42.96865" lon="0.88541">
        <ele>1121.199951</ele>
        <time>2020-12-16T08:44:14.000Z</time>
      </trkpt>
      <trkpt lat="42.96866" lon="0.88544">
        <ele>1120.199951</ele>
        <time>2020-12-16T08:44:21.000Z</time>
      </trkpt>
      <trkpt lat="42.96875" lon="0.88553">
        <ele>1117.400024</ele>
        <time>2020-12-16T08:44:28.000Z</time>
      </trkpt>
      <trkpt lat="42.96878" lon="0.88555">
        <ele>1116.599976</ele>
        <time>2020-12-16T08:44:33.000Z</time>
      </trkpt>
      <trkpt lat="42.96885" lon="0.8856">
        <ele>1114.800049</ele>
        <time>2020-12-16T08:44:39.000Z</time>
      </trkpt>
      <trkpt lat="42.9689" lon="0.88563">
        <ele>1113.599976</ele>
        <time>2020-12-16T08:44:46.000Z</time>
      </trkpt>
      <trkpt lat="42.96894" lon="0.88566">
        <ele>1112.599976</ele>
        <time>2020-12-16T08:44:53.000Z</time>
      </trkpt>
      <trkpt lat="42.96902" lon="0.88572">
        <ele>1110</ele>
        <time>2020-12-16T08:44:59.000Z</time>
      </trkpt>
      <trkpt lat="42.96906" lon="0.88575">
        <ele>1109</ele>
        <time>2020-12-16T08:45:04.000Z</time>
      </trkpt>
      <trkpt lat="42.96908" lon="0.88577">
        <ele>1108.400024</ele>
        <time>2020-12-16T08:45:12.000Z</time>
      </trkpt>
      <trkpt lat="42.96908" lon="0.88577">
        <ele>1108.400024</ele>
        <time>2020-12-16T08:45:23.000Z</time>
      </trkpt>
      <trkpt lat="42.96904" lon="0.8858">
        <ele>1107.800049</ele>
        <time>2020-12-16T08:45:41.000Z</time>
      </trkpt>
      <trkpt lat="42.96903" lon="0.88581">
        <ele>1107.199951</ele>
        <time>2020-12-16T08:45:51.000Z</time>
      </trkpt>
      <trkpt lat="42.96903" lon="0.88581">
        <ele>1107.199951</ele>
        <time>2020-12-16T08:46:13.000Z</time>
      </trkpt>
      <trkpt lat="42.96903" lon="0.88591">
        <ele>1104.199951</ele>
        <time>2020-12-16T08:46:23.000Z</time>
      </trkpt>
      <trkpt lat="42.96927" lon="0.8859">
        <ele>1103.400024</ele>
        <time>2020-12-16T08:46:28.000Z</time>
      </trkpt>
      <trkpt lat="42.96927" lon="0.8859">
        <ele>1103.400024</ele>
        <time>2020-12-16T08:46:33.000Z</time>
      </trkpt>
      <trkpt lat="42.96927" lon="0.8859">
        <ele>1103.400024</ele>
        <time>2020-12-16T08:46:40.000Z</time>
      </trkpt>
      <trkpt lat="42.96927" lon="0.8859">
        <ele>1103.400024</ele>
        <time>2020-12-16T08:46:45.000Z</time>
      </trkpt>
      <trkpt lat="42.96927" lon="0.8859">
        <ele>1103.400024</ele>
        <time>2020-12-16T08:46:53.000Z</time>
      </trkpt>
      <trkpt lat="42.96927" lon="0.8859">
        <ele>1103.400024</ele>
        <time>2020-12-16T08:46:59.000Z</time>
      </trkpt>
      <trkpt lat="42.9695" lon="0.88575">
        <ele>1107.199951</ele>
        <time>2020-12-16T08:47:05.000Z</time>
      </trkpt>
      <trkpt lat="42.96951" lon="0.88573">
        <ele>1107.599976</ele>
        <time>2020-12-16T08:47:13.000Z</time>
      </trkpt>
      <trkpt lat="42.96949" lon="0.88558">
        <ele>1111</ele>
        <time>2020-12-16T08:47:19.000Z</time>
      </trkpt>
      <trkpt lat="42.96949" lon="0.88556">
        <ele>1111.400024</ele>
        <time>2020-12-16T08:47:26.000Z</time>
      </trkpt>
      <trkpt lat="42.96949" lon="0.88556">
        <ele>1111.400024</ele>
        <time>2020-12-16T08:47:32.000Z</time>
      </trkpt>
      <trkpt lat="42.96956" lon="0.88533">
        <ele>1112</ele>
        <time>2020-12-16T08:47:40.000Z</time>
      </trkpt>
      <trkpt lat="42.96962" lon="0.88523">
        <ele>1112</ele>
        <time>2020-12-16T08:47:45.000Z</time>
      </trkpt>
      <trkpt lat="42.9696" lon="0.88506">
        <ele>1113</ele>
        <time>2020-12-16T08:47:51.000Z</time>
      </trkpt>
      <trkpt lat="42.96963" lon="0.885">
        <ele>1112.400024</ele>
        <time>2020-12-16T08:47:55.000Z</time>
      </trkpt>
      <trkpt lat="42.96965" lon="0.88496">
        <ele>1112.199951</ele>
        <time>2020-12-16T08:48:03.000Z</time>
      </trkpt>
      <trkpt lat="42.96964" lon="0.88487">
        <ele>1112.400024</ele>
        <time>2020-12-16T08:48:07.000Z</time>
      </trkpt>
      <trkpt lat="42.96965" lon="0.88473">
        <ele>1112.199951</ele>
        <time>2020-12-16T08:48:14.000Z</time>
      </trkpt>
      <trkpt lat="42.96967" lon="0.88463">
        <ele>1110.800049</ele>
        <time>2020-12-16T08:48:21.000Z</time>
      </trkpt>
      <trkpt lat="42.96966" lon="0.88462">
        <ele>1110.800049</ele>
        <time>2020-12-16T08:48:30.000Z</time>
      </trkpt>
      <trkpt lat="42.96966" lon="0.88459">
        <ele>1110.400024</ele>
        <time>2020-12-16T08:48:36.000Z</time>
      </trkpt>
      <trkpt lat="42.96966" lon="0.88459">
        <ele>1110.400024</ele>
        <time>2020-12-16T08:48:45.000Z</time>
      </trkpt>
      <trkpt lat="42.96967" lon="0.88457">
        <ele>1110.199951</ele>
        <time>2020-12-16T08:48:51.000Z</time>
      </trkpt>
      <trkpt lat="42.96965" lon="0.88451">
        <ele>1109.800049</ele>
        <time>2020-12-16T08:48:58.000Z</time>
      </trkpt>
      <trkpt lat="42.96963" lon="0.88447">
        <ele>1109.800049</ele>
        <time>2020-12-16T08:49:07.000Z</time>
      </trkpt>
      <trkpt lat="42.96961" lon="0.8844">
        <ele>1109.199951</ele>
        <time>2020-12-16T08:49:15.000Z</time>
      </trkpt>
      <trkpt lat="42.9696" lon="0.88432">
        <ele>1108.599976</ele>
        <time>2020-12-16T08:49:20.000Z</time>
      </trkpt>
      <trkpt lat="42.9696" lon="0.88421">
        <ele>1107.599976</ele>
        <time>2020-12-16T08:49:26.000Z</time>
      </trkpt>
      <trkpt lat="42.96959" lon="0.88415">
        <ele>1107.199951</ele>
        <time>2020-12-16T08:49:34.000Z</time>
      </trkpt>
      <trkpt lat="42.96959" lon="0.88411">
        <ele>1106.800049</ele>
        <time>2020-12-16T08:49:40.000Z</time>
      </trkpt>
      <trkpt lat="42.96959" lon="0.88405">
        <ele>1106.199951</ele>
        <time>2020-12-16T08:49:45.000Z</time>
      </trkpt>
      <trkpt lat="42.96958" lon="0.88401">
        <ele>1106.199951</ele>
        <time>2020-12-16T08:49:52.000Z</time>
      </trkpt>
      <trkpt lat="42.96952" lon="0.88384">
        <ele>1105.199951</ele>
        <time>2020-12-16T08:49:58.000Z</time>
      </trkpt>
      <trkpt lat="42.96952" lon="0.88376">
        <ele>1104.400024</ele>
        <time>2020-12-16T08:50:03.000Z</time>
      </trkpt>
      <trkpt lat="42.96947" lon="0.8837">
        <ele>1104.400024</ele>
        <time>2020-12-16T08:50:10.000Z</time>
      </trkpt>
      <trkpt lat="42.96946" lon="0.88365">
        <ele>1104</ele>
        <time>2020-12-16T08:50:13.000Z</time>
      </trkpt>
      <trkpt lat="42.96937" lon="0.8834">
        <ele>1102.199951</ele>
        <time>2020-12-16T08:50:19.000Z</time>
      </trkpt>
      <trkpt lat="42.9693" lon="0.88314">
        <ele>1100.199951</ele>
        <time>2020-12-16T08:50:24.000Z</time>
      </trkpt>
      <trkpt lat="42.96927" lon="0.88294">
        <ele>1099.599976</ele>
        <time>2020-12-16T08:50:31.000Z</time>
      </trkpt>
      <trkpt lat="42.96929" lon="0.88287">
        <ele>1099.199951</ele>
        <time>2020-12-16T08:50:36.000Z</time>
      </trkpt>
      <trkpt lat="42.9693" lon="0.88278">
        <ele>1099</ele>
        <time>2020-12-16T08:50:41.000Z</time>
      </trkpt>
      <trkpt lat="42.96931" lon="0.88276">
        <ele>1098.800049</ele>
        <time>2020-12-16T08:50:46.000Z</time>
      </trkpt>
      <trkpt lat="42.96931" lon="0.88276">
        <ele>1098.800049</ele>
        <time>2020-12-16T08:50:55.000Z</time>
      </trkpt>
      <trkpt lat="42.96932" lon="0.8827">
        <ele>1098.800049</ele>
        <time>2020-12-16T08:51:05.000Z</time>
      </trkpt>
      <trkpt lat="42.96932" lon="0.8827">
        <ele>1098.800049</ele>
        <time>2020-12-16T08:51:17.000Z</time>
      </trkpt>
      <trkpt lat="42.96932" lon="0.8827">
        <ele>1098.800049</ele>
        <time>2020-12-16T08:51:30.000Z</time>
      </trkpt>
      <trkpt lat="42.96931" lon="0.88269">
        <ele>1098.599976</ele>
        <time>2020-12-16T08:51:47.000Z</time>
      </trkpt>
      <trkpt lat="42.96931" lon="0.88269">
        <ele>1098.599976</ele>
        <time>2020-12-16T08:52:01.000Z</time>
      </trkpt>
      <trkpt lat="42.96931" lon="0.88269">
        <ele>1098.599976</ele>
        <time>2020-12-16T08:52:12.000Z</time>
      </trkpt>
      <trkpt lat="42.96932" lon="0.88258">
        <ele>1098.400024</ele>
        <time>2020-12-16T08:52:25.000Z</time>
      </trkpt>
      <trkpt lat="42.96938" lon="0.88252">
        <ele>1097.800049</ele>
        <time>2020-12-16T08:52:33.000Z</time>
      </trkpt>
      <trkpt lat="42.96939" lon="0.88252">
        <ele>1097.800049</ele>
        <time>2020-12-16T08:52:41.000Z</time>
      </trkpt>
      <trkpt lat="42.96942" lon="0.8825">
        <ele>1097.599976</ele>
        <time>2020-12-16T08:52:47.000Z</time>
      </trkpt>
      <trkpt lat="42.96946" lon="0.88245">
        <ele>1097.199951</ele>
        <time>2020-12-16T08:52:53.000Z</time>
      </trkpt>
      <trkpt lat="42.96949" lon="0.8824">
        <ele>1096.599976</ele>
        <time>2020-12-16T08:53:01.000Z</time>
      </trkpt>
      <trkpt lat="42.96949" lon="0.8824">
        <ele>1096.599976</ele>
        <time>2020-12-16T08:53:08.000Z</time>
      </trkpt>
      <trkpt lat="42.96954" lon="0.8823">
        <ele>1095.400024</ele>
        <time>2020-12-16T08:53:14.000Z</time>
      </trkpt>
      <trkpt lat="42.96958" lon="0.88226">
        <ele>1094.599976</ele>
        <time>2020-12-16T08:53:19.000Z</time>
      </trkpt>
      <trkpt lat="42.96958" lon="0.88225">
        <ele>1094.599976</ele>
        <time>2020-12-16T08:53:26.000Z</time>
      </trkpt>
      <trkpt lat="42.96961" lon="0.88226">
        <ele>1094.199951</ele>
        <time>2020-12-16T08:53:37.000Z</time>
      </trkpt>
      <trkpt lat="42.96973" lon="0.88233">
        <ele>1093.599976</ele>
        <time>2020-12-16T08:53:43.000Z</time>
      </trkpt>
      <trkpt lat="42.96976" lon="0.88235">
        <ele>1093.400024</ele>
        <time>2020-12-16T08:53:50.000Z</time>
      </trkpt>
      <trkpt lat="42.96976" lon="0.88235">
        <ele>1093.400024</ele>
        <time>2020-12-16T08:54:06.000Z</time>
      </trkpt>
      <trkpt lat="42.96976" lon="0.88235">
        <ele>1093.400024</ele>
        <time>2020-12-16T08:54:19.000Z</time>
      </trkpt>
      <trkpt lat="42.96976" lon="0.88234">
        <ele>1093.199951</ele>
        <time>2020-12-16T08:54:37.000Z</time>
      </trkpt>
      <trkpt lat="42.96976" lon="0.88234">
        <ele>1093.199951</ele>
        <time>2020-12-16T08:54:52.000Z</time>
      </trkpt>
      <trkpt lat="42.96977" lon="0.88234">
        <ele>1093.199951</ele>
        <time>2020-12-16T08:55:10.000Z</time>
      </trkpt>
      <trkpt lat="42.96977" lon="0.88234">
        <ele>1093.199951</ele>
        <time>2020-12-16T08:55:30.000Z</time>
      </trkpt>
      <trkpt lat="42.96977" lon="0.88235">
        <ele>1093.199951</ele>
        <time>2020-12-16T08:55:40.000Z</time>
      </trkpt>
      <trkpt lat="42.96979" lon="0.88238">
        <ele>1093.199951</ele>
        <time>2020-12-16T08:55:46.000Z</time>
      </trkpt>
      <trkpt lat="42.96981" lon="0.88245">
        <ele>1093.400024</ele>
        <time>2020-12-16T08:55:54.000Z</time>
      </trkpt>
      <trkpt lat="42.96988" lon="0.8825">
        <ele>1093</ele>
        <time>2020-12-16T08:56:00.000Z</time>
      </trkpt>
      <trkpt lat="42.96992" lon="0.88252">
        <ele>1092.800049</ele>
        <time>2020-12-16T08:56:07.000Z</time>
      </trkpt>
      <trkpt lat="42.96992" lon="0.88252">
        <ele>1092.800049</ele>
        <time>2020-12-16T08:56:25.000Z</time>
      </trkpt>
      <trkpt lat="42.96992" lon="0.88252">
        <ele>1092.800049</ele>
        <time>2020-12-16T08:56:38.000Z</time>
      </trkpt>
      <trkpt lat="42.96992" lon="0.88252">
        <ele>1092.800049</ele>
        <time>2020-12-16T08:56:52.000Z</time>
      </trkpt>
      <trkpt lat="42.96992" lon="0.88252">
        <ele>1092.800049</ele>
        <time>2020-12-16T08:57:09.000Z</time>
      </trkpt>
      <trkpt lat="42.9699" lon="0.88257">
        <ele>1093.400024</ele>
        <time>2020-12-16T08:57:27.000Z</time>
      </trkpt>
      <trkpt lat="42.9699" lon="0.88257">
        <ele>1093.400024</ele>
        <time>2020-12-16T08:57:38.000Z</time>
      </trkpt>
      <trkpt lat="42.9699" lon="0.88257">
        <ele>1093.400024</ele>
        <time>2020-12-16T08:57:47.000Z</time>
      </trkpt>
      <trkpt lat="42.9699" lon="0.88257">
        <ele>1093.400024</ele>
        <time>2020-12-16T08:57:56.000Z</time>
      </trkpt>
      <trkpt lat="42.96993" lon="0.88257">
        <ele>1093</ele>
        <time>2020-12-16T08:58:08.000Z</time>
      </trkpt>
      <trkpt lat="42.96993" lon="0.88259">
        <ele>1093.199951</ele>
        <time>2020-12-16T08:58:19.000Z</time>
      </trkpt>
      <trkpt lat="42.96994" lon="0.88261">
        <ele>1093.199951</ele>
        <time>2020-12-16T08:58:26.000Z</time>
      </trkpt>
      <trkpt lat="42.97002" lon="0.88251">
        <ele>1091.599976</ele>
        <time>2020-12-16T08:58:32.000Z</time>
      </trkpt>
      <trkpt lat="42.97001" lon="0.88251">
        <ele>1091.800049</ele>
        <time>2020-12-16T08:58:39.000Z</time>
      </trkpt>
      <trkpt lat="42.97004" lon="0.88244">
        <ele>1091</ele>
        <time>2020-12-16T08:58:43.000Z</time>
      </trkpt>
      <trkpt lat="42.97004" lon="0.88237">
        <ele>1090.400024</ele>
        <time>2020-12-16T08:58:51.000Z</time>
      </trkpt>
      <trkpt lat="42.97007" lon="0.88224">
        <ele>1089.199951</ele>
        <time>2020-12-16T08:58:57.000Z</time>
      </trkpt>
      <trkpt lat="42.9701" lon="0.88216">
        <ele>1089</ele>
        <time>2020-12-16T08:59:04.000Z</time>
      </trkpt>
      <trkpt lat="42.97012" lon="0.88207">
        <ele>1089.199951</ele>
        <time>2020-12-16T08:59:10.000Z</time>
      </trkpt>
      <trkpt lat="42.97016" lon="0.88202">
        <ele>1088.800049</ele>
        <time>2020-12-16T08:59:16.000Z</time>
      </trkpt>
      <trkpt lat="42.97021" lon="0.88201">
        <ele>1088</ele>
        <time>2020-12-16T08:59:21.000Z</time>
      </trkpt>
      <trkpt lat="42.97021" lon="0.88202">
        <ele>1088</ele>
        <time>2020-12-16T08:59:30.000Z</time>
      </trkpt>
      <trkpt lat="42.97024" lon="0.88203">
        <ele>1087.599976</ele>
        <time>2020-12-16T08:59:37.000Z</time>
      </trkpt>
      <trkpt lat="42.97024" lon="0.88203">
        <ele>1087.599976</ele>
        <time>2020-12-16T08:59:46.000Z</time>
      </trkpt>
      <trkpt lat="42.97025" lon="0.88204">
        <ele>1087.400024</ele>
        <time>2020-12-16T08:59:57.000Z</time>
      </trkpt>
      <trkpt lat="42.97028" lon="0.88203">
        <ele>1087</ele>
        <time>2020-12-16T09:00:03.000Z</time>
      </trkpt>
      <trkpt lat="42.97038" lon="0.88198">
        <ele>1086</ele>
        <time>2020-12-16T09:00:09.000Z</time>
      </trkpt>
      <trkpt lat="42.97039" lon="0.88193">
        <ele>1086</ele>
        <time>2020-12-16T09:00:15.000Z</time>
      </trkpt>
      <trkpt lat="42.97043" lon="0.88185">
        <ele>1085.800049</ele>
        <time>2020-12-16T09:00:20.000Z</time>
      </trkpt>
      <trkpt lat="42.97051" lon="0.88176">
        <ele>1085.199951</ele>
        <time>2020-12-16T09:00:27.000Z</time>
      </trkpt>
      <trkpt lat="42.97051" lon="0.88176">
        <ele>1085.199951</ele>
        <time>2020-12-16T09:00:36.000Z</time>
      </trkpt>
      <trkpt lat="42.97051" lon="0.88176">
        <ele>1085.199951</ele>
        <time>2020-12-16T09:00:49.000Z</time>
      </trkpt>
      <trkpt lat="42.97052" lon="0.88176">
        <ele>1085</ele>
        <time>2020-12-16T09:01:07.000Z</time>
      </trkpt>
      <trkpt lat="42.97052" lon="0.88176">
        <ele>1085</ele>
        <time>2020-12-16T09:01:21.000Z</time>
      </trkpt>
      <trkpt lat="42.97052" lon="0.88176">
        <ele>1085</ele>
        <time>2020-12-16T09:01:37.000Z</time>
      </trkpt>
      <trkpt lat="42.97055" lon="0.88175">
        <ele>1084.800049</ele>
        <time>2020-12-16T09:01:52.000Z</time>
      </trkpt>
      <trkpt lat="42.97055" lon="0.88175">
        <ele>1084.800049</ele>
        <time>2020-12-16T09:02:08.000Z</time>
      </trkpt>
      <trkpt lat="42.97055" lon="0.88175">
        <ele>1084.800049</ele>
        <time>2020-12-16T09:02:26.000Z</time>
      </trkpt>
      <trkpt lat="42.97055" lon="0.88174">
        <ele>1084.800049</ele>
        <time>2020-12-16T09:02:44.000Z</time>
      </trkpt>
      <trkpt lat="42.97055" lon="0.88174">
        <ele>1084.800049</ele>
        <time>2020-12-16T09:02:52.000Z</time>
      </trkpt>
      <trkpt lat="42.97055" lon="0.88174">
        <ele>1084.800049</ele>
        <time>2020-12-16T09:03:00.000Z</time>
      </trkpt>
      <trkpt lat="42.97055" lon="0.88174">
        <ele>1084.800049</ele>
        <time>2020-12-16T09:03:13.000Z</time>
      </trkpt>
      <trkpt lat="42.97055" lon="0.88174">
        <ele>1084.800049</ele>
        <time>2020-12-16T09:03:23.000Z</time>
      </trkpt>
      <trkpt lat="42.97055" lon="0.88173">
        <ele>1085</ele>
        <time>2020-12-16T09:03:40.000Z</time>
      </trkpt>
      <trkpt lat="42.97055" lon="0.88173">
        <ele>1085</ele>
        <time>2020-12-16T09:03:57.000Z</time>
      </trkpt>
      <trkpt lat="42.97055" lon="0.88173">
        <ele>1085</ele>
        <time>2020-12-16T09:04:08.000Z</time>
      </trkpt>
      <trkpt lat="42.97055" lon="0.88173">
        <ele>1085</ele>
        <time>2020-12-16T09:04:17.000Z</time>
      </trkpt>
      <trkpt lat="42.97055" lon="0.88173">
        <ele>1085</ele>
        <time>2020-12-16T09:04:29.000Z</time>
      </trkpt>
      <trkpt lat="42.97055" lon="0.88173">
        <ele>1085</ele>
        <time>2020-12-16T09:04:48.000Z</time>
      </trkpt>
      <trkpt lat="42.97057" lon="0.88172">
        <ele>1084.800049</ele>
        <time>2020-12-16T09:05:00.000Z</time>
      </trkpt>
      <trkpt lat="42.97057" lon="0.88172">
        <ele>1084.800049</ele>
        <time>2020-12-16T09:05:14.000Z</time>
      </trkpt>
      <trkpt lat="42.97057" lon="0.88172">
        <ele>1084.800049</ele>
        <time>2020-12-16T09:05:28.000Z</time>
      </trkpt>
      <trkpt lat="42.97055" lon="0.88158">
        <ele>1085.800049</ele>
        <time>2020-12-16T09:05:40.000Z</time>
      </trkpt>
      <trkpt lat="42.97055" lon="0.88154">
        <ele>1086</ele>
        <time>2020-12-16T09:05:49.000Z</time>
      </trkpt>
      <trkpt lat="42.97056" lon="0.88148">
        <ele>1086.199951</ele>
        <time>2020-12-16T09:05:58.000Z</time>
      </trkpt>
      <trkpt lat="42.97056" lon="0.88146">
        <ele>1086.400024</ele>
        <time>2020-12-16T09:06:06.000Z</time>
      </trkpt>
      <trkpt lat="42.97056" lon="0.88146">
        <ele>1086.400024</ele>
        <time>2020-12-16T09:06:17.000Z</time>
      </trkpt>
      <trkpt lat="42.97056" lon="0.88138">
        <ele>1087</ele>
        <time>2020-12-16T09:06:29.000Z</time>
      </trkpt>
      <trkpt lat="42.97058" lon="0.88137">
        <ele>1086.800049</ele>
        <time>2020-12-16T09:06:37.000Z</time>
      </trkpt>
      <trkpt lat="42.9706" lon="0.88137">
        <ele>1086.599976</ele>
        <time>2020-12-16T09:06:47.000Z</time>
      </trkpt>
      <trkpt lat="42.97062" lon="0.88136">
        <ele>1086.599976</ele>
        <time>2020-12-16T09:06:55.000Z</time>
      </trkpt>
      <trkpt lat="42.97067" lon="0.88132">
        <ele>1086.400024</ele>
        <time>2020-12-16T09:07:05.000Z</time>
      </trkpt>
      <trkpt lat="42.97071" lon="0.8813">
        <ele>1086.400024</ele>
        <time>2020-12-16T09:07:12.000Z</time>
      </trkpt>
      <trkpt lat="42.97075" lon="0.88128">
        <ele>1086.199951</ele>
        <time>2020-12-16T09:07:18.000Z</time>
      </trkpt>
      <trkpt lat="42.97099" lon="0.88123">
        <ele>1086.400024</ele>
        <time>2020-12-16T09:07:26.000Z</time>
      </trkpt>
      <trkpt lat="42.97099" lon="0.88123">
        <ele>1086.400024</ele>
        <time>2020-12-16T09:07:39.000Z</time>
      </trkpt>
      <trkpt lat="42.97099" lon="0.88122">
        <ele>1086.400024</ele>
        <time>2020-12-16T09:07:52.000Z</time>
      </trkpt>
      <trkpt lat="42.97099" lon="0.88122">
        <ele>1086.400024</ele>
        <time>2020-12-16T09:08:03.000Z</time>
      </trkpt>
      <trkpt lat="42.97099" lon="0.88122">
        <ele>1086.400024</ele>
        <time>2020-12-16T09:08:16.000Z</time>
      </trkpt>
      <trkpt lat="42.97099" lon="0.88122">
        <ele>1086.400024</ele>
        <time>2020-12-16T09:08:30.000Z</time>
      </trkpt>
      <trkpt lat="42.971" lon="0.88122">
        <ele>1086.400024</ele>
        <time>2020-12-16T09:08:44.000Z</time>
      </trkpt>
      <trkpt lat="42.971" lon="0.88122">
        <ele>1086.400024</ele>
        <time>2020-12-16T09:08:55.000Z</time>
      </trkpt>
      <trkpt lat="42.971" lon="0.88122">
        <ele>1086.400024</ele>
        <time>2020-12-16T09:09:09.000Z</time>
      </trkpt>
      <trkpt lat="42.971" lon="0.88125">
        <ele>1086</ele>
        <time>2020-12-16T09:09:27.000Z</time>
      </trkpt>
      <trkpt lat="42.971" lon="0.88125">
        <ele>1086</ele>
        <time>2020-12-16T09:09:36.000Z</time>
      </trkpt>
      <trkpt lat="42.97101" lon="0.88125">
        <ele>1086</ele>
        <time>2020-12-16T09:09:48.000Z</time>
      </trkpt>
      <trkpt lat="42.97101" lon="0.88125">
        <ele>1086</ele>
        <time>2020-12-16T09:10:07.000Z</time>
      </trkpt>
      <trkpt lat="42.97102" lon="0.88125">
        <ele>1086</ele>
        <time>2020-12-16T09:10:16.000Z</time>
      </trkpt>
      <trkpt lat="42.97104" lon="0.88136">
        <ele>1083.599976</ele>
        <time>2020-12-16T09:10:24.000Z</time>
      </trkpt>
      <trkpt lat="42.97105" lon="0.88155">
        <ele>1080.199951</ele>
        <time>2020-12-16T09:10:31.000Z</time>
      </trkpt>
      <trkpt lat="42.97104" lon="0.88163">
        <ele>1079.800049</ele>
        <time>2020-12-16T09:10:39.000Z</time>
      </trkpt>
      <trkpt lat="42.97104" lon="0.88163">
        <ele>1079.800049</ele>
        <time>2020-12-16T09:10:51.000Z</time>
      </trkpt>
      <trkpt lat="42.97104" lon="0.88165">
        <ele>1079.800049</ele>
        <time>2020-12-16T09:11:02.000Z</time>
      </trkpt>
      <trkpt lat="42.97104" lon="0.88165">
        <ele>1079.800049</ele>
        <time>2020-12-16T09:11:14.000Z</time>
      </trkpt>
      <trkpt lat="42.97103" lon="0.88166">
        <ele>1079.800049</ele>
        <time>2020-12-16T09:11:28.000Z</time>
      </trkpt>
      <trkpt lat="42.97102" lon="0.88166">
        <ele>1079.800049</ele>
        <time>2020-12-16T09:11:37.000Z</time>
      </trkpt>
      <trkpt lat="42.97101" lon="0.88168">
        <ele>1079.800049</ele>
        <time>2020-12-16T09:11:44.000Z</time>
      </trkpt>
      <trkpt lat="42.97101" lon="0.88168">
        <ele>1079.800049</ele>
        <time>2020-12-16T09:11:52.000Z</time>
      </trkpt>
      <trkpt lat="42.97101" lon="0.88168">
        <ele>1079.800049</ele>
        <time>2020-12-16T09:12:08.000Z</time>
      </trkpt>
      <trkpt lat="42.97102" lon="0.88167">
        <ele>1079.800049</ele>
        <time>2020-12-16T09:12:16.000Z</time>
      </trkpt>
      <trkpt lat="42.97102" lon="0.88167">
        <ele>1079.800049</ele>
        <time>2020-12-16T09:12:23.000Z</time>
      </trkpt>
      <trkpt lat="42.97102" lon="0.88169">
        <ele>1079.599976</ele>
        <time>2020-12-16T09:12:32.000Z</time>
      </trkpt>
      <trkpt lat="42.97106" lon="0.88185">
        <ele>1078.199951</ele>
        <time>2020-12-16T09:12:39.000Z</time>
      </trkpt>
      <trkpt lat="42.97115" lon="0.88204">
        <ele>1075.800049</ele>
        <time>2020-12-16T09:12:47.000Z</time>
      </trkpt>
      <trkpt lat="42.97122" lon="0.88214">
        <ele>1074.199951</ele>
        <time>2020-12-16T09:12:54.000Z</time>
      </trkpt>
      <trkpt lat="42.97122" lon="0.88214">
        <ele>1074.199951</ele>
        <time>2020-12-16T09:13:05.000Z</time>
      </trkpt>
      <trkpt lat="42.97122" lon="0.88214">
        <ele>1074.199951</ele>
        <time>2020-12-16T09:13:17.000Z</time>
      </trkpt>
      <trkpt lat="42.97124" lon="0.88219">
        <ele>1073.599976</ele>
        <time>2020-12-16T09:13:24.000Z</time>
      </trkpt>
      <trkpt lat="42.97124" lon="0.88219">
        <ele>1073.599976</ele>
        <time>2020-12-16T09:13:35.000Z</time>
      </trkpt>
      <trkpt lat="42.97125" lon="0.88223">
        <ele>1073.199951</ele>
        <time>2020-12-16T09:13:50.000Z</time>
      </trkpt>
      <trkpt lat="42.97136" lon="0.88247">
        <ele>1070</ele>
        <time>2020-12-16T09:13:55.000Z</time>
      </trkpt>
      <trkpt lat="42.97139" lon="0.88254">
        <ele>1069.400024</ele>
        <time>2020-12-16T09:14:00.000Z</time>
      </trkpt>
      <trkpt lat="42.97139" lon="0.88254">
        <ele>1069.400024</ele>
        <time>2020-12-16T09:14:12.000Z</time>
      </trkpt>
      <trkpt lat="42.97139" lon="0.88254">
        <ele>1069.400024</ele>
        <time>2020-12-16T09:14:28.000Z</time>
      </trkpt>
      <trkpt lat="42.97139" lon="0.88256">
        <ele>1069.199951</ele>
        <time>2020-12-16T09:14:46.000Z</time>
      </trkpt>
      <trkpt lat="42.97139" lon="0.88256">
        <ele>1069.199951</ele>
        <time>2020-12-16T09:14:57.000Z</time>
      </trkpt>
      <trkpt lat="42.97139" lon="0.88256">
        <ele>1069.199951</ele>
        <time>2020-12-16T09:15:14.000Z</time>
      </trkpt>
      <trkpt lat="42.97139" lon="0.88257">
        <ele>1069.199951</ele>
        <time>2020-12-16T09:15:21.000Z</time>
      </trkpt>
      <trkpt lat="42.97139" lon="0.88257">
        <ele>1069.199951</ele>
        <time>2020-12-16T09:15:31.000Z</time>
      </trkpt>
      <trkpt lat="42.97139" lon="0.88257">
        <ele>1069.199951</ele>
        <time>2020-12-16T09:15:40.000Z</time>
      </trkpt>
      <trkpt lat="42.97139" lon="0.88259">
        <ele>1069</ele>
        <time>2020-12-16T09:15:52.000Z</time>
      </trkpt>
      <trkpt lat="42.9714" lon="0.88258">
        <ele>1068.800049</ele>
        <time>2020-12-16T09:15:58.000Z</time>
      </trkpt>
      <trkpt lat="42.9714" lon="0.88258">
        <ele>1068.800049</ele>
        <time>2020-12-16T09:16:11.000Z</time>
      </trkpt>
      <trkpt lat="42.97141" lon="0.88257">
        <ele>1068.800049</ele>
        <time>2020-12-16T09:16:27.000Z</time>
      </trkpt>
      <trkpt lat="42.97144" lon="0.88257">
        <ele>1068.199951</ele>
        <time>2020-12-16T09:16:36.000Z</time>
      </trkpt>
      <trkpt lat="42.97145" lon="0.88261">
        <ele>1068</ele>
        <time>2020-12-16T09:16:44.000Z</time>
      </trkpt>
      <trkpt lat="42.97146" lon="0.88272">
        <ele>1067.199951</ele>
        <time>2020-12-16T09:16:49.000Z</time>
      </trkpt>
      <trkpt lat="42.97149" lon="0.88284">
        <ele>1066</ele>
        <time>2020-12-16T09:16:55.000Z</time>
      </trkpt>
      <trkpt lat="42.9715" lon="0.8829">
        <ele>1065.599976</ele>
        <time>2020-12-16T09:17:01.000Z</time>
      </trkpt>
      <trkpt lat="42.97151" lon="0.8829">
        <ele>1065.599976</ele>
        <time>2020-12-16T09:17:08.000Z</time>
      </trkpt>
      <trkpt lat="42.97153" lon="0.88304">
        <ele>1064.800049</ele>
        <time>2020-12-16T09:17:14.000Z</time>
      </trkpt>
      <trkpt lat="42.97153" lon="0.88304">
        <ele>1064.800049</ele>
        <time>2020-12-16T09:17:22.000Z</time>
      </trkpt>
      <trkpt lat="42.97154" lon="0.88311">
        <ele>1064.199951</ele>
        <time>2020-12-16T09:17:29.000Z</time>
      </trkpt>
      <trkpt lat="42.97158" lon="0.88326">
        <ele>1063</ele>
        <time>2020-12-16T09:17:37.000Z</time>
      </trkpt>
      <trkpt lat="42.97159" lon="0.88337">
        <ele>1062.599976</ele>
        <time>2020-12-16T09:17:44.000Z</time>
      </trkpt>
      <trkpt lat="42.97158" lon="0.88365">
        <ele>1061.599976</ele>
        <time>2020-12-16T09:17:51.000Z</time>
      </trkpt>
      <trkpt lat="42.97157" lon="0.88373">
        <ele>1061.400024</ele>
        <time>2020-12-16T09:17:57.000Z</time>
      </trkpt>
      <trkpt lat="42.9716" lon="0.88379">
        <ele>1060.800049</ele>
        <time>2020-12-16T09:18:03.000Z</time>
      </trkpt>
      <trkpt lat="42.97161" lon="0.88393">
        <ele>1059.599976</ele>
        <time>2020-12-16T09:18:11.000Z</time>
      </trkpt>
      <trkpt lat="42.97163" lon="0.88404">
        <ele>1057.599976</ele>
        <time>2020-12-16T09:18:18.000Z</time>
      </trkpt>
      <trkpt lat="42.97165" lon="0.88407">
        <ele>1057</ele>
        <time>2020-12-16T09:18:26.000Z</time>
      </trkpt>
      <trkpt lat="42.97164" lon="0.88413">
        <ele>1056.400024</ele>
        <time>2020-12-16T09:18:33.000Z</time>
      </trkpt>
      <trkpt lat="42.97164" lon="0.88413">
        <ele>1056.400024</ele>
        <time>2020-12-16T09:18:50.000Z</time>
      </trkpt>
      <trkpt lat="42.97165" lon="0.88418">
        <ele>1055.400024</ele>
        <time>2020-12-16T09:19:00.000Z</time>
      </trkpt>
      <trkpt lat="42.97166" lon="0.88434">
        <ele>1053</ele>
        <time>2020-12-16T09:19:06.000Z</time>
      </trkpt>
      <trkpt lat="42.97165" lon="0.8844">
        <ele>1052.199951</ele>
        <time>2020-12-16T09:19:11.000Z</time>
      </trkpt>
      <trkpt lat="42.97165" lon="0.88446">
        <ele>1051.400024</ele>
        <time>2020-12-16T09:19:17.000Z</time>
      </trkpt>
      <trkpt lat="42.97163" lon="0.88451">
        <ele>1051</ele>
        <time>2020-12-16T09:19:26.000Z</time>
      </trkpt>
      <trkpt lat="42.9716" lon="0.8846">
        <ele>1050.400024</ele>
        <time>2020-12-16T09:19:32.000Z</time>
      </trkpt>
      <trkpt lat="42.97158" lon="0.88465">
        <ele>1050.800049</ele>
        <time>2020-12-16T09:19:40.000Z</time>
      </trkpt>
      <trkpt lat="42.97154" lon="0.88478">
        <ele>1050.599976</ele>
        <time>2020-12-16T09:19:47.000Z</time>
      </trkpt>
      <trkpt lat="42.97154" lon="0.88478">
        <ele>1050.599976</ele>
        <time>2020-12-16T09:19:56.000Z</time>
      </trkpt>
      <trkpt lat="42.97146" lon="0.88488">
        <ele>1050.199951</ele>
        <time>2020-12-16T09:20:01.000Z</time>
      </trkpt>
      <trkpt lat="42.97142" lon="0.88499">
        <ele>1048.800049</ele>
        <time>2020-12-16T09:20:09.000Z</time>
      </trkpt>
      <trkpt lat="42.97141" lon="0.88506">
        <ele>1047.400024</ele>
        <time>2020-12-16T09:20:17.000Z</time>
      </trkpt>
      <trkpt lat="42.97138" lon="0.88512">
        <ele>1046.599976</ele>
        <time>2020-12-16T09:20:23.000Z</time>
      </trkpt>
      <trkpt lat="42.97139" lon="0.88516">
        <ele>1045.599976</ele>
        <time>2020-12-16T09:20:30.000Z</time>
      </trkpt>
      <trkpt lat="42.97139" lon="0.88516">
        <ele>1045.599976</ele>
        <time>2020-12-16T09:20:42.000Z</time>
      </trkpt>
      <trkpt lat="42.97139" lon="0.88527">
        <ele>1044</ele>
        <time>2020-12-16T09:20:48.000Z</time>
      </trkpt>
      <trkpt lat="42.97139" lon="0.88527">
        <ele>1044</ele>
        <time>2020-12-16T09:21:04.000Z</time>
      </trkpt>
      <trkpt lat="42.97139" lon="0.88527">
        <ele>1044</ele>
        <time>2020-12-16T09:21:24.000Z</time>
      </trkpt>
      <trkpt lat="42.97139" lon="0.88527">
        <ele>1044</ele>
        <time>2020-12-16T09:21:38.000Z</time>
      </trkpt>
      <trkpt lat="42.97139" lon="0.88527">
        <ele>1044</ele>
        <time>2020-12-16T09:21:57.000Z</time>
      </trkpt>
      <trkpt lat="42.97139" lon="0.88528">
        <ele>1043.800049</ele>
        <time>2020-12-16T09:22:13.000Z</time>
      </trkpt>
      <trkpt lat="42.97139" lon="0.88528">
        <ele>1043.800049</ele>
        <time>2020-12-16T09:22:29.000Z</time>
      </trkpt>
      <trkpt lat="42.9714" lon="0.88528">
        <ele>1043.599976</ele>
        <time>2020-12-16T09:22:48.000Z</time>
      </trkpt>
      <trkpt lat="42.9714" lon="0.88528">
        <ele>1043.599976</ele>
        <time>2020-12-16T09:23:02.000Z</time>
      </trkpt>
      <trkpt lat="42.9714" lon="0.88528">
        <ele>1043.599976</ele>
        <time>2020-12-16T09:23:14.000Z</time>
      </trkpt>
      <trkpt lat="42.9714" lon="0.88528">
        <ele>1043.599976</ele>
        <time>2020-12-16T09:23:25.000Z</time>
      </trkpt>
      <trkpt lat="42.9714" lon="0.8853">
        <ele>1043.400024</ele>
        <time>2020-12-16T09:23:47.000Z</time>
      </trkpt>
      <trkpt lat="42.9714" lon="0.8853">
        <ele>1043.400024</ele>
        <time>2020-12-16T09:23:59.000Z</time>
      </trkpt>
      <trkpt lat="42.97141" lon="0.8853">
        <ele>1043.199951</ele>
        <time>2020-12-16T09:24:13.000Z</time>
      </trkpt>
      <trkpt lat="42.97141" lon="0.8853">
        <ele>1043.199951</ele>
        <time>2020-12-16T09:24:34.000Z</time>
      </trkpt>
      <trkpt lat="42.97141" lon="0.8853">
        <ele>1043</ele>
        <time>2020-12-16T09:24:51.000Z</time>
      </trkpt>
      <trkpt lat="42.97141" lon="0.8853">
        <ele>1043</ele>
        <time>2020-12-16T09:25:07.000Z</time>
      </trkpt>
      <trkpt lat="42.97141" lon="0.8853">
        <ele>1043</ele>
        <time>2020-12-16T09:25:22.000Z</time>
      </trkpt>
      <trkpt lat="42.97141" lon="0.8853">
        <ele>1043</ele>
        <time>2020-12-16T09:25:33.000Z</time>
      </trkpt>
      <trkpt lat="42.97141" lon="0.8853">
        <ele>1043</ele>
        <time>2020-12-16T09:25:45.000Z</time>
      </trkpt>
      <trkpt lat="42.97141" lon="0.8853">
        <ele>1043</ele>
        <time>2020-12-16T09:26:01.000Z</time>
      </trkpt>
      <trkpt lat="42.97141" lon="0.8853">
        <ele>1043</ele>
        <time>2020-12-16T09:26:13.000Z</time>
      </trkpt>
      <trkpt lat="42.97141" lon="0.8853">
        <ele>1043</ele>
        <time>2020-12-16T09:26:28.000Z</time>
      </trkpt>
      <trkpt lat="42.97141" lon="0.8853">
        <ele>1043</ele>
        <time>2020-12-16T09:26:38.000Z</time>
      </trkpt>
      <trkpt lat="42.97141" lon="0.8853">
        <ele>1042.800049</ele>
        <time>2020-12-16T09:26:51.000Z</time>
      </trkpt>
      <trkpt lat="42.97141" lon="0.8853">
        <ele>1042.800049</ele>
        <time>2020-12-16T09:26:59.000Z</time>
      </trkpt>
      <trkpt lat="42.97141" lon="0.8853">
        <ele>1042.800049</ele>
        <time>2020-12-16T09:27:07.000Z</time>
      </trkpt>
      <trkpt lat="42.97141" lon="0.8853">
        <ele>1042.800049</ele>
        <time>2020-12-16T09:27:23.000Z</time>
      </trkpt>
      <trkpt lat="42.97143" lon="0.88532">
        <ele>1042.199951</ele>
        <time>2020-12-16T09:27:34.000Z</time>
      </trkpt>
      <trkpt lat="42.97143" lon="0.88532">
        <ele>1042.199951</ele>
        <time>2020-12-16T09:27:43.000Z</time>
      </trkpt>
      <trkpt lat="42.97143" lon="0.88532">
        <ele>1042.199951</ele>
        <time>2020-12-16T09:27:51.000Z</time>
      </trkpt>
      <trkpt lat="42.97144" lon="0.88532">
        <ele>1041.599976</ele>
        <time>2020-12-16T09:28:09.000Z</time>
      </trkpt>
      <trkpt lat="42.97144" lon="0.88532">
        <ele>1041.599976</ele>
        <time>2020-12-16T09:28:29.000Z</time>
      </trkpt>
      <trkpt lat="42.97144" lon="0.88532">
        <ele>1041.599976</ele>
        <time>2020-12-16T09:28:42.000Z</time>
      </trkpt>
      <trkpt lat="42.97144" lon="0.88532">
        <ele>1041.599976</ele>
        <time>2020-12-16T09:28:55.000Z</time>
      </trkpt>
      <trkpt lat="42.97144" lon="0.88532">
        <ele>1041.599976</ele>
        <time>2020-12-16T09:29:05.000Z</time>
      </trkpt>
      <trkpt lat="42.97144" lon="0.88532">
        <ele>1041.599976</ele>
        <time>2020-12-16T09:29:17.000Z</time>
      </trkpt>
      <trkpt lat="42.97147" lon="0.88543">
        <ele>1039.800049</ele>
        <time>2020-12-16T09:29:27.000Z</time>
      </trkpt>
      <trkpt lat="42.97146" lon="0.88557">
        <ele>1039.199951</ele>
        <time>2020-12-16T09:29:35.000Z</time>
      </trkpt>
      <trkpt lat="42.97145" lon="0.8857">
        <ele>1038.199951</ele>
        <time>2020-12-16T09:29:41.000Z</time>
      </trkpt>
      <trkpt lat="42.97145" lon="0.8857">
        <ele>1038.199951</ele>
        <time>2020-12-16T09:29:48.000Z</time>
      </trkpt>
      <trkpt lat="42.97145" lon="0.8857">
        <ele>1038.199951</ele>
        <time>2020-12-16T09:29:57.000Z</time>
      </trkpt>
      <trkpt lat="42.97145" lon="0.8857">
        <ele>1038.199951</ele>
        <time>2020-12-16T09:30:05.000Z</time>
      </trkpt>
      <trkpt lat="42.97145" lon="0.8857">
        <ele>1038.199951</ele>
        <time>2020-12-16T09:30:15.000Z</time>
      </trkpt>
      <trkpt lat="42.97146" lon="0.88572">
        <ele>1037.599976</ele>
        <time>2020-12-16T09:30:22.000Z</time>
      </trkpt>
      <trkpt lat="42.97146" lon="0.88572">
        <ele>1037.599976</ele>
        <time>2020-12-16T09:30:32.000Z</time>
      </trkpt>
      <trkpt lat="42.97146" lon="0.88572">
        <ele>1037.599976</ele>
        <time>2020-12-16T09:30:43.000Z</time>
      </trkpt>
      <trkpt lat="42.97146" lon="0.88572">
        <ele>1037.599976</ele>
        <time>2020-12-16T09:30:52.000Z</time>
      </trkpt>
      <trkpt lat="42.97146" lon="0.88572">
        <ele>1037.599976</ele>
        <time>2020-12-16T09:31:03.000Z</time>
      </trkpt>
      <trkpt lat="42.97146" lon="0.88572">
        <ele>1037.599976</ele>
        <time>2020-12-16T09:31:19.000Z</time>
      </trkpt>
      <trkpt lat="42.97146" lon="0.88572">
        <ele>1037.599976</ele>
        <time>2020-12-16T09:31:31.000Z</time>
      </trkpt>
      <trkpt lat="42.97146" lon="0.88573">
        <ele>1037.800049</ele>
        <time>2020-12-16T09:31:45.000Z</time>
      </trkpt>
      <trkpt lat="42.97146" lon="0.88573">
        <ele>1037.800049</ele>
        <time>2020-12-16T09:31:53.000Z</time>
      </trkpt>
      <trkpt lat="42.97146" lon="0.88573">
        <ele>1037.800049</ele>
        <time>2020-12-16T09:32:02.000Z</time>
      </trkpt>
      <trkpt lat="42.97146" lon="0.88573">
        <ele>1037.800049</ele>
        <time>2020-12-16T09:32:13.000Z</time>
      </trkpt>
      <trkpt lat="42.97146" lon="0.88574">
        <ele>1037.400024</ele>
        <time>2020-12-16T09:32:26.000Z</time>
      </trkpt>
      <trkpt lat="42.97146" lon="0.88574">
        <ele>1037.400024</ele>
        <time>2020-12-16T09:32:38.000Z</time>
      </trkpt>
      <trkpt lat="42.97146" lon="0.88574">
        <ele>1037.400024</ele>
        <time>2020-12-16T09:32:52.000Z</time>
      </trkpt>
      <trkpt lat="42.97147" lon="0.88579">
        <ele>1036.599976</ele>
        <time>2020-12-16T09:33:05.000Z</time>
      </trkpt>
      <trkpt lat="42.97147" lon="0.88579">
        <ele>1036.599976</ele>
        <time>2020-12-16T09:33:18.000Z</time>
      </trkpt>
      <trkpt lat="42.97147" lon="0.88579">
        <ele>1036.599976</ele>
        <time>2020-12-16T09:33:35.000Z</time>
      </trkpt>
      <trkpt lat="42.97147" lon="0.88581">
        <ele>1036.199951</ele>
        <time>2020-12-16T09:33:45.000Z</time>
      </trkpt>
      <trkpt lat="42.97147" lon="0.88581">
        <ele>1036.199951</ele>
        <time>2020-12-16T09:34:01.000Z</time>
      </trkpt>
      <trkpt lat="42.97147" lon="0.88581">
        <ele>1036</ele>
        <time>2020-12-16T09:34:21.000Z</time>
      </trkpt>
      <trkpt lat="42.97147" lon="0.88581">
        <ele>1036</ele>
        <time>2020-12-16T09:34:33.000Z</time>
      </trkpt>
      <trkpt lat="42.97147" lon="0.88581">
        <ele>1036</ele>
        <time>2020-12-16T09:34:44.000Z</time>
      </trkpt>
      <trkpt lat="42.97147" lon="0.88581">
        <ele>1036</ele>
        <time>2020-12-16T09:34:55.000Z</time>
      </trkpt>
      <trkpt lat="42.97147" lon="0.88582">
        <ele>1036</ele>
        <time>2020-12-16T09:35:12.000Z</time>
      </trkpt>
      <trkpt lat="42.97147" lon="0.88582">
        <ele>1036</ele>
        <time>2020-12-16T09:35:19.000Z</time>
      </trkpt>
      <trkpt lat="42.97147" lon="0.88582">
        <ele>1036</ele>
        <time>2020-12-16T09:35:30.000Z</time>
      </trkpt>
      <trkpt lat="42.97147" lon="0.88599">
        <ele>1034.400024</ele>
        <time>2020-12-16T09:35:38.000Z</time>
      </trkpt>
      <trkpt lat="42.97157" lon="0.88662">
        <ele>1025.199951</ele>
        <time>2020-12-16T09:35:46.000Z</time>
      </trkpt>
      <trkpt lat="42.97163" lon="0.88693">
        <ele>1021.400024</ele>
        <time>2020-12-16T09:35:51.000Z</time>
      </trkpt>
      <trkpt lat="42.97162" lon="0.8872">
        <ele>1019.799988</ele>
        <time>2020-12-16T09:35:58.000Z</time>
      </trkpt>
      <trkpt lat="42.97165" lon="0.88751">
        <ele>1012.799988</ele>
        <time>2020-12-16T09:36:05.000Z</time>
      </trkpt>
      <trkpt lat="42.97165" lon="0.88751">
        <ele>1012.799988</ele>
        <time>2020-12-16T09:36:13.000Z</time>
      </trkpt>
      <trkpt lat="42.97165" lon="0.88751">
        <ele>1012.799988</ele>
        <time>2020-12-16T09:36:20.000Z</time>
      </trkpt>
      <trkpt lat="42.97171" lon="0.88759">
        <ele>1009.200012</ele>
        <time>2020-12-16T09:36:28.000Z</time>
      </trkpt>
      <trkpt lat="42.97175" lon="0.88763">
        <ele>1007.200012</ele>
        <time>2020-12-16T09:36:32.000Z</time>
      </trkpt>
      <trkpt lat="42.97179" lon="0.88766">
        <ele>1006</ele>
        <time>2020-12-16T09:36:38.000Z</time>
      </trkpt>
      <trkpt lat="42.97179" lon="0.88766">
        <ele>1006</ele>
        <time>2020-12-16T09:36:48.000Z</time>
      </trkpt>
      <trkpt lat="42.97179" lon="0.88766">
        <ele>1006</ele>
        <time>2020-12-16T09:37:00.000Z</time>
      </trkpt>
      <trkpt lat="42.97179" lon="0.88766">
        <ele>1006</ele>
        <time>2020-12-16T09:37:08.000Z</time>
      </trkpt>
      <trkpt lat="42.9718" lon="0.88767">
        <ele>1005.799988</ele>
        <time>2020-12-16T09:37:27.000Z</time>
      </trkpt>
      <trkpt lat="42.9718" lon="0.88767">
        <ele>1005.799988</ele>
        <time>2020-12-16T09:37:35.000Z</time>
      </trkpt>
      <trkpt lat="42.9718" lon="0.88767">
        <ele>1005.799988</ele>
        <time>2020-12-16T09:37:46.000Z</time>
      </trkpt>
      <trkpt lat="42.97179" lon="0.88771">
        <ele>1005</ele>
        <time>2020-12-16T09:38:00.000Z</time>
      </trkpt>
      <trkpt lat="42.97179" lon="0.88771">
        <ele>1005</ele>
        <time>2020-12-16T09:38:11.000Z</time>
      </trkpt>
      <trkpt lat="42.97179" lon="0.88771">
        <ele>1005</ele>
        <time>2020-12-16T09:38:28.000Z</time>
      </trkpt>
      <trkpt lat="42.97179" lon="0.88773">
        <ele>1004.799988</ele>
        <time>2020-12-16T09:38:50.000Z</time>
      </trkpt>
      <trkpt lat="42.97179" lon="0.88773">
        <ele>1004.799988</ele>
        <time>2020-12-16T09:39:06.000Z</time>
      </trkpt>
      <trkpt lat="42.97178" lon="0.88778">
        <ele>1004</ele>
        <time>2020-12-16T09:39:28.000Z</time>
      </trkpt>
      <trkpt lat="42.97178" lon="0.88778">
        <ele>1004</ele>
        <time>2020-12-16T09:39:43.000Z</time>
      </trkpt>
      <trkpt lat="42.97178" lon="0.88778">
        <ele>1003.799988</ele>
        <time>2020-12-16T09:40:04.000Z</time>
      </trkpt>
      <trkpt lat="42.97178" lon="0.88778">
        <ele>1003.799988</ele>
        <time>2020-12-16T09:40:22.000Z</time>
      </trkpt>
      <trkpt lat="42.97178" lon="0.88779">
        <ele>1003.799988</ele>
        <time>2020-12-16T09:40:43.000Z</time>
      </trkpt>
      <trkpt lat="42.97178" lon="0.88779">
        <ele>1003.799988</ele>
        <time>2020-12-16T09:41:03.000Z</time>
      </trkpt>
      <trkpt lat="42.97178" lon="0.8878">
        <ele>1003.599976</ele>
        <time>2020-12-16T09:41:23.000Z</time>
      </trkpt>
      <trkpt lat="42.97178" lon="0.8878">
        <ele>1003.599976</ele>
        <time>2020-12-16T09:41:35.000Z</time>
      </trkpt>
      <trkpt lat="42.97178" lon="0.8878">
        <ele>1003.599976</ele>
        <time>2020-12-16T09:41:46.000Z</time>
      </trkpt>
      <trkpt lat="42.97189" lon="0.88788">
        <ele>1000</ele>
        <time>2020-12-16T09:41:54.000Z</time>
      </trkpt>
      <trkpt lat="42.97194" lon="0.88798">
        <ele>997.400024</ele>
        <time>2020-12-16T09:42:02.000Z</time>
      </trkpt>
      <trkpt lat="42.97198" lon="0.88808">
        <ele>994.799988</ele>
        <time>2020-12-16T09:42:11.000Z</time>
      </trkpt>
      <trkpt lat="42.97199" lon="0.88811">
        <ele>993.599976</ele>
        <time>2020-12-16T09:42:21.000Z</time>
      </trkpt>
      <trkpt lat="42.97223" lon="0.88816">
        <ele>988.400024</ele>
        <time>2020-12-16T09:42:32.000Z</time>
      </trkpt>
      <trkpt lat="42.97223" lon="0.88818">
        <ele>987.799988</ele>
        <time>2020-12-16T09:42:44.000Z</time>
      </trkpt>
      <trkpt lat="42.97225" lon="0.88828">
        <ele>984.799988</ele>
        <time>2020-12-16T09:42:53.000Z</time>
      </trkpt>
      <trkpt lat="42.97227" lon="0.88831">
        <ele>983.799988</ele>
        <time>2020-12-16T09:43:01.000Z</time>
      </trkpt>
      <trkpt lat="42.97227" lon="0.88831">
        <ele>983.799988</ele>
        <time>2020-12-16T09:43:12.000Z</time>
      </trkpt>
      <trkpt lat="42.97226" lon="0.88834">
        <ele>983</ele>
        <time>2020-12-16T09:43:22.000Z</time>
      </trkpt>
      <trkpt lat="42.97225" lon="0.88838">
        <ele>982.200012</ele>
        <time>2020-12-16T09:43:31.000Z</time>
      </trkpt>
      <trkpt lat="42.97225" lon="0.88838">
        <ele>982.200012</ele>
        <time>2020-12-16T09:43:52.000Z</time>
      </trkpt>
      <trkpt lat="42.97226" lon="0.8884">
        <ele>981.400024</ele>
        <time>2020-12-16T09:44:14.000Z</time>
      </trkpt>
      <trkpt lat="42.97226" lon="0.8884">
        <ele>981.400024</ele>
        <time>2020-12-16T09:44:31.000Z</time>
      </trkpt>
      <trkpt lat="42.97229" lon="0.88846">
        <ele>979.599976</ele>
        <time>2020-12-16T09:44:46.000Z</time>
      </trkpt>
      <trkpt lat="42.97229" lon="0.88846">
        <ele>979.599976</ele>
        <time>2020-12-16T09:45:00.000Z</time>
      </trkpt>
      <trkpt lat="42.97229" lon="0.88846">
        <ele>979.599976</ele>
        <time>2020-12-16T09:45:11.000Z</time>
      </trkpt>
      <trkpt lat="42.97234" lon="0.88867">
        <ele>972.799988</ele>
        <time>2020-12-16T09:45:18.000Z</time>
      </trkpt>
      <trkpt lat="42.97257" lon="0.88867">
        <ele>969.200012</ele>
        <time>2020-12-16T09:45:25.000Z</time>
      </trkpt>
      <trkpt lat="42.97257" lon="0.88867">
        <ele>969.200012</ele>
        <time>2020-12-16T09:45:36.000Z</time>
      </trkpt>
      <trkpt lat="42.97257" lon="0.88867">
        <ele>969.200012</ele>
        <time>2020-12-16T09:45:43.000Z</time>
      </trkpt>
      <trkpt lat="42.97257" lon="0.88869">
        <ele>968.799988</ele>
        <time>2020-12-16T09:45:52.000Z</time>
      </trkpt>
      <trkpt lat="42.9726" lon="0.88869">
        <ele>968.400024</ele>
        <time>2020-12-16T09:46:00.000Z</time>
      </trkpt>
      <trkpt lat="42.9726" lon="0.88869">
        <ele>968.400024</ele>
        <time>2020-12-16T09:46:13.000Z</time>
      </trkpt>
      <trkpt lat="42.9726" lon="0.88869">
        <ele>968.400024</ele>
        <time>2020-12-16T09:46:33.000Z</time>
      </trkpt>
      <trkpt lat="42.9727" lon="0.88872">
        <ele>968</ele>
        <time>2020-12-16T09:46:43.000Z</time>
      </trkpt>
      <trkpt lat="42.97269" lon="0.88881">
        <ele>965.599976</ele>
        <time>2020-12-16T09:46:51.000Z</time>
      </trkpt>
      <trkpt lat="42.97269" lon="0.88881">
        <ele>965.599976</ele>
        <time>2020-12-16T09:46:59.000Z</time>
      </trkpt>
      <trkpt lat="42.97272" lon="0.88887">
        <ele>964.200012</ele>
        <time>2020-12-16T09:47:08.000Z</time>
      </trkpt>
      <trkpt lat="42.97291" lon="0.88891">
        <ele>963.200012</ele>
        <time>2020-12-16T09:47:17.000Z</time>
      </trkpt>
      <trkpt lat="42.97292" lon="0.88894">
        <ele>962.400024</ele>
        <time>2020-12-16T09:47:26.000Z</time>
      </trkpt>
      <trkpt lat="42.97301" lon="0.88903">
        <ele>959.200012</ele>
        <time>2020-12-16T09:47:33.000Z</time>
      </trkpt>
      <trkpt lat="42.97316" lon="0.88904">
        <ele>959.200012</ele>
        <time>2020-12-16T09:47:41.000Z</time>
      </trkpt>
      <trkpt lat="42.97319" lon="0.8891">
        <ele>957</ele>
        <time>2020-12-16T09:47:47.000Z</time>
      </trkpt>
      <trkpt lat="42.97319" lon="0.8891">
        <ele>957</ele>
        <time>2020-12-16T09:47:56.000Z</time>
      </trkpt>
      <trkpt lat="42.97319" lon="0.8891">
        <ele>957</ele>
        <time>2020-12-16T09:48:04.000Z</time>
      </trkpt>
      <trkpt lat="42.97344" lon="0.88914">
        <ele>956.400024</ele>
        <time>2020-12-16T09:48:11.000Z</time>
      </trkpt>
      <trkpt lat="42.97351" lon="0.88918">
        <ele>954.799988</ele>
        <time>2020-12-16T09:48:19.000Z</time>
      </trkpt>
      <trkpt lat="42.97351" lon="0.88921">
        <ele>954</ele>
        <time>2020-12-16T09:48:28.000Z</time>
      </trkpt>
      <trkpt lat="42.97351" lon="0.88923">
        <ele>953.400024</ele>
        <time>2020-12-16T09:48:34.000Z</time>
      </trkpt>
      <trkpt lat="42.97353" lon="0.88924">
        <ele>952.799988</ele>
        <time>2020-12-16T09:48:41.000Z</time>
      </trkpt>
      <trkpt lat="42.97349" lon="0.88936">
        <ele>948.400024</ele>
        <time>2020-12-16T09:48:53.000Z</time>
      </trkpt>
      <trkpt lat="42.97349" lon="0.88936">
        <ele>948.400024</ele>
        <time>2020-12-16T09:49:11.000Z</time>
      </trkpt>
      <trkpt lat="42.97349" lon="0.88936">
        <ele>948.400024</ele>
        <time>2020-12-16T09:49:23.000Z</time>
      </trkpt>
      <trkpt lat="42.9735" lon="0.88935">
        <ele>948.799988</ele>
        <time>2020-12-16T09:49:44.000Z</time>
      </trkpt>
      <trkpt lat="42.9735" lon="0.88935">
        <ele>948.799988</ele>
        <time>2020-12-16T09:49:59.000Z</time>
      </trkpt>
      <trkpt lat="42.97359" lon="0.88934">
        <ele>949.200012</ele>
        <time>2020-12-16T09:50:17.000Z</time>
      </trkpt>
      <trkpt lat="42.97359" lon="0.88934">
        <ele>949.200012</ele>
        <time>2020-12-16T09:50:35.000Z</time>
      </trkpt>
      <trkpt lat="42.97362" lon="0.88935">
        <ele>949.200012</ele>
        <time>2020-12-16T09:50:51.000Z</time>
      </trkpt>
      <trkpt lat="42.97362" lon="0.88935">
        <ele>949.200012</ele>
        <time>2020-12-16T09:51:10.000Z</time>
      </trkpt>
      <trkpt lat="42.97361" lon="0.88934">
        <ele>949.200012</ele>
        <time>2020-12-16T09:51:29.000Z</time>
      </trkpt>
      <trkpt lat="42.97361" lon="0.88934">
        <ele>949.200012</ele>
        <time>2020-12-16T09:51:47.000Z</time>
      </trkpt>
      <trkpt lat="42.97361" lon="0.88934">
        <ele>949.200012</ele>
        <time>2020-12-16T09:51:57.000Z</time>
      </trkpt>
      <trkpt lat="42.97362" lon="0.88935">
        <ele>949.200012</ele>
        <time>2020-12-16T09:52:05.000Z</time>
      </trkpt>
      <trkpt lat="42.97368" lon="0.88944">
        <ele>946</ele>
        <time>2020-12-16T09:52:14.000Z</time>
      </trkpt>
      <trkpt lat="42.97392" lon="0.88947">
        <ele>945</ele>
        <time>2020-12-16T09:52:21.000Z</time>
      </trkpt>
      <trkpt lat="42.97392" lon="0.88947">
        <ele>945</ele>
        <time>2020-12-16T09:52:30.000Z</time>
      </trkpt>
      <trkpt lat="42.97392" lon="0.8895">
        <ele>944</ele>
        <time>2020-12-16T09:52:38.000Z</time>
      </trkpt>
      <trkpt lat="42.97392" lon="0.88953">
        <ele>942.799988</ele>
        <time>2020-12-16T09:52:46.000Z</time>
      </trkpt>
      <trkpt lat="42.97395" lon="0.88955">
        <ele>942.200012</ele>
        <time>2020-12-16T09:52:52.000Z</time>
      </trkpt>
      <trkpt lat="42.97395" lon="0.88956">
        <ele>942</ele>
        <time>2020-12-16T09:52:59.000Z</time>
      </trkpt>
      <trkpt lat="42.97406" lon="0.88956">
        <ele>942</ele>
        <time>2020-12-16T09:53:08.000Z</time>
      </trkpt>
      <trkpt lat="42.97406" lon="0.88956">
        <ele>942</ele>
        <time>2020-12-16T09:53:15.000Z</time>
      </trkpt>
      <trkpt lat="42.97406" lon="0.88956">
        <ele>942</ele>
        <time>2020-12-16T09:53:27.000Z</time>
      </trkpt>
      <trkpt lat="42.97406" lon="0.88956">
        <ele>942</ele>
        <time>2020-12-16T09:53:36.000Z</time>
      </trkpt>
      <trkpt lat="42.97406" lon="0.88956">
        <ele>941.799988</ele>
        <time>2020-12-16T09:53:44.000Z</time>
      </trkpt>
      <trkpt lat="42.97406" lon="0.88956">
        <ele>941.799988</ele>
        <time>2020-12-16T09:53:53.000Z</time>
      </trkpt>
      <trkpt lat="42.97406" lon="0.88956">
        <ele>941.799988</ele>
        <time>2020-12-16T09:54:03.000Z</time>
      </trkpt>
      <trkpt lat="42.97406" lon="0.88956">
        <ele>941.799988</ele>
        <time>2020-12-16T09:54:12.000Z</time>
      </trkpt>
      <trkpt lat="42.97407" lon="0.88957">
        <ele>941.599976</ele>
        <time>2020-12-16T09:54:21.000Z</time>
      </trkpt>
      <trkpt lat="42.97407" lon="0.88957">
        <ele>941.599976</ele>
        <time>2020-12-16T09:54:28.000Z</time>
      </trkpt>
      <trkpt lat="42.97407" lon="0.88957">
        <ele>941.599976</ele>
        <time>2020-12-16T09:54:38.000Z</time>
      </trkpt>
      <trkpt lat="42.97407" lon="0.88957">
        <ele>941.599976</ele>
        <time>2020-12-16T09:54:46.000Z</time>
      </trkpt>
      <trkpt lat="42.97407" lon="0.88957">
        <ele>941.599976</ele>
        <time>2020-12-16T09:54:58.000Z</time>
      </trkpt>
      <trkpt lat="42.97408" lon="0.88957">
        <ele>941.799988</ele>
        <time>2020-12-16T09:55:09.000Z</time>
      </trkpt>
      <trkpt lat="42.97408" lon="0.88957">
        <ele>941.799988</ele>
        <time>2020-12-16T09:55:17.000Z</time>
      </trkpt>
      <trkpt lat="42.97408" lon="0.88957">
        <ele>941.799988</ele>
        <time>2020-12-16T09:55:26.000Z</time>
      </trkpt>
      <trkpt lat="42.97408" lon="0.88957">
        <ele>941.799988</ele>
        <time>2020-12-16T09:55:35.000Z</time>
      </trkpt>
      <trkpt lat="42.9741" lon="0.88956">
        <ele>941.599976</ele>
        <time>2020-12-16T09:55:44.000Z</time>
      </trkpt>
      <trkpt lat="42.9741" lon="0.88956">
        <ele>941.599976</ele>
        <time>2020-12-16T09:55:52.000Z</time>
      </trkpt>
      <trkpt lat="42.97426" lon="0.88949">
        <ele>939.599976</ele>
        <time>2020-12-16T09:55:58.000Z</time>
      </trkpt>
      <trkpt lat="42.97426" lon="0.88949">
        <ele>939.599976</ele>
        <time>2020-12-16T09:56:07.000Z</time>
      </trkpt>
      <trkpt lat="42.97426" lon="0.88949">
        <ele>939.599976</ele>
        <time>2020-12-16T09:56:16.000Z</time>
      </trkpt>
      <trkpt lat="42.97426" lon="0.88949">
        <ele>939.599976</ele>
        <time>2020-12-16T09:56:30.000Z</time>
      </trkpt>
      <trkpt lat="42.97434" lon="0.88944">
        <ele>939</ele>
        <time>2020-12-16T09:56:43.000Z</time>
      </trkpt>
      <trkpt lat="42.97451" lon="0.88933">
        <ele>937.799988</ele>
        <time>2020-12-16T09:56:50.000Z</time>
      </trkpt>
      <trkpt lat="42.97476" lon="0.88922">
        <ele>931.799988</ele>
        <time>2020-12-16T09:56:57.000Z</time>
      </trkpt>
      <trkpt lat="42.97495" lon="0.88911">
        <ele>924.400024</ele>
        <time>2020-12-16T09:57:03.000Z</time>
      </trkpt>
      <trkpt lat="42.9752" lon="0.88906">
        <ele>916.599976</ele>
        <time>2020-12-16T09:57:11.000Z</time>
      </trkpt>
      <trkpt lat="42.97521" lon="0.88905">
        <ele>916.200012</ele>
        <time>2020-12-16T09:57:20.000Z</time>
      </trkpt>
      <trkpt lat="42.97521" lon="0.88905">
        <ele>916.200012</ele>
        <time>2020-12-16T09:57:34.000Z</time>
      </trkpt>
      <trkpt lat="42.97521" lon="0.88905">
        <ele>916.200012</ele>
        <time>2020-12-16T09:57:51.000Z</time>
      </trkpt>
      <trkpt lat="42.97537" lon="0.88902">
        <ele>913.400024</ele>
        <time>2020-12-16T09:58:09.000Z</time>
      </trkpt>
      <trkpt lat="42.97537" lon="0.88902">
        <ele>913.400024</ele>
        <time>2020-12-16T09:58:30.000Z</time>
      </trkpt>
      <trkpt lat="42.9754" lon="0.889">
        <ele>912.799988</ele>
        <time>2020-12-16T09:58:42.000Z</time>
      </trkpt>
      <trkpt lat="42.9754" lon="0.889">
        <ele>912.799988</ele>
        <time>2020-12-16T09:59:01.000Z</time>
      </trkpt>
      <trkpt lat="42.97545" lon="0.88897">
        <ele>912.200012</ele>
        <time>2020-12-16T09:59:25.000Z</time>
      </trkpt>
      <trkpt lat="42.97545" lon="0.88897">
        <ele>912.200012</ele>
        <time>2020-12-16T09:59:32.000Z</time>
      </trkpt>
      <trkpt lat="42.97577" lon="0.88893">
        <ele>906.400024</ele>
        <time>2020-12-16T09:59:39.000Z</time>
      </trkpt>
      <trkpt lat="42.97589" lon="0.88896">
        <ele>904.200012</ele>
        <time>2020-12-16T09:59:47.000Z</time>
      </trkpt>
      <trkpt lat="42.97608" lon="0.88891">
        <ele>900</ele>
        <time>2020-12-16T09:59:54.000Z</time>
      </trkpt>
      <trkpt lat="42.97617" lon="0.88876">
        <ele>895.799988</ele>
        <time>2020-12-16T10:00:02.000Z</time>
      </trkpt>
      <trkpt lat="42.97644" lon="0.88875">
        <ele>889.200012</ele>
        <time>2020-12-16T10:00:08.000Z</time>
      </trkpt>
      <trkpt lat="42.97648" lon="0.88878">
        <ele>889</ele>
        <time>2020-12-16T10:00:15.000Z</time>
      </trkpt>
      <trkpt lat="42.97649" lon="0.88876">
        <ele>888.400024</ele>
        <time>2020-12-16T10:00:23.000Z</time>
      </trkpt>
      <trkpt lat="42.97663" lon="0.88862">
        <ele>885.799988</ele>
        <time>2020-12-16T10:00:31.000Z</time>
      </trkpt>
      <trkpt lat="42.97666" lon="0.88853">
        <ele>885.799988</ele>
        <time>2020-12-16T10:00:37.000Z</time>
      </trkpt>
      <trkpt lat="42.97664" lon="0.88845">
        <ele>885.799988</ele>
        <time>2020-12-16T10:00:45.000Z</time>
      </trkpt>
      <trkpt lat="42.97664" lon="0.88845">
        <ele>885.799988</ele>
        <time>2020-12-16T10:01:00.000Z</time>
      </trkpt>
      <trkpt lat="42.97664" lon="0.88845">
        <ele>885.799988</ele>
        <time>2020-12-16T10:01:17.000Z</time>
      </trkpt>
      <trkpt lat="42.97664" lon="0.88845">
        <ele>886</ele>
        <time>2020-12-16T10:01:29.000Z</time>
      </trkpt>
      <trkpt lat="42.97664" lon="0.88845">
        <ele>886</ele>
        <time>2020-12-16T10:01:44.000Z</time>
      </trkpt>
      <trkpt lat="42.97665" lon="0.88845">
        <ele>885.799988</ele>
        <time>2020-12-16T10:02:01.000Z</time>
      </trkpt>
      <trkpt lat="42.97665" lon="0.88845">
        <ele>885.799988</ele>
        <time>2020-12-16T10:02:17.000Z</time>
      </trkpt>
      <trkpt lat="42.97665" lon="0.88845">
        <ele>885.799988</ele>
        <time>2020-12-16T10:02:29.000Z</time>
      </trkpt>
      <trkpt lat="42.97665" lon="0.88845">
        <ele>885.799988</ele>
        <time>2020-12-16T10:02:43.000Z</time>
      </trkpt>
      <trkpt lat="42.97665" lon="0.88845">
        <ele>885.799988</ele>
        <time>2020-12-16T10:02:57.000Z</time>
      </trkpt>
      <trkpt lat="42.97665" lon="0.88845">
        <ele>885.799988</ele>
        <time>2020-12-16T10:03:11.000Z</time>
      </trkpt>
      <trkpt lat="42.97664" lon="0.88844">
        <ele>886</ele>
        <time>2020-12-16T10:03:32.000Z</time>
      </trkpt>
      <trkpt lat="42.97664" lon="0.88844">
        <ele>886</ele>
        <time>2020-12-16T10:03:46.000Z</time>
      </trkpt>
      <trkpt lat="42.97664" lon="0.88844">
        <ele>886</ele>
        <time>2020-12-16T10:04:02.000Z</time>
      </trkpt>
      <trkpt lat="42.97664" lon="0.88844">
        <ele>886</ele>
        <time>2020-12-16T10:04:20.000Z</time>
      </trkpt>
      <trkpt lat="42.97664" lon="0.88844">
        <ele>886</ele>
        <time>2020-12-16T10:04:36.000Z</time>
      </trkpt>
      <trkpt lat="42.97664" lon="0.88844">
        <ele>886</ele>
        <time>2020-12-16T10:04:55.000Z</time>
      </trkpt>
      <trkpt lat="42.97664" lon="0.88844">
        <ele>886</ele>
        <time>2020-12-16T10:05:15.000Z</time>
      </trkpt>
      <trkpt lat="42.97665" lon="0.88843">
        <ele>886</ele>
        <time>2020-12-16T10:05:28.000Z</time>
      </trkpt>
      <trkpt lat="42.97665" lon="0.88843">
        <ele>886</ele>
        <time>2020-12-16T10:05:41.000Z</time>
      </trkpt>
      <trkpt lat="42.97665" lon="0.88843">
        <ele>886</ele>
        <time>2020-12-16T10:05:54.000Z</time>
      </trkpt>
      <trkpt lat="42.97665" lon="0.88843">
        <ele>886</ele>
        <time>2020-12-16T10:06:04.000Z</time>
      </trkpt>
      <trkpt lat="42.97665" lon="0.88843">
        <ele>886</ele>
        <time>2020-12-16T10:06:19.000Z</time>
      </trkpt>
      <trkpt lat="42.97665" lon="0.88843">
        <ele>886</ele>
        <time>2020-12-16T10:06:30.000Z</time>
      </trkpt>
      <trkpt lat="42.97666" lon="0.88845">
        <ele>885.799988</ele>
        <time>2020-12-16T10:06:41.000Z</time>
      </trkpt>
      <trkpt lat="42.97667" lon="0.88846">
        <ele>885.799988</ele>
        <time>2020-12-16T10:06:52.000Z</time>
      </trkpt>
      <trkpt lat="42.97671" lon="0.88846">
        <ele>885.599976</ele>
        <time>2020-12-16T10:06:57.000Z</time>
      </trkpt>
      <trkpt lat="42.97677" lon="0.88839">
        <ele>884.599976</ele>
        <time>2020-12-16T10:07:03.000Z</time>
      </trkpt>
      <trkpt lat="42.97684" lon="0.88826">
        <ele>882.400024</ele>
        <time>2020-12-16T10:07:08.000Z</time>
      </trkpt>
      <trkpt lat="42.97688" lon="0.88823">
        <ele>880.799988</ele>
        <time>2020-12-16T10:07:14.000Z</time>
      </trkpt>
      <trkpt lat="42.9769" lon="0.88822">
        <ele>880</ele>
        <time>2020-12-16T10:07:22.000Z</time>
      </trkpt>
      <trkpt lat="42.9769" lon="0.88822">
        <ele>880</ele>
        <time>2020-12-16T10:07:30.000Z</time>
      </trkpt>
      <trkpt lat="42.9769" lon="0.88822">
        <ele>880</ele>
        <time>2020-12-16T10:07:44.000Z</time>
      </trkpt>
      <trkpt lat="42.9769" lon="0.88822">
        <ele>880</ele>
        <time>2020-12-16T10:07:58.000Z</time>
      </trkpt>
      <trkpt lat="42.9769" lon="0.88822">
        <ele>880</ele>
        <time>2020-12-16T10:08:15.000Z</time>
      </trkpt>
      <trkpt lat="42.9769" lon="0.88822">
        <ele>880</ele>
        <time>2020-12-16T10:08:29.000Z</time>
      </trkpt>
      <trkpt lat="42.9769" lon="0.88822">
        <ele>880</ele>
        <time>2020-12-16T10:08:45.000Z</time>
      </trkpt>
      <trkpt lat="42.9769" lon="0.88822">
        <ele>880</ele>
        <time>2020-12-16T10:08:55.000Z</time>
      </trkpt>
      <trkpt lat="42.9769" lon="0.88822">
        <ele>880</ele>
        <time>2020-12-16T10:09:04.000Z</time>
      </trkpt>
      <trkpt lat="42.9769" lon="0.88822">
        <ele>880</ele>
        <time>2020-12-16T10:09:23.000Z</time>
      </trkpt>
      <trkpt lat="42.9769" lon="0.88822">
        <ele>880</ele>
        <time>2020-12-16T10:09:43.000Z</time>
      </trkpt>
      <trkpt lat="42.9769" lon="0.88822">
        <ele>880.200012</ele>
        <time>2020-12-16T10:09:59.000Z</time>
      </trkpt>
      <trkpt lat="42.97694" lon="0.88817">
        <ele>879</ele>
        <time>2020-12-16T10:10:05.000Z</time>
      </trkpt>
      <trkpt lat="42.97702" lon="0.88801">
        <ele>876</ele>
        <time>2020-12-16T10:10:13.000Z</time>
      </trkpt>
      <trkpt lat="42.97705" lon="0.8879">
        <ele>873.400024</ele>
        <time>2020-12-16T10:10:20.000Z</time>
      </trkpt>
      <trkpt lat="42.97708" lon="0.88782">
        <ele>871.200012</ele>
        <time>2020-12-16T10:10:28.000Z</time>
      </trkpt>
      <trkpt lat="42.9771" lon="0.88779">
        <ele>870</ele>
        <time>2020-12-16T10:10:33.000Z</time>
      </trkpt>
      <trkpt lat="42.97711" lon="0.88777">
        <ele>869.599976</ele>
        <time>2020-12-16T10:10:42.000Z</time>
      </trkpt>
      <trkpt lat="42.97711" lon="0.88777">
        <ele>869.599976</ele>
        <time>2020-12-16T10:11:01.000Z</time>
      </trkpt>
      <trkpt lat="42.97711" lon="0.88777">
        <ele>869.599976</ele>
        <time>2020-12-16T10:11:11.000Z</time>
      </trkpt>
      <trkpt lat="42.97713" lon="0.88771">
        <ele>868</ele>
        <time>2020-12-16T10:11:21.000Z</time>
      </trkpt>
      <trkpt lat="42.97715" lon="0.88769">
        <ele>867.200012</ele>
        <time>2020-12-16T10:11:28.000Z</time>
      </trkpt>
      <trkpt lat="42.9771" lon="0.88756">
        <ele>867.200012</ele>
        <time>2020-12-16T10:11:34.000Z</time>
      </trkpt>
      <trkpt lat="42.97708" lon="0.88746">
        <ele>867.599976</ele>
        <time>2020-12-16T10:11:40.000Z</time>
      </trkpt>
      <trkpt lat="42.97715" lon="0.88743">
        <ele>866.200012</ele>
        <time>2020-12-16T10:11:46.000Z</time>
      </trkpt>
      <trkpt lat="42.97715" lon="0.88743">
        <ele>866.200012</ele>
        <time>2020-12-16T10:11:55.000Z</time>
      </trkpt>
      <trkpt lat="42.97715" lon="0.88743">
        <ele>866.200012</ele>
        <time>2020-12-16T10:12:09.000Z</time>
      </trkpt>
      <trkpt lat="42.97715" lon="0.88742">
        <ele>866.200012</ele>
        <time>2020-12-16T10:12:18.000Z</time>
      </trkpt>
      <trkpt lat="42.97715" lon="0.88742">
        <ele>866.200012</ele>
        <time>2020-12-16T10:12:26.000Z</time>
      </trkpt>
      <trkpt lat="42.97715" lon="0.88742">
        <ele>866.200012</ele>
        <time>2020-12-16T10:12:34.000Z</time>
      </trkpt>
      <trkpt lat="42.9772" lon="0.88739">
        <ele>865.400024</ele>
        <time>2020-12-16T10:12:41.000Z</time>
      </trkpt>
      <trkpt lat="42.9772" lon="0.88739">
        <ele>865.400024</ele>
        <time>2020-12-16T10:12:49.000Z</time>
      </trkpt>
      <trkpt lat="42.9772" lon="0.88739">
        <ele>865.400024</ele>
        <time>2020-12-16T10:12:58.000Z</time>
      </trkpt>
      <trkpt lat="42.9772" lon="0.88739">
        <ele>865.400024</ele>
        <time>2020-12-16T10:13:08.000Z</time>
      </trkpt>
      <trkpt lat="42.97732" lon="0.88729">
        <ele>863</ele>
        <time>2020-12-16T10:13:17.000Z</time>
      </trkpt>
      <trkpt lat="42.97738" lon="0.88725">
        <ele>861.799988</ele>
        <time>2020-12-16T10:13:24.000Z</time>
      </trkpt>
      <trkpt lat="42.9774" lon="0.88723">
        <ele>861.599976</ele>
        <time>2020-12-16T10:13:30.000Z</time>
      </trkpt>
      <trkpt lat="42.97743" lon="0.88723">
        <ele>860.799988</ele>
        <time>2020-12-16T10:13:38.000Z</time>
      </trkpt>
      <trkpt lat="42.97743" lon="0.88723">
        <ele>860.799988</ele>
        <time>2020-12-16T10:13:47.000Z</time>
      </trkpt>
      <trkpt lat="42.97745" lon="0.88724">
        <ele>860.400024</ele>
        <time>2020-12-16T10:13:57.000Z</time>
      </trkpt>
      <trkpt lat="42.97745" lon="0.88724">
        <ele>860.400024</ele>
        <time>2020-12-16T10:14:07.000Z</time>
      </trkpt>
      <trkpt lat="42.97749" lon="0.88723">
        <ele>859.599976</ele>
        <time>2020-12-16T10:14:16.000Z</time>
      </trkpt>
      <trkpt lat="42.97757" lon="0.88725">
        <ele>858.200012</ele>
        <time>2020-12-16T10:14:23.000Z</time>
      </trkpt>
      <trkpt lat="42.97757" lon="0.88725">
        <ele>858.200012</ele>
        <time>2020-12-16T10:14:31.000Z</time>
      </trkpt>
      <trkpt lat="42.97765" lon="0.88725">
        <ele>856</ele>
        <time>2020-12-16T10:14:40.000Z</time>
      </trkpt>
      <trkpt lat="42.97765" lon="0.88725">
        <ele>856</ele>
        <time>2020-12-16T10:14:51.000Z</time>
      </trkpt>
      <trkpt lat="42.97772" lon="0.88727">
        <ele>853.799988</ele>
        <time>2020-12-16T10:14:59.000Z</time>
      </trkpt>
      <trkpt lat="42.97772" lon="0.88727">
        <ele>853.799988</ele>
        <time>2020-12-16T10:15:10.000Z</time>
      </trkpt>
      <trkpt lat="42.97772" lon="0.88727">
        <ele>853.799988</ele>
        <time>2020-12-16T10:15:27.000Z</time>
      </trkpt>
      <trkpt lat="42.97773" lon="0.88726">
        <ele>853.400024</ele>
        <time>2020-12-16T10:15:40.000Z</time>
      </trkpt>
      <trkpt lat="42.97792" lon="0.88728">
        <ele>848</ele>
        <time>2020-12-16T10:15:47.000Z</time>
      </trkpt>
      <trkpt lat="42.97808" lon="0.88734">
        <ele>842.799988</ele>
        <time>2020-12-16T10:15:54.000Z</time>
      </trkpt>
      <trkpt lat="42.9781" lon="0.88735">
        <ele>842.200012</ele>
        <time>2020-12-16T10:16:02.000Z</time>
      </trkpt>
      <trkpt lat="42.97818" lon="0.88741">
        <ele>839.400024</ele>
        <time>2020-12-16T10:16:08.000Z</time>
      </trkpt>
      <trkpt lat="42.9782" lon="0.88747">
        <ele>838.200012</ele>
        <time>2020-12-16T10:16:14.000Z</time>
      </trkpt>
      <trkpt lat="42.97822" lon="0.88749">
        <ele>837.200012</ele>
        <time>2020-12-16T10:16:20.000Z</time>
      </trkpt>
      <trkpt lat="42.97826" lon="0.88749">
        <ele>836.200012</ele>
        <time>2020-12-16T10:16:27.000Z</time>
      </trkpt>
      <trkpt lat="42.97827" lon="0.88751">
        <ele>836</ele>
        <time>2020-12-16T10:16:33.000Z</time>
      </trkpt>
      <trkpt lat="42.97831" lon="0.8875">
        <ele>834.799988</ele>
        <time>2020-12-16T10:16:39.000Z</time>
      </trkpt>
      <trkpt lat="42.97832" lon="0.88751">
        <ele>834.400024</ele>
        <time>2020-12-16T10:16:46.000Z</time>
      </trkpt>
      <trkpt lat="42.97832" lon="0.88751">
        <ele>834.400024</ele>
        <time>2020-12-16T10:16:57.000Z</time>
      </trkpt>
      <trkpt lat="42.97832" lon="0.88751">
        <ele>834.400024</ele>
        <time>2020-12-16T10:17:13.000Z</time>
      </trkpt>
      <trkpt lat="42.97834" lon="0.8875">
        <ele>833.799988</ele>
        <time>2020-12-16T10:17:24.000Z</time>
      </trkpt>
      <trkpt lat="42.97834" lon="0.8875">
        <ele>833.799988</ele>
        <time>2020-12-16T10:17:44.000Z</time>
      </trkpt>
      <trkpt lat="42.97834" lon="0.8875">
        <ele>833.799988</ele>
        <time>2020-12-16T10:17:56.000Z</time>
      </trkpt>
      <trkpt lat="42.97835" lon="0.8875">
        <ele>833.599976</ele>
        <time>2020-12-16T10:18:10.000Z</time>
      </trkpt>
      <trkpt lat="42.97837" lon="0.88752">
        <ele>832.799988</ele>
        <time>2020-12-16T10:18:16.000Z</time>
      </trkpt>
      <trkpt lat="42.97843" lon="0.88764">
        <ele>830.400024</ele>
        <time>2020-12-16T10:18:22.000Z</time>
      </trkpt>
      <trkpt lat="42.9785" lon="0.88771">
        <ele>829</ele>
        <time>2020-12-16T10:18:29.000Z</time>
      </trkpt>
      <trkpt lat="42.97855" lon="0.88778">
        <ele>827.799988</ele>
        <time>2020-12-16T10:18:35.000Z</time>
      </trkpt>
      <trkpt lat="42.97861" lon="0.8878">
        <ele>826.799988</ele>
        <time>2020-12-16T10:18:41.000Z</time>
      </trkpt>
      <trkpt lat="42.97865" lon="0.88787">
        <ele>825.799988</ele>
        <time>2020-12-16T10:18:48.000Z</time>
      </trkpt>
      <trkpt lat="42.97868" lon="0.88791">
        <ele>825.200012</ele>
        <time>2020-12-16T10:18:54.000Z</time>
      </trkpt>
      <trkpt lat="42.9787" lon="0.88791">
        <ele>825</ele>
        <time>2020-12-16T10:19:00.000Z</time>
      </trkpt>
      <trkpt lat="42.9787" lon="0.8879">
        <ele>825</ele>
        <time>2020-12-16T10:19:07.000Z</time>
      </trkpt>
      <trkpt lat="42.9787" lon="0.8879">
        <ele>825</ele>
        <time>2020-12-16T10:19:16.000Z</time>
      </trkpt>
      <trkpt lat="42.9787" lon="0.8879">
        <ele>825</ele>
        <time>2020-12-16T10:19:25.000Z</time>
      </trkpt>
      <trkpt lat="42.97869" lon="0.88791">
        <ele>825</ele>
        <time>2020-12-16T10:19:32.000Z</time>
      </trkpt>
      <trkpt lat="42.9787" lon="0.88791">
        <ele>825</ele>
        <time>2020-12-16T10:19:40.000Z</time>
      </trkpt>
      <trkpt lat="42.9787" lon="0.88791">
        <ele>825</ele>
        <time>2020-12-16T10:19:48.000Z</time>
      </trkpt>
      <trkpt lat="42.9787" lon="0.88791">
        <ele>825</ele>
        <time>2020-12-16T10:20:03.000Z</time>
      </trkpt>
      <trkpt lat="42.97869" lon="0.88791">
        <ele>825</ele>
        <time>2020-12-16T10:20:18.000Z</time>
      </trkpt>
      <trkpt lat="42.97869" lon="0.88791">
        <ele>825</ele>
        <time>2020-12-16T10:20:31.000Z</time>
      </trkpt>
      <trkpt lat="42.97869" lon="0.88791">
        <ele>825</ele>
        <time>2020-12-16T10:20:50.000Z</time>
      </trkpt>
      <trkpt lat="42.9787" lon="0.88789">
        <ele>825</ele>
        <time>2020-12-16T10:21:18.000Z</time>
      </trkpt>
      <trkpt lat="42.9787" lon="0.88789">
        <ele>825</ele>
        <time>2020-12-16T10:21:35.000Z</time>
      </trkpt>
      <trkpt lat="42.97871" lon="0.88789">
        <ele>825</ele>
        <time>2020-12-16T10:22:05.000Z</time>
      </trkpt>
      <trkpt lat="42.97871" lon="0.88787">
        <ele>825</ele>
        <time>2020-12-16T10:22:24.000Z</time>
      </trkpt>
      <trkpt lat="42.97871" lon="0.88787">
        <ele>825</ele>
        <time>2020-12-16T10:22:47.000Z</time>
      </trkpt>
      <trkpt lat="42.97872" lon="0.88786">
        <ele>825</ele>
        <time>2020-12-16T10:23:17.000Z</time>
      </trkpt>
      <trkpt lat="42.97878" lon="0.88779">
        <ele>824.799988</ele>
        <time>2020-12-16T10:23:43.000Z</time>
      </trkpt>
      <trkpt lat="42.97878" lon="0.88779">
        <ele>824.799988</ele>
        <time>2020-12-16T10:24:06.000Z</time>
      </trkpt>
      <trkpt lat="42.97882" lon="0.88781">
        <ele>824.200012</ele>
        <time>2020-12-16T10:24:36.000Z</time>
      </trkpt>
      <trkpt lat="42.97886" lon="0.88781">
        <ele>823.799988</ele>
        <time>2020-12-16T10:25:08.000Z</time>
      </trkpt>
      <trkpt lat="42.97886" lon="0.88781">
        <ele>823.799988</ele>
        <time>2020-12-16T10:25:33.000Z</time>
      </trkpt>
      <trkpt lat="42.9789" lon="0.88783">
        <ele>823.200012</ele>
        <time>2020-12-16T10:25:42.000Z</time>
      </trkpt>
      <trkpt lat="42.97898" lon="0.8879">
        <ele>821.599976</ele>
        <time>2020-12-16T10:25:47.000Z</time>
      </trkpt>
      <trkpt lat="42.97899" lon="0.8879">
        <ele>821.599976</ele>
        <time>2020-12-16T10:25:48.000Z</time>
      </trkpt>
      <trkpt lat="42.97906" lon="0.88797">
        <ele>820</ele>
        <time>2020-12-16T10:25:53.000Z</time>
      </trkpt>
      <trkpt lat="42.97915" lon="0.88804">
        <ele>818.400024</ele>
        <time>2020-12-16T10:25:59.000Z</time>
      </trkpt>
      <trkpt lat="42.97928" lon="0.88813">
        <ele>816.599976</ele>
        <time>2020-12-16T10:26:05.000Z</time>
      </trkpt>
      <trkpt lat="42.97932" lon="0.88818">
        <ele>816.200012</ele>
        <time>2020-12-16T10:26:13.000Z</time>
      </trkpt>
      <trkpt lat="42.97936" lon="0.88819">
        <ele>815.599976</ele>
        <time>2020-12-16T10:26:22.000Z</time>
      </trkpt>
      <trkpt lat="42.97941" lon="0.8882">
        <ele>815.200012</ele>
        <time>2020-12-16T10:26:28.000Z</time>
      </trkpt>
      <trkpt lat="42.97944" lon="0.88824">
        <ele>814.799988</ele>
        <time>2020-12-16T10:26:37.000Z</time>
      </trkpt>
      <trkpt lat="42.97947" lon="0.88826">
        <ele>814.599976</ele>
        <time>2020-12-16T10:26:45.000Z</time>
      </trkpt>
      <trkpt lat="42.97947" lon="0.88826">
        <ele>814.599976</ele>
        <time>2020-12-16T10:26:53.000Z</time>
      </trkpt>
      <trkpt lat="42.97954" lon="0.88826">
        <ele>814</ele>
        <time>2020-12-16T10:27:01.000Z</time>
      </trkpt>
      <trkpt lat="42.97965" lon="0.88825">
        <ele>813.400024</ele>
        <time>2020-12-16T10:27:07.000Z</time>
      </trkpt>
      <trkpt lat="42.97965" lon="0.88821">
        <ele>813.599976</ele>
        <time>2020-12-16T10:27:16.000Z</time>
      </trkpt>
      <trkpt lat="42.97966" lon="0.88821">
        <ele>813.599976</ele>
        <time>2020-12-16T10:27:28.000Z</time>
      </trkpt>
      <trkpt lat="42.97962" lon="0.88816">
        <ele>814.200012</ele>
        <time>2020-12-16T10:27:34.000Z</time>
      </trkpt>
      <trkpt lat="42.97966" lon="0.88819">
        <ele>813.799988</ele>
        <time>2020-12-16T10:27:40.000Z</time>
      </trkpt>
      <trkpt lat="42.97976" lon="0.88823">
        <ele>813</ele>
        <time>2020-12-16T10:27:45.000Z</time>
      </trkpt>
      <trkpt lat="42.97981" lon="0.88829">
        <ele>812.200012</ele>
        <time>2020-12-16T10:27:51.000Z</time>
      </trkpt>
      <trkpt lat="42.9798" lon="0.88833">
        <ele>812</ele>
        <time>2020-12-16T10:28:00.000Z</time>
      </trkpt>
      <trkpt lat="42.9798" lon="0.88833">
        <ele>812</ele>
        <time>2020-12-16T10:28:07.000Z</time>
      </trkpt>
      <trkpt lat="42.97981" lon="0.88835">
        <ele>812</ele>
        <time>2020-12-16T10:28:18.000Z</time>
      </trkpt>
      <trkpt lat="42.97983" lon="0.88842">
        <ele>811.400024</ele>
        <time>2020-12-16T10:28:25.000Z</time>
      </trkpt>
      <trkpt lat="42.97991" lon="0.88854">
        <ele>810.200012</ele>
        <time>2020-12-16T10:28:30.000Z</time>
      </trkpt>
      <trkpt lat="42.97994" lon="0.88863">
        <ele>809.400024</ele>
        <time>2020-12-16T10:28:36.000Z</time>
      </trkpt>
      <trkpt lat="42.97999" lon="0.88868">
        <ele>808.799988</ele>
        <time>2020-12-16T10:28:40.000Z</time>
      </trkpt>
      <trkpt lat="42.98003" lon="0.88872">
        <ele>808.400024</ele>
        <time>2020-12-16T10:28:44.000Z</time>
      </trkpt>
      <trkpt lat="42.98007" lon="0.88875">
        <ele>808</ele>
        <time>2020-12-16T10:28:49.000Z</time>
      </trkpt>
      <trkpt lat="42.98012" lon="0.88878">
        <ele>808.400024</ele>
        <time>2020-12-16T10:28:55.000Z</time>
      </trkpt>
      <trkpt lat="42.98013" lon="0.88879">
        <ele>808.599976</ele>
        <time>2020-12-16T10:29:04.000Z</time>
      </trkpt>
      <trkpt lat="42.98013" lon="0.8888">
        <ele>808.599976</ele>
        <time>2020-12-16T10:29:12.000Z</time>
      </trkpt>
      <trkpt lat="42.98013" lon="0.88881">
        <ele>808.599976</ele>
        <time>2020-12-16T10:29:20.000Z</time>
      </trkpt>
      <trkpt lat="42.98014" lon="0.88881">
        <ele>808.599976</ele>
        <time>2020-12-16T10:29:28.000Z</time>
      </trkpt>
      <trkpt lat="42.98017" lon="0.8888">
        <ele>809.200012</ele>
        <time>2020-12-16T10:29:35.000Z</time>
      </trkpt>
      <trkpt lat="42.9802" lon="0.88894">
        <ele>808.400024</ele>
        <time>2020-12-16T10:29:42.000Z</time>
      </trkpt>
      <trkpt lat="42.98024" lon="0.88915">
        <ele>804.799988</ele>
        <time>2020-12-16T10:29:49.000Z</time>
      </trkpt>
      <trkpt lat="42.98021" lon="0.88932">
        <ele>801.599976</ele>
        <time>2020-12-16T10:29:56.000Z</time>
      </trkpt>
      <trkpt lat="42.9802" lon="0.88935">
        <ele>801</ele>
        <time>2020-12-16T10:30:06.000Z</time>
      </trkpt>
      <trkpt lat="42.9802" lon="0.88935">
        <ele>801</ele>
        <time>2020-12-16T10:30:15.000Z</time>
      </trkpt>
      <trkpt lat="42.9802" lon="0.88936">
        <ele>800.799988</ele>
        <time>2020-12-16T10:30:24.000Z</time>
      </trkpt>
      <trkpt lat="42.9802" lon="0.88936">
        <ele>800.799988</ele>
        <time>2020-12-16T10:30:42.000Z</time>
      </trkpt>
      <trkpt lat="42.9802" lon="0.88936">
        <ele>800.799988</ele>
        <time>2020-12-16T10:30:57.000Z</time>
      </trkpt>
      <trkpt lat="42.9802" lon="0.88937">
        <ele>800.599976</ele>
        <time>2020-12-16T10:31:09.000Z</time>
      </trkpt>
      <trkpt lat="42.98023" lon="0.88936">
        <ele>801.200012</ele>
        <time>2020-12-16T10:31:17.000Z</time>
      </trkpt>
      <trkpt lat="42.98023" lon="0.88944">
        <ele>799.799988</ele>
        <time>2020-12-16T10:31:22.000Z</time>
      </trkpt>
      <trkpt lat="42.98026" lon="0.88956">
        <ele>798.200012</ele>
        <time>2020-12-16T10:31:27.000Z</time>
      </trkpt>
      <trkpt lat="42.98031" lon="0.88967">
        <ele>797.200012</ele>
        <time>2020-12-16T10:31:34.000Z</time>
      </trkpt>
      <trkpt lat="42.98031" lon="0.88968">
        <ele>796.799988</ele>
        <time>2020-12-16T10:31:42.000Z</time>
      </trkpt>
      <trkpt lat="42.98031" lon="0.88968">
        <ele>796.799988</ele>
        <time>2020-12-16T10:31:53.000Z</time>
      </trkpt>
      <trkpt lat="42.98031" lon="0.88968">
        <ele>796.799988</ele>
        <time>2020-12-16T10:32:02.000Z</time>
      </trkpt>
      <trkpt lat="42.98032" lon="0.88972">
        <ele>796.400024</ele>
        <time>2020-12-16T10:32:07.000Z</time>
      </trkpt>
      <trkpt lat="42.98021" lon="0.88992">
        <ele>788.599976</ele>
        <time>2020-12-16T10:32:13.000Z</time>
      </trkpt>
      <trkpt lat="42.98018" lon="0.88999">
        <ele>785.599976</ele>
        <time>2020-12-16T10:32:20.000Z</time>
      </trkpt>
      <trkpt lat="42.98018" lon="0.88999">
        <ele>785.599976</ele>
        <time>2020-12-16T10:32:29.000Z</time>
      </trkpt>
      <trkpt lat="42.98017" lon="0.89">
        <ele>785.200012</ele>
        <time>2020-12-16T10:32:37.000Z</time>
      </trkpt>
      <trkpt lat="42.98017" lon="0.89007">
        <ele>782.799988</ele>
        <time>2020-12-16T10:32:43.000Z</time>
      </trkpt>
      <trkpt lat="42.98017" lon="0.89019">
        <ele>778.599976</ele>
        <time>2020-12-16T10:32:49.000Z</time>
      </trkpt>
      <trkpt lat="42.98021" lon="0.89022">
        <ele>778</ele>
        <time>2020-12-16T10:32:55.000Z</time>
      </trkpt>
      <trkpt lat="42.98025" lon="0.89028">
        <ele>776.799988</ele>
        <time>2020-12-16T10:33:03.000Z</time>
      </trkpt>
      <trkpt lat="42.98025" lon="0.89028">
        <ele>776.799988</ele>
        <time>2020-12-16T10:33:15.000Z</time>
      </trkpt>
      <trkpt lat="42.98028" lon="0.8903">
        <ele>776.599976</ele>
        <time>2020-12-16T10:33:21.000Z</time>
      </trkpt>
      <trkpt lat="42.98035" lon="0.89038">
        <ele>775</ele>
        <time>2020-12-16T10:33:28.000Z</time>
      </trkpt>
      <trkpt lat="42.98045" lon="0.89044">
        <ele>774.400024</ele>
        <time>2020-12-16T10:33:36.000Z</time>
      </trkpt>
      <trkpt lat="42.98048" lon="0.89054">
        <ele>771.799988</ele>
        <time>2020-12-16T10:33:42.000Z</time>
      </trkpt>
      <trkpt lat="42.98052" lon="0.89057">
        <ele>771.200012</ele>
        <time>2020-12-16T10:33:48.000Z</time>
      </trkpt>
      <trkpt lat="42.98055" lon="0.89063">
        <ele>770</ele>
        <time>2020-12-16T10:33:55.000Z</time>
      </trkpt>
      <trkpt lat="42.98054" lon="0.89072">
        <ele>767</ele>
        <time>2020-12-16T10:34:04.000Z</time>
      </trkpt>
      <trkpt lat="42.98056" lon="0.89075">
        <ele>766.599976</ele>
        <time>2020-12-16T10:34:12.000Z</time>
      </trkpt>
      <trkpt lat="42.98056" lon="0.89076">
        <ele>766.200012</ele>
        <time>2020-12-16T10:34:20.000Z</time>
      </trkpt>
      <trkpt lat="42.98057" lon="0.8908">
        <ele>765.400024</ele>
        <time>2020-12-16T10:34:27.000Z</time>
      </trkpt>
      <trkpt lat="42.9806" lon="0.89083">
        <ele>764.799988</ele>
        <time>2020-12-16T10:34:36.000Z</time>
      </trkpt>
      <trkpt lat="42.98066" lon="0.89091">
        <ele>763.400024</ele>
        <time>2020-12-16T10:34:42.000Z</time>
      </trkpt>
      <trkpt lat="42.98076" lon="0.89095">
        <ele>764</ele>
        <time>2020-12-16T10:34:47.000Z</time>
      </trkpt>
      <trkpt lat="42.98081" lon="0.89098">
        <ele>763.799988</ele>
        <time>2020-12-16T10:34:52.000Z</time>
      </trkpt>
      <trkpt lat="42.98086" lon="0.89102">
        <ele>763.400024</ele>
        <time>2020-12-16T10:34:59.000Z</time>
      </trkpt>
      <trkpt lat="42.98088" lon="0.89108">
        <ele>762</ele>
        <time>2020-12-16T10:35:06.000Z</time>
      </trkpt>
      <trkpt lat="42.98088" lon="0.89108">
        <ele>762</ele>
        <time>2020-12-16T10:35:18.000Z</time>
      </trkpt>
      <trkpt lat="42.98088" lon="0.89108">
        <ele>762</ele>
        <time>2020-12-16T10:35:26.000Z</time>
      </trkpt>
      <trkpt lat="42.98091" lon="0.89109">
        <ele>762</ele>
        <time>2020-12-16T10:35:33.000Z</time>
      </trkpt>
      <trkpt lat="42.98091" lon="0.89109">
        <ele>762</ele>
        <time>2020-12-16T10:35:41.000Z</time>
      </trkpt>
      <trkpt lat="42.98083" lon="0.89119">
        <ele>757.799988</ele>
        <time>2020-12-16T10:35:52.000Z</time>
      </trkpt>
      <trkpt lat="42.98091" lon="0.89118">
        <ele>759.400024</ele>
        <time>2020-12-16T10:36:00.000Z</time>
      </trkpt>
      <trkpt lat="42.98096" lon="0.89119">
        <ele>761</ele>
        <time>2020-12-16T10:36:02.000Z</time>
      </trkpt>
      <trkpt lat="42.98098" lon="0.89123">
        <ele>760.400024</ele>
        <time>2020-12-16T10:36:05.000Z</time>
      </trkpt>
      <trkpt lat="42.98096" lon="0.89131">
        <ele>757.400024</ele>
        <time>2020-12-16T10:36:12.000Z</time>
      </trkpt>
      <trkpt lat="42.98097" lon="0.89139">
        <ele>755.599976</ele>
        <time>2020-12-16T10:36:18.000Z</time>
      </trkpt>
      <trkpt lat="42.98108" lon="0.89149">
        <ele>756</ele>
        <time>2020-12-16T10:36:26.000Z</time>
      </trkpt>
      <trkpt lat="42.98107" lon="0.89156">
        <ele>753</ele>
        <time>2020-12-16T10:36:33.000Z</time>
      </trkpt>
      <trkpt lat="42.98107" lon="0.89161">
        <ele>751</ele>
        <time>2020-12-16T10:36:41.000Z</time>
      </trkpt>
      <trkpt lat="42.98108" lon="0.89168">
        <ele>749.200012</ele>
        <time>2020-12-16T10:36:48.000Z</time>
      </trkpt>
      <trkpt lat="42.98109" lon="0.89172">
        <ele>748.200012</ele>
        <time>2020-12-16T10:36:55.000Z</time>
      </trkpt>
      <trkpt lat="42.98108" lon="0.89177">
        <ele>746</ele>
        <time>2020-12-16T10:37:00.000Z</time>
      </trkpt>
      <trkpt lat="42.98109" lon="0.89177">
        <ele>746.200012</ele>
        <time>2020-12-16T10:37:12.000Z</time>
      </trkpt>
      <trkpt lat="42.9811" lon="0.89181">
        <ele>745.400024</ele>
        <time>2020-12-16T10:37:18.000Z</time>
      </trkpt>
      <trkpt lat="42.98112" lon="0.89196">
        <ele>741.400024</ele>
        <time>2020-12-16T10:37:25.000Z</time>
      </trkpt>
      <trkpt lat="42.98113" lon="0.89203">
        <ele>738.799988</ele>
        <time>2020-12-16T10:37:32.000Z</time>
      </trkpt>
      <trkpt lat="42.98117" lon="0.89209">
        <ele>738.400024</ele>
        <time>2020-12-16T10:37:38.000Z</time>
      </trkpt>
      <trkpt lat="42.9812" lon="0.89213">
        <ele>738.200012</ele>
        <time>2020-12-16T10:37:45.000Z</time>
      </trkpt>
      <trkpt lat="42.98114" lon="0.89222">
        <ele>733</ele>
        <time>2020-12-16T10:37:51.000Z</time>
      </trkpt>
      <trkpt lat="42.98106" lon="0.89232">
        <ele>726.400024</ele>
        <time>2020-12-16T10:37:58.000Z</time>
      </trkpt>
      <trkpt lat="42.98118" lon="0.89232">
        <ele>730.400024</ele>
        <time>2020-12-16T10:38:06.000Z</time>
      </trkpt>
      <trkpt lat="42.98122" lon="0.89232">
        <ele>731.400024</ele>
        <time>2020-12-16T10:38:17.000Z</time>
      </trkpt>
      <trkpt lat="42.98118" lon="0.89234">
        <ele>729.599976</ele>
        <time>2020-12-16T10:38:33.000Z</time>
      </trkpt>
      <trkpt lat="42.98118" lon="0.89234">
        <ele>729.599976</ele>
        <time>2020-12-16T10:38:49.000Z</time>
      </trkpt>
      <trkpt lat="42.98118" lon="0.89234">
        <ele>729.599976</ele>
        <time>2020-12-16T10:39:07.000Z</time>
      </trkpt>
      <trkpt lat="42.98118" lon="0.89234">
        <ele>729.799988</ele>
        <time>2020-12-16T10:39:23.000Z</time>
      </trkpt>
      <trkpt lat="42.98118" lon="0.89234">
        <ele>729.799988</ele>
        <time>2020-12-16T10:39:38.000Z</time>
      </trkpt>
      <trkpt lat="42.98118" lon="0.89234">
        <ele>729.799988</ele>
        <time>2020-12-16T10:39:51.000Z</time>
      </trkpt>
      <trkpt lat="42.98117" lon="0.89231">
        <ele>730.200012</ele>
        <time>2020-12-16T10:40:12.000Z</time>
      </trkpt>
      <trkpt lat="42.98123" lon="0.89228">
        <ele>733.599976</ele>
        <time>2020-12-16T10:40:33.000Z</time>
      </trkpt>
      <trkpt lat="42.98123" lon="0.89228">
        <ele>733.599976</ele>
        <time>2020-12-16T10:40:49.000Z</time>
      </trkpt>
      <trkpt lat="42.98123" lon="0.89228">
        <ele>733.599976</ele>
        <time>2020-12-16T10:41:02.000Z</time>
      </trkpt>
      <trkpt lat="42.98123" lon="0.89228">
        <ele>733.799988</ele>
        <time>2020-12-16T10:41:14.000Z</time>
      </trkpt>
      <trkpt lat="42.98123" lon="0.89228">
        <ele>733.799988</ele>
        <time>2020-12-16T10:41:25.000Z</time>
      </trkpt>
      <trkpt lat="42.98124" lon="0.89229">
        <ele>733.599976</ele>
        <time>2020-12-16T10:41:38.000Z</time>
      </trkpt>
      <trkpt lat="42.98124" lon="0.89229">
        <ele>733.599976</ele>
        <time>2020-12-16T10:41:51.000Z</time>
      </trkpt>
      <trkpt lat="42.98126" lon="0.89231">
        <ele>733.799988</ele>
        <time>2020-12-16T10:42:00.000Z</time>
      </trkpt>
      <trkpt lat="42.9813" lon="0.89234">
        <ele>733.400024</ele>
        <time>2020-12-16T10:42:10.000Z</time>
      </trkpt>
      <trkpt lat="42.98133" lon="0.89242">
        <ele>731.400024</ele>
        <time>2020-12-16T10:42:17.000Z</time>
      </trkpt>
      <trkpt lat="42.98144" lon="0.89252">
        <ele>730.799988</ele>
        <time>2020-12-16T10:42:23.000Z</time>
      </trkpt>
      <trkpt lat="42.98144" lon="0.89252">
        <ele>730.799988</ele>
        <time>2020-12-16T10:42:31.000Z</time>
      </trkpt>
      <trkpt lat="42.98149" lon="0.89255">
        <ele>731.200012</ele>
        <time>2020-12-16T10:42:37.000Z</time>
      </trkpt>
      <trkpt lat="42.98149" lon="0.89255">
        <ele>731.200012</ele>
        <time>2020-12-16T10:42:47.000Z</time>
      </trkpt>
      <trkpt lat="42.98155" lon="0.89266">
        <ele>728.599976</ele>
        <time>2020-12-16T10:42:54.000Z</time>
      </trkpt>
      <trkpt lat="42.98157" lon="0.89271">
        <ele>727.599976</ele>
        <time>2020-12-16T10:43:03.000Z</time>
      </trkpt>
      <trkpt lat="42.98157" lon="0.89271">
        <ele>727.599976</ele>
        <time>2020-12-16T10:43:12.000Z</time>
      </trkpt>
      <trkpt lat="42.98157" lon="0.89271">
        <ele>727.599976</ele>
        <time>2020-12-16T10:43:24.000Z</time>
      </trkpt>
      <trkpt lat="42.98157" lon="0.89271">
        <ele>727.599976</ele>
        <time>2020-12-16T10:43:35.000Z</time>
      </trkpt>
      <trkpt lat="42.98158" lon="0.89273">
        <ele>726.799988</ele>
        <time>2020-12-16T10:43:57.000Z</time>
      </trkpt>
      <trkpt lat="42.98158" lon="0.89273">
        <ele>727</ele>
        <time>2020-12-16T10:44:08.000Z</time>
      </trkpt>
      <trkpt lat="42.98158" lon="0.89273">
        <ele>727</ele>
        <time>2020-12-16T10:44:22.000Z</time>
      </trkpt>
      <trkpt lat="42.98158" lon="0.89273">
        <ele>727</ele>
        <time>2020-12-16T10:44:33.000Z</time>
      </trkpt>
      <trkpt lat="42.98158" lon="0.89273">
        <ele>727</ele>
        <time>2020-12-16T10:44:47.000Z</time>
      </trkpt>
      <trkpt lat="42.98158" lon="0.89273">
        <ele>727</ele>
        <time>2020-12-16T10:45:05.000Z</time>
      </trkpt>
      <trkpt lat="42.98158" lon="0.89273">
        <ele>727</ele>
        <time>2020-12-16T10:45:22.000Z</time>
      </trkpt>
      <trkpt lat="42.98157" lon="0.89273">
        <ele>726.799988</ele>
        <time>2020-12-16T10:45:37.000Z</time>
      </trkpt>
      <trkpt lat="42.98157" lon="0.89273">
        <ele>726.799988</ele>
        <time>2020-12-16T10:45:47.000Z</time>
      </trkpt>
      <trkpt lat="42.98157" lon="0.89273">
        <ele>726.799988</ele>
        <time>2020-12-16T10:45:58.000Z</time>
      </trkpt>
      <trkpt lat="42.98157" lon="0.89275">
        <ele>726</ele>
        <time>2020-12-16T10:46:21.000Z</time>
      </trkpt>
      <trkpt lat="42.98157" lon="0.89275">
        <ele>726</ele>
        <time>2020-12-16T10:46:42.000Z</time>
      </trkpt>
      <trkpt lat="42.98157" lon="0.89276">
        <ele>725.799988</ele>
        <time>2020-12-16T10:47:01.000Z</time>
      </trkpt>
      <trkpt lat="42.98157" lon="0.89276">
        <ele>725.799988</ele>
        <time>2020-12-16T10:47:09.000Z</time>
      </trkpt>
      <trkpt lat="42.98161" lon="0.89276">
        <ele>726.599976</ele>
        <time>2020-12-16T10:47:27.000Z</time>
      </trkpt>
      <trkpt lat="42.98161" lon="0.89276">
        <ele>726.599976</ele>
        <time>2020-12-16T10:47:39.000Z</time>
      </trkpt>
      <trkpt lat="42.98161" lon="0.89276">
        <ele>726.599976</ele>
        <time>2020-12-16T10:47:53.000Z</time>
      </trkpt>
      <trkpt lat="42.98161" lon="0.89277">
        <ele>726.799988</ele>
        <time>2020-12-16T10:48:12.000Z</time>
      </trkpt>
      <trkpt lat="42.98161" lon="0.89277">
        <ele>726.799988</ele>
        <time>2020-12-16T10:48:28.000Z</time>
      </trkpt>
      <trkpt lat="42.98161" lon="0.89277">
        <ele>726.799988</ele>
        <time>2020-12-16T10:48:44.000Z</time>
      </trkpt>
      <trkpt lat="42.98163" lon="0.89278">
        <ele>726.799988</ele>
        <time>2020-12-16T10:49:04.000Z</time>
      </trkpt>
      <trkpt lat="42.98163" lon="0.89278">
        <ele>726.799988</ele>
        <time>2020-12-16T10:49:18.000Z</time>
      </trkpt>
      <trkpt lat="42.98163" lon="0.89279">
        <ele>726.200012</ele>
        <time>2020-12-16T10:49:30.000Z</time>
      </trkpt>
      <trkpt lat="42.98163" lon="0.89279">
        <ele>726.200012</ele>
        <time>2020-12-16T10:49:43.000Z</time>
      </trkpt>
      <trkpt lat="42.98164" lon="0.89281">
        <ele>726</ele>
        <time>2020-12-16T10:49:54.000Z</time>
      </trkpt>
      <trkpt lat="42.98168" lon="0.89287">
        <ele>725</ele>
        <time>2020-12-16T10:49:59.000Z</time>
      </trkpt>
      <trkpt lat="42.98168" lon="0.89287">
        <ele>725</ele>
        <time>2020-12-16T10:50:08.000Z</time>
      </trkpt>
      <trkpt lat="42.98168" lon="0.89287">
        <ele>725</ele>
        <time>2020-12-16T10:50:23.000Z</time>
      </trkpt>
      <trkpt lat="42.9817" lon="0.89287">
        <ele>725.200012</ele>
        <time>2020-12-16T10:50:35.000Z</time>
      </trkpt>
      <trkpt lat="42.9817" lon="0.89287">
        <ele>725.200012</ele>
        <time>2020-12-16T10:50:50.000Z</time>
      </trkpt>
      <trkpt lat="42.9817" lon="0.89287">
        <ele>725.200012</ele>
        <time>2020-12-16T10:51:07.000Z</time>
      </trkpt>
      <trkpt lat="42.9817" lon="0.89287">
        <ele>725.200012</ele>
        <time>2020-12-16T10:51:20.000Z</time>
      </trkpt>
      <trkpt lat="42.9817" lon="0.89287">
        <ele>725.200012</ele>
        <time>2020-12-16T10:51:31.000Z</time>
      </trkpt>
      <trkpt lat="42.9817" lon="0.8929">
        <ele>724.400024</ele>
        <time>2020-12-16T10:51:42.000Z</time>
      </trkpt>
      <trkpt lat="42.98173" lon="0.89292">
        <ele>724.400024</ele>
        <time>2020-12-16T10:51:50.000Z</time>
      </trkpt>
      <trkpt lat="42.98187" lon="0.89298">
        <ele>724.799988</ele>
        <time>2020-12-16T10:51:57.000Z</time>
      </trkpt>
      <trkpt lat="42.98187" lon="0.89298">
        <ele>724.799988</ele>
        <time>2020-12-16T10:52:06.000Z</time>
      </trkpt>
      <trkpt lat="42.98187" lon="0.89298">
        <ele>724.799988</ele>
        <time>2020-12-16T10:52:13.000Z</time>
      </trkpt>
      <trkpt lat="42.98191" lon="0.89306">
        <ele>722.799988</ele>
        <time>2020-12-16T10:52:20.000Z</time>
      </trkpt>
      <trkpt lat="42.98196" lon="0.89311">
        <ele>721.799988</ele>
        <time>2020-12-16T10:52:26.000Z</time>
      </trkpt>
      <trkpt lat="42.98196" lon="0.89311">
        <ele>721.799988</ele>
        <time>2020-12-16T10:52:36.000Z</time>
      </trkpt>
      <trkpt lat="42.98196" lon="0.89311">
        <ele>721.799988</ele>
        <time>2020-12-16T10:52:44.000Z</time>
      </trkpt>
      <trkpt lat="42.98196" lon="0.89311">
        <ele>721.799988</ele>
        <time>2020-12-16T10:52:50.000Z</time>
      </trkpt>
      <trkpt lat="42.98196" lon="0.89311">
        <ele>721.799988</ele>
        <time>2020-12-16T10:52:59.000Z</time>
      </trkpt>
      <trkpt lat="42.98197" lon="0.89313">
        <ele>721.400024</ele>
        <time>2020-12-16T10:53:06.000Z</time>
      </trkpt>
      <trkpt lat="42.98197" lon="0.89313">
        <ele>721.400024</ele>
        <time>2020-12-16T10:53:17.000Z</time>
      </trkpt>
      <trkpt lat="42.98201" lon="0.89319">
        <ele>719.400024</ele>
        <time>2020-12-16T10:53:29.000Z</time>
      </trkpt>
      <trkpt lat="42.98203" lon="0.89321">
        <ele>718.799988</ele>
        <time>2020-12-16T10:53:39.000Z</time>
      </trkpt>
      <trkpt lat="42.98203" lon="0.89321">
        <ele>718.799988</ele>
        <time>2020-12-16T10:53:52.000Z</time>
      </trkpt>
      <trkpt lat="42.98203" lon="0.89321">
        <ele>718.799988</ele>
        <time>2020-12-16T10:54:07.000Z</time>
      </trkpt>
      <trkpt lat="42.98203" lon="0.89323">
        <ele>718.400024</ele>
        <time>2020-12-16T10:54:20.000Z</time>
      </trkpt>
      <trkpt lat="42.98203" lon="0.89323">
        <ele>718.400024</ele>
        <time>2020-12-16T10:54:36.000Z</time>
      </trkpt>
      <trkpt lat="42.98209" lon="0.89325">
        <ele>718.599976</ele>
        <time>2020-12-16T10:54:55.000Z</time>
      </trkpt>
      <trkpt lat="42.98209" lon="0.89325">
        <ele>718.599976</ele>
        <time>2020-12-16T10:55:16.000Z</time>
      </trkpt>
      <trkpt lat="42.98209" lon="0.89326">
        <ele>718.400024</ele>
        <time>2020-12-16T10:55:33.000Z</time>
      </trkpt>
      <trkpt lat="42.9821" lon="0.89327">
        <ele>718.200012</ele>
        <time>2020-12-16T10:55:42.000Z</time>
      </trkpt>
      <trkpt lat="42.9821" lon="0.89327">
        <ele>718.200012</ele>
        <time>2020-12-16T10:55:59.000Z</time>
      </trkpt>
      <trkpt lat="42.9821" lon="0.89327">
        <ele>718.200012</ele>
        <time>2020-12-16T10:56:12.000Z</time>
      </trkpt>
      <trkpt lat="42.9821" lon="0.89327">
        <ele>718</ele>
        <time>2020-12-16T10:56:23.000Z</time>
      </trkpt>
      <trkpt lat="42.9821" lon="0.89327">
        <ele>718</ele>
        <time>2020-12-16T10:56:33.000Z</time>
      </trkpt>
      <trkpt lat="42.9821" lon="0.89327">
        <ele>718</ele>
        <time>2020-12-16T10:56:52.000Z</time>
      </trkpt>
      <trkpt lat="42.98215" lon="0.89331">
        <ele>717.400024</ele>
        <time>2020-12-16T10:57:08.000Z</time>
      </trkpt>
      <trkpt lat="42.98215" lon="0.89331">
        <ele>717.400024</ele>
        <time>2020-12-16T10:57:19.000Z</time>
      </trkpt>
      <trkpt lat="42.98215" lon="0.89331">
        <ele>717.400024</ele>
        <time>2020-12-16T10:57:31.000Z</time>
      </trkpt>
      <trkpt lat="42.98218" lon="0.89332">
        <ele>717.599976</ele>
        <time>2020-12-16T10:57:46.000Z</time>
      </trkpt>
      <trkpt lat="42.98218" lon="0.89332">
        <ele>717.599976</ele>
        <time>2020-12-16T10:58:02.000Z</time>
      </trkpt>
      <trkpt lat="42.98217" lon="0.89334">
        <ele>716.599976</ele>
        <time>2020-12-16T10:58:21.000Z</time>
      </trkpt>
      <trkpt lat="42.98217" lon="0.89334">
        <ele>716.599976</ele>
        <time>2020-12-16T10:58:38.000Z</time>
      </trkpt>
      <trkpt lat="42.9822" lon="0.89336">
        <ele>716.599976</ele>
        <time>2020-12-16T10:58:56.000Z</time>
      </trkpt>
      <trkpt lat="42.9822" lon="0.89336">
        <ele>716.599976</ele>
        <time>2020-12-16T10:59:07.000Z</time>
      </trkpt>
      <trkpt lat="42.98224" lon="0.89338">
        <ele>716.200012</ele>
        <time>2020-12-16T10:59:14.000Z</time>
      </trkpt>
      <trkpt lat="42.98233" lon="0.89343">
        <ele>716.400024</ele>
        <time>2020-12-16T10:59:18.000Z</time>
      </trkpt>
      <trkpt lat="42.9824" lon="0.8935">
        <ele>715.200012</ele>
        <time>2020-12-16T10:59:25.000Z</time>
      </trkpt>
      <trkpt lat="42.98235" lon="0.89357">
        <ele>710.799988</ele>
        <time>2020-12-16T10:59:31.000Z</time>
      </trkpt>
      <trkpt lat="42.98231" lon="0.89356">
        <ele>710.400024</ele>
        <time>2020-12-16T10:59:36.000Z</time>
      </trkpt>
      <trkpt lat="42.98225" lon="0.89351">
        <ele>711</ele>
        <time>2020-12-16T10:59:42.000Z</time>
      </trkpt>
      <trkpt lat="42.98218" lon="0.89345">
        <ele>712.400024</ele>
        <time>2020-12-16T10:59:53.000Z</time>
      </trkpt>
      <trkpt lat="42.98215" lon="0.89343">
        <ele>712.400024</ele>
        <time>2020-12-16T11:00:02.000Z</time>
      </trkpt>
      <trkpt lat="42.98209" lon="0.89338">
        <ele>713</ele>
        <time>2020-12-16T11:00:09.000Z</time>
      </trkpt>
      <trkpt lat="42.98206" lon="0.89336">
        <ele>713.200012</ele>
        <time>2020-12-16T11:00:16.000Z</time>
      </trkpt>
      <trkpt lat="42.98199" lon="0.89333">
        <ele>713.400024</ele>
        <time>2020-12-16T11:00:23.000Z</time>
      </trkpt>
      <trkpt lat="42.98199" lon="0.89333">
        <ele>713.400024</ele>
        <time>2020-12-16T11:00:32.000Z</time>
      </trkpt>
      <trkpt lat="42.98203" lon="0.89333">
        <ele>714</ele>
        <time>2020-12-16T11:00:38.000Z</time>
      </trkpt>
      <trkpt lat="42.9822" lon="0.8934">
        <ele>714.599976</ele>
        <time>2020-12-16T11:00:45.000Z</time>
      </trkpt>
      <trkpt lat="42.98223" lon="0.89344">
        <ele>713.799988</ele>
        <time>2020-12-16T11:00:51.000Z</time>
      </trkpt>
      <trkpt lat="42.98229" lon="0.8935">
        <ele>712.599976</ele>
        <time>2020-12-16T11:00:55.000Z</time>
      </trkpt>
      <trkpt lat="42.98235" lon="0.89355">
        <ele>711.400024</ele>
        <time>2020-12-16T11:01:00.000Z</time>
      </trkpt>
      <trkpt lat="42.98237" lon="0.89358">
        <ele>710.799988</ele>
        <time>2020-12-16T11:01:09.000Z</time>
      </trkpt>
      <trkpt lat="42.98238" lon="0.89358">
        <ele>711.400024</ele>
        <time>2020-12-16T11:01:15.000Z</time>
      </trkpt>
      <trkpt lat="42.9824" lon="0.89358">
        <ele>711.200012</ele>
        <time>2020-12-16T11:01:21.000Z</time>
      </trkpt>
      <trkpt lat="42.9824" lon="0.89358">
        <ele>711.200012</ele>
        <time>2020-12-16T11:01:35.000Z</time>
      </trkpt>
      <trkpt lat="42.98245" lon="0.89361">
        <ele>711.400024</ele>
        <time>2020-12-16T11:01:41.000Z</time>
      </trkpt>
      <trkpt lat="42.98251" lon="0.89364">
        <ele>711.200012</ele>
        <time>2020-12-16T11:01:46.000Z</time>
      </trkpt>
      <trkpt lat="42.98253" lon="0.89365">
        <ele>711.200012</ele>
        <time>2020-12-16T11:01:53.000Z</time>
      </trkpt>
      <trkpt lat="42.98256" lon="0.89369">
        <ele>710.200012</ele>
        <time>2020-12-16T11:02:01.000Z</time>
      </trkpt>
      <trkpt lat="42.98256" lon="0.89369">
        <ele>710.200012</ele>
        <time>2020-12-16T11:02:10.000Z</time>
      </trkpt>
      <trkpt lat="42.98256" lon="0.89369">
        <ele>710.200012</ele>
        <time>2020-12-16T11:02:20.000Z</time>
      </trkpt>
      <trkpt lat="42.98256" lon="0.89369">
        <ele>710.200012</ele>
        <time>2020-12-16T11:02:30.000Z</time>
      </trkpt>
      <trkpt lat="42.98257" lon="0.89369">
        <ele>710.400024</ele>
        <time>2020-12-16T11:02:44.000Z</time>
      </trkpt>
      <trkpt lat="42.98261" lon="0.89367">
        <ele>711.799988</ele>
        <time>2020-12-16T11:02:51.000Z</time>
      </trkpt>
      <trkpt lat="42.98261" lon="0.89367">
        <ele>711.799988</ele>
        <time>2020-12-16T11:03:03.000Z</time>
      </trkpt>
      <trkpt lat="42.98265" lon="0.89369">
        <ele>711.799988</ele>
        <time>2020-12-16T11:03:11.000Z</time>
      </trkpt>
      <trkpt lat="42.98261" lon="0.89359">
        <ele>715.400024</ele>
        <time>2020-12-16T11:03:15.000Z</time>
      </trkpt>
      <trkpt lat="42.9826" lon="0.89357">
        <ele>716.200012</ele>
        <time>2020-12-16T11:03:16.000Z</time>
      </trkpt>
      <trkpt lat="42.98256" lon="0.8935">
        <ele>718.200012</ele>
        <time>2020-12-16T11:03:21.000Z</time>
      </trkpt>
      <trkpt lat="42.98258" lon="0.8935">
        <ele>718.599976</ele>
        <time>2020-12-16T11:03:28.000Z</time>
      </trkpt>
      <trkpt lat="42.98262" lon="0.89357">
        <ele>716.400024</ele>
        <time>2020-12-16T11:03:32.000Z</time>
      </trkpt>
      <trkpt lat="42.98268" lon="0.89368">
        <ele>712.400024</ele>
        <time>2020-12-16T11:03:38.000Z</time>
      </trkpt>
      <trkpt lat="42.98272" lon="0.89376">
        <ele>709.400024</ele>
        <time>2020-12-16T11:03:44.000Z</time>
      </trkpt>
      <trkpt lat="42.98276" lon="0.89381">
        <ele>708</ele>
        <time>2020-12-16T11:03:50.000Z</time>
      </trkpt>
      <trkpt lat="42.98284" lon="0.89387">
        <ele>706.599976</ele>
        <time>2020-12-16T11:03:56.000Z</time>
      </trkpt>
      <trkpt lat="42.98285" lon="0.8939">
        <ele>705.599976</ele>
        <time>2020-12-16T11:04:01.000Z</time>
      </trkpt>
      <trkpt lat="42.98291" lon="0.89394">
        <ele>704</ele>
        <time>2020-12-16T11:04:08.000Z</time>
      </trkpt>
      <trkpt lat="42.98301" lon="0.89404">
        <ele>699.799988</ele>
        <time>2020-12-16T11:04:15.000Z</time>
      </trkpt>
      <trkpt lat="42.98303" lon="0.89404">
        <ele>700</ele>
        <time>2020-12-16T11:04:22.000Z</time>
      </trkpt>
      <trkpt lat="42.98305" lon="0.89403">
        <ele>701.200012</ele>
        <time>2020-12-16T11:04:30.000Z</time>
      </trkpt>
      <trkpt lat="42.9831" lon="0.89401">
        <ele>702.599976</ele>
        <time>2020-12-16T11:04:38.000Z</time>
      </trkpt>
      <trkpt lat="42.98312" lon="0.89402">
        <ele>702.599976</ele>
        <time>2020-12-16T11:04:44.000Z</time>
      </trkpt>
      <trkpt lat="42.98312" lon="0.89402">
        <ele>702.599976</ele>
        <time>2020-12-16T11:04:59.000Z</time>
      </trkpt>
      <trkpt lat="42.98312" lon="0.89402">
        <ele>702.599976</ele>
        <time>2020-12-16T11:05:14.000Z</time>
      </trkpt>
      <trkpt lat="42.98312" lon="0.89402">
        <ele>702.599976</ele>
        <time>2020-12-16T11:05:31.000Z</time>
      </trkpt>
      <trkpt lat="42.98312" lon="0.89402">
        <ele>702.599976</ele>
        <time>2020-12-16T11:05:43.000Z</time>
      </trkpt>
      <trkpt lat="42.98312" lon="0.89402">
        <ele>702.599976</ele>
        <time>2020-12-16T11:05:57.000Z</time>
      </trkpt>
      <trkpt lat="42.9831" lon="0.89409">
        <ele>698.200012</ele>
        <time>2020-12-16T11:06:10.000Z</time>
      </trkpt>
      <trkpt lat="42.9831" lon="0.89409">
        <ele>698.200012</ele>
        <time>2020-12-16T11:06:28.000Z</time>
      </trkpt>
      <trkpt lat="42.98309" lon="0.8941">
        <ele>697.799988</ele>
        <time>2020-12-16T11:06:50.000Z</time>
      </trkpt>
      <trkpt lat="42.98309" lon="0.8941">
        <ele>697.799988</ele>
        <time>2020-12-16T11:07:07.000Z</time>
      </trkpt>
      <trkpt lat="42.98313" lon="0.89415">
        <ele>695.400024</ele>
        <time>2020-12-16T11:07:13.000Z</time>
      </trkpt>
      <trkpt lat="42.98319" lon="0.89424">
        <ele>691.200012</ele>
        <time>2020-12-16T11:07:19.000Z</time>
      </trkpt>
      <trkpt lat="42.98325" lon="0.89428">
        <ele>689.599976</ele>
        <time>2020-12-16T11:07:24.000Z</time>
      </trkpt>
      <trkpt lat="42.98328" lon="0.8943">
        <ele>689</ele>
        <time>2020-12-16T11:07:30.000Z</time>
      </trkpt>
      <trkpt lat="42.98332" lon="0.89433">
        <ele>687.799988</ele>
        <time>2020-12-16T11:07:36.000Z</time>
      </trkpt>
      <trkpt lat="42.98335" lon="0.89436">
        <ele>687</ele>
        <time>2020-12-16T11:07:41.000Z</time>
      </trkpt>
      <trkpt lat="42.98337" lon="0.8944">
        <ele>685</ele>
        <time>2020-12-16T11:07:48.000Z</time>
      </trkpt>
      <trkpt lat="42.98339" lon="0.89441">
        <ele>684.400024</ele>
        <time>2020-12-16T11:07:55.000Z</time>
      </trkpt>
      <trkpt lat="42.98343" lon="0.89447">
        <ele>682</ele>
        <time>2020-12-16T11:08:03.000Z</time>
      </trkpt>
      <trkpt lat="42.98347" lon="0.89452">
        <ele>679.599976</ele>
        <time>2020-12-16T11:08:08.000Z</time>
      </trkpt>
      <trkpt lat="42.98349" lon="0.89454">
        <ele>679.200012</ele>
        <time>2020-12-16T11:08:17.000Z</time>
      </trkpt>
      <trkpt lat="42.98358" lon="0.89464">
        <ele>675.599976</ele>
        <time>2020-12-16T11:08:24.000Z</time>
      </trkpt>
      <trkpt lat="42.98361" lon="0.89472">
        <ele>671.799988</ele>
        <time>2020-12-16T11:08:31.000Z</time>
      </trkpt>
      <trkpt lat="42.98361" lon="0.89473">
        <ele>670.799988</ele>
        <time>2020-12-16T11:08:38.000Z</time>
      </trkpt>
      <trkpt lat="42.98364" lon="0.89476">
        <ele>670.400024</ele>
        <time>2020-12-16T11:08:44.000Z</time>
      </trkpt>
      <trkpt lat="42.98373" lon="0.8948">
        <ele>670</ele>
        <time>2020-12-16T11:08:51.000Z</time>
      </trkpt>
      <trkpt lat="42.98377" lon="0.89484">
        <ele>669</ele>
        <time>2020-12-16T11:08:56.000Z</time>
      </trkpt>
      <trkpt lat="42.98383" lon="0.89488">
        <ele>668.599976</ele>
        <time>2020-12-16T11:09:04.000Z</time>
      </trkpt>
      <trkpt lat="42.98383" lon="0.89488">
        <ele>668.599976</ele>
        <time>2020-12-16T11:09:11.000Z</time>
      </trkpt>
      <trkpt lat="42.98389" lon="0.8949">
        <ele>668.599976</ele>
        <time>2020-12-16T11:09:17.000Z</time>
      </trkpt>
      <trkpt lat="42.98394" lon="0.89493">
        <ele>668</ele>
        <time>2020-12-16T11:09:22.000Z</time>
      </trkpt>
      <trkpt lat="42.98404" lon="0.89504">
        <ele>664.799988</ele>
        <time>2020-12-16T11:09:30.000Z</time>
      </trkpt>
      <trkpt lat="42.98406" lon="0.89505">
        <ele>665</ele>
        <time>2020-12-16T11:09:39.000Z</time>
      </trkpt>
      <trkpt lat="42.98411" lon="0.89509">
        <ele>664</ele>
        <time>2020-12-16T11:09:44.000Z</time>
      </trkpt>
      <trkpt lat="42.98414" lon="0.89511">
        <ele>663.599976</ele>
        <time>2020-12-16T11:09:52.000Z</time>
      </trkpt>
      <trkpt lat="42.9842" lon="0.89519">
        <ele>661</ele>
        <time>2020-12-16T11:09:58.000Z</time>
      </trkpt>
      <trkpt lat="42.98422" lon="0.89521">
        <ele>660.599976</ele>
        <time>2020-12-16T11:10:05.000Z</time>
      </trkpt>
      <trkpt lat="42.98424" lon="0.89523">
        <ele>660.200012</ele>
        <time>2020-12-16T11:10:13.000Z</time>
      </trkpt>
      <trkpt lat="42.9843" lon="0.89533">
        <ele>656.599976</ele>
        <time>2020-12-16T11:10:20.000Z</time>
      </trkpt>
      <trkpt lat="42.98434" lon="0.89539">
        <ele>654.400024</ele>
        <time>2020-12-16T11:10:27.000Z</time>
      </trkpt>
      <trkpt lat="42.98438" lon="0.89542">
        <ele>653.799988</ele>
        <time>2020-12-16T11:10:34.000Z</time>
      </trkpt>
      <trkpt lat="42.98445" lon="0.89547">
        <ele>652.400024</ele>
        <time>2020-12-16T11:10:39.000Z</time>
      </trkpt>
      <trkpt lat="42.98447" lon="0.89549">
        <ele>652</ele>
        <time>2020-12-16T11:10:44.000Z</time>
      </trkpt>
      <trkpt lat="42.98449" lon="0.89552">
        <ele>651.200012</ele>
        <time>2020-12-16T11:10:51.000Z</time>
      </trkpt>
      <trkpt lat="42.98466" lon="0.89559">
        <ele>651.799988</ele>
        <time>2020-12-16T11:10:56.000Z</time>
      </trkpt>
      <trkpt lat="42.98472" lon="0.8956">
        <ele>652.599976</ele>
        <time>2020-12-16T11:11:03.000Z</time>
      </trkpt>
      <trkpt lat="42.98478" lon="0.89563">
        <ele>652.799988</ele>
        <time>2020-12-16T11:11:09.000Z</time>
      </trkpt>
      <trkpt lat="42.98487" lon="0.89566">
        <ele>653.200012</ele>
        <time>2020-12-16T11:11:15.000Z</time>
      </trkpt>
      <trkpt lat="42.9849" lon="0.89571">
        <ele>652.200012</ele>
        <time>2020-12-16T11:11:21.000Z</time>
      </trkpt>
      <trkpt lat="42.98492" lon="0.89576">
        <ele>651</ele>
        <time>2020-12-16T11:11:25.000Z</time>
      </trkpt>
      <trkpt lat="42.98497" lon="0.89588">
        <ele>647.799988</ele>
        <time>2020-12-16T11:11:33.000Z</time>
      </trkpt>
      <trkpt lat="42.98501" lon="0.89595">
        <ele>646.200012</ele>
        <time>2020-12-16T11:11:41.000Z</time>
      </trkpt>
      <trkpt lat="42.98503" lon="0.89598">
        <ele>645.400024</ele>
        <time>2020-12-16T11:11:49.000Z</time>
      </trkpt>
      <trkpt lat="42.98508" lon="0.89607">
        <ele>643.400024</ele>
        <time>2020-12-16T11:11:55.000Z</time>
      </trkpt>
      <trkpt lat="42.98509" lon="0.89611">
        <ele>642.200012</ele>
        <time>2020-12-16T11:12:02.000Z</time>
      </trkpt>
      <trkpt lat="42.98517" lon="0.89622">
        <ele>640.599976</ele>
        <time>2020-12-16T11:12:08.000Z</time>
      </trkpt>
      <trkpt lat="42.98524" lon="0.89636">
        <ele>637.400024</ele>
        <time>2020-12-16T11:12:17.000Z</time>
      </trkpt>
      <trkpt lat="42.98528" lon="0.89645">
        <ele>634.599976</ele>
        <time>2020-12-16T11:12:23.000Z</time>
      </trkpt>
      <trkpt lat="42.98534" lon="0.89651">
        <ele>633.799988</ele>
        <time>2020-12-16T11:12:29.000Z</time>
      </trkpt>
      <trkpt lat="42.98541" lon="0.89655">
        <ele>633.400024</ele>
        <time>2020-12-16T11:12:36.000Z</time>
      </trkpt>
      <trkpt lat="42.98546" lon="0.89659">
        <ele>633.200012</ele>
        <time>2020-12-16T11:12:41.000Z</time>
      </trkpt>
      <trkpt lat="42.9855" lon="0.89664">
        <ele>632</ele>
        <time>2020-12-16T11:12:47.000Z</time>
      </trkpt>
      <trkpt lat="42.98556" lon="0.89671">
        <ele>630.200012</ele>
        <time>2020-12-16T11:12:53.000Z</time>
      </trkpt>
      <trkpt lat="42.98561" lon="0.89675">
        <ele>629.599976</ele>
        <time>2020-12-16T11:12:59.000Z</time>
      </trkpt>
      <trkpt lat="42.98564" lon="0.89676">
        <ele>630</ele>
        <time>2020-12-16T11:13:06.000Z</time>
      </trkpt>
      <trkpt lat="42.98565" lon="0.89676">
        <ele>630.400024</ele>
        <time>2020-12-16T11:13:17.000Z</time>
      </trkpt>
      <trkpt lat="42.98568" lon="0.8968">
        <ele>629.400024</ele>
        <time>2020-12-16T11:13:24.000Z</time>
      </trkpt>
      <trkpt lat="42.9857" lon="0.8968">
        <ele>630</ele>
        <time>2020-12-16T11:13:34.000Z</time>
      </trkpt>
      <trkpt lat="42.98578" lon="0.8969">
        <ele>627.599976</ele>
        <time>2020-12-16T11:13:44.000Z</time>
      </trkpt>
      <trkpt lat="42.9858" lon="0.89691">
        <ele>627.200012</ele>
        <time>2020-12-16T11:13:52.000Z</time>
      </trkpt>
      <trkpt lat="42.98579" lon="0.89707">
        <ele>620</ele>
        <time>2020-12-16T11:14:01.000Z</time>
      </trkpt>
      <trkpt lat="42.98579" lon="0.8971">
        <ele>618.799988</ele>
        <time>2020-12-16T11:14:07.000Z</time>
      </trkpt>
      <trkpt lat="42.98581" lon="0.89712">
        <ele>618.200012</ele>
        <time>2020-12-16T11:14:14.000Z</time>
      </trkpt>
      <trkpt lat="42.98585" lon="0.89715">
        <ele>618</ele>
        <time>2020-12-16T11:14:20.000Z</time>
      </trkpt>
      <trkpt lat="42.98589" lon="0.89718">
        <ele>617.799988</ele>
        <time>2020-12-16T11:14:27.000Z</time>
      </trkpt>
      <trkpt lat="42.98591" lon="0.89724">
        <ele>615.799988</ele>
        <time>2020-12-16T11:14:34.000Z</time>
      </trkpt>
      <trkpt lat="42.98593" lon="0.89741">
        <ele>609</ele>
        <time>2020-12-16T11:14:39.000Z</time>
      </trkpt>
      <trkpt lat="42.98602" lon="0.89748">
        <ele>607.200012</ele>
        <time>2020-12-16T11:14:47.000Z</time>
      </trkpt>
      <trkpt lat="42.98602" lon="0.89756">
        <ele>604.400024</ele>
        <time>2020-12-16T11:14:55.000Z</time>
      </trkpt>
      <trkpt lat="42.98605" lon="0.8976">
        <ele>603</ele>
        <time>2020-12-16T11:15:00.000Z</time>
      </trkpt>
      <trkpt lat="42.98605" lon="0.8976">
        <ele>603</ele>
        <time>2020-12-16T11:15:07.000Z</time>
      </trkpt>
      <trkpt lat="42.98618" lon="0.89765">
        <ele>602.200012</ele>
        <time>2020-12-16T11:15:13.000Z</time>
      </trkpt>
      <trkpt lat="42.98618" lon="0.89765">
        <ele>602.200012</ele>
        <time>2020-12-16T11:15:20.000Z</time>
      </trkpt>
      <trkpt lat="42.9862" lon="0.89766">
        <ele>602.200012</ele>
        <time>2020-12-16T11:15:32.000Z</time>
      </trkpt>
      <trkpt lat="42.98633" lon="0.89767">
        <ele>603.200012</ele>
        <time>2020-12-16T11:15:37.000Z</time>
      </trkpt>
      <trkpt lat="42.98644" lon="0.89775">
        <ele>601.200012</ele>
        <time>2020-12-16T11:15:43.000Z</time>
      </trkpt>
      <trkpt lat="42.98646" lon="0.89779">
        <ele>599.799988</ele>
        <time>2020-12-16T11:15:47.000Z</time>
      </trkpt>
      <trkpt lat="42.98649" lon="0.89787">
        <ele>596.799988</ele>
        <time>2020-12-16T11:15:54.000Z</time>
      </trkpt>
      <trkpt lat="42.98649" lon="0.89787">
        <ele>596.799988</ele>
        <time>2020-12-16T11:16:08.000Z</time>
      </trkpt>
      <trkpt lat="42.98649" lon="0.89787">
        <ele>596.799988</ele>
        <time>2020-12-16T11:16:20.000Z</time>
      </trkpt>
      <trkpt lat="42.98653" lon="0.89791">
        <ele>596</ele>
        <time>2020-12-16T11:16:26.000Z</time>
      </trkpt>
      <trkpt lat="42.98654" lon="0.89793">
        <ele>595.200012</ele>
        <time>2020-12-16T11:16:33.000Z</time>
      </trkpt>
      <trkpt lat="42.98656" lon="0.89797">
        <ele>594</ele>
        <time>2020-12-16T11:16:39.000Z</time>
      </trkpt>
      <trkpt lat="42.98656" lon="0.89797">
        <ele>594</ele>
        <time>2020-12-16T11:16:47.000Z</time>
      </trkpt>
      <trkpt lat="42.98656" lon="0.89797">
        <ele>594</ele>
        <time>2020-12-16T11:16:55.000Z</time>
      </trkpt>
      <trkpt lat="42.98657" lon="0.89798">
        <ele>593.599976</ele>
        <time>2020-12-16T11:17:01.000Z</time>
      </trkpt>
      <trkpt lat="42.98663" lon="0.89802">
        <ele>592.799988</ele>
        <time>2020-12-16T11:17:06.000Z</time>
      </trkpt>
      <trkpt lat="42.98669" lon="0.89801">
        <ele>593.799988</ele>
        <time>2020-12-16T11:17:14.000Z</time>
      </trkpt>
      <trkpt lat="42.98698" lon="0.89803">
        <ele>589.400024</ele>
        <time>2020-12-16T11:17:21.000Z</time>
      </trkpt>
      <trkpt lat="42.98711" lon="0.89808">
        <ele>585.400024</ele>
        <time>2020-12-16T11:17:27.000Z</time>
      </trkpt>
      <trkpt lat="42.98719" lon="0.89809">
        <ele>584</ele>
        <time>2020-12-16T11:17:36.000Z</time>
      </trkpt>
      <trkpt lat="42.98726" lon="0.89815">
        <ele>580.799988</ele>
        <time>2020-12-16T11:17:43.000Z</time>
      </trkpt>
      <trkpt lat="42.98731" lon="0.89817">
        <ele>579.200012</ele>
        <time>2020-12-16T11:17:50.000Z</time>
      </trkpt>
      <trkpt lat="42.98732" lon="0.89817">
        <ele>579</ele>
        <time>2020-12-16T11:17:57.000Z</time>
      </trkpt>
      <trkpt lat="42.98734" lon="0.89818">
        <ele>578.200012</ele>
        <time>2020-12-16T11:18:07.000Z</time>
      </trkpt>
      <trkpt lat="42.98738" lon="0.89823">
        <ele>575.799988</ele>
        <time>2020-12-16T11:18:13.000Z</time>
      </trkpt>
      <trkpt lat="42.98741" lon="0.89823">
        <ele>575.200012</ele>
        <time>2020-12-16T11:18:18.000Z</time>
      </trkpt>
      <trkpt lat="42.98743" lon="0.89824">
        <ele>574.799988</ele>
        <time>2020-12-16T11:18:22.000Z</time>
      </trkpt>
      <trkpt lat="42.98745" lon="0.89825">
        <ele>574</ele>
        <time>2020-12-16T11:18:28.000Z</time>
      </trkpt>
      <trkpt lat="42.98748" lon="0.89826">
        <ele>573.200012</ele>
        <time>2020-12-16T11:18:34.000Z</time>
      </trkpt>
      <trkpt lat="42.98752" lon="0.8983">
        <ele>571.200012</ele>
        <time>2020-12-16T11:18:39.000Z</time>
      </trkpt>
      <trkpt lat="42.98752" lon="0.8983">
        <ele>571.200012</ele>
        <time>2020-12-16T11:18:51.000Z</time>
      </trkpt>
      <trkpt lat="42.98752" lon="0.8983">
        <ele>571.200012</ele>
        <time>2020-12-16T11:19:01.000Z</time>
      </trkpt>
      <trkpt lat="42.98752" lon="0.8983">
        <ele>571.200012</ele>
        <time>2020-12-16T11:19:24.000Z</time>
      </trkpt>
      <trkpt lat="42.98752" lon="0.8983">
        <ele>571.200012</ele>
        <time>2020-12-16T11:19:39.000Z</time>
      </trkpt>
      <trkpt lat="42.98755" lon="0.89831">
        <ele>570.400024</ele>
        <time>2020-12-16T11:19:49.000Z</time>
      </trkpt>
      <trkpt lat="42.98756" lon="0.89838">
        <ele>568</ele>
        <time>2020-12-16T11:19:54.000Z</time>
      </trkpt>
      <trkpt lat="42.98756" lon="0.89841">
        <ele>567</ele>
        <time>2020-12-16T11:20:01.000Z</time>
      </trkpt>
      <trkpt lat="42.98756" lon="0.89841">
        <ele>567</ele>
        <time>2020-12-16T11:20:09.000Z</time>
      </trkpt>
      <trkpt lat="42.98754" lon="0.89847">
        <ele>565.200012</ele>
        <time>2020-12-16T11:20:16.000Z</time>
      </trkpt>
      <trkpt lat="42.98752" lon="0.89852">
        <ele>563.799988</ele>
        <time>2020-12-16T11:20:24.000Z</time>
      </trkpt>
      <trkpt lat="42.98752" lon="0.89852">
        <ele>563.799988</ele>
        <time>2020-12-16T11:20:34.000Z</time>
      </trkpt>
      <trkpt lat="42.98752" lon="0.89854">
        <ele>563.200012</ele>
        <time>2020-12-16T11:20:39.000Z</time>
      </trkpt>
      <trkpt lat="42.98752" lon="0.89854">
        <ele>563.200012</ele>
        <time>2020-12-16T11:20:51.000Z</time>
      </trkpt>
      <trkpt lat="42.98752" lon="0.89854">
        <ele>563.200012</ele>
        <time>2020-12-16T11:20:59.000Z</time>
      </trkpt>
      <trkpt lat="42.98752" lon="0.89854">
        <ele>563.200012</ele>
        <time>2020-12-16T11:21:15.000Z</time>
      </trkpt>
      <trkpt lat="42.98752" lon="0.89854">
        <ele>563.200012</ele>
        <time>2020-12-16T11:21:39.000Z</time>
      </trkpt>
      <trkpt lat="42.98752" lon="0.89854">
        <ele>563.200012</ele>
        <time>2020-12-16T11:21:47.000Z</time>
      </trkpt>
      <trkpt lat="42.98752" lon="0.89854">
        <ele>563.200012</ele>
        <time>2020-12-16T11:21:57.000Z</time>
      </trkpt>
      <trkpt lat="42.98752" lon="0.89853">
        <ele>563.400024</ele>
        <time>2020-12-16T11:22:09.000Z</time>
      </trkpt>
      <trkpt lat="42.98752" lon="0.89853">
        <ele>563.400024</ele>
        <time>2020-12-16T11:22:26.000Z</time>
      </trkpt>
      <trkpt lat="42.98753" lon="0.89853">
        <ele>563.200012</ele>
        <time>2020-12-16T11:22:43.000Z</time>
      </trkpt>
      <trkpt lat="42.98753" lon="0.89853">
        <ele>563.200012</ele>
        <time>2020-12-16T11:23:04.000Z</time>
      </trkpt>
      <trkpt lat="42.98753" lon="0.89852">
        <ele>563.599976</ele>
        <time>2020-12-16T11:23:21.000Z</time>
      </trkpt>
      <trkpt lat="42.98754" lon="0.89849">
        <ele>564.599976</ele>
        <time>2020-12-16T11:23:30.000Z</time>
      </trkpt>
      <trkpt lat="42.98754" lon="0.89849">
        <ele>564.599976</ele>
        <time>2020-12-16T11:23:45.000Z</time>
      </trkpt>
      <trkpt lat="42.98754" lon="0.89849">
        <ele>564.599976</ele>
        <time>2020-12-16T11:24:03.000Z</time>
      </trkpt>
      <trkpt lat="42.98754" lon="0.89849">
        <ele>564.599976</ele>
        <time>2020-12-16T11:24:14.000Z</time>
      </trkpt>
      <trkpt lat="42.98754" lon="0.89849">
        <ele>564.599976</ele>
        <time>2020-12-16T11:24:29.000Z</time>
      </trkpt>
      <trkpt lat="42.98754" lon="0.89849">
        <ele>564.599976</ele>
        <time>2020-12-16T11:24:42.000Z</time>
      </trkpt>
      <trkpt lat="42.98754" lon="0.89849">
        <ele>564.599976</ele>
        <time>2020-12-16T11:24:49.000Z</time>
      </trkpt>
      <trkpt lat="42.98754" lon="0.89849">
        <ele>564.400024</ele>
        <time>2020-12-16T11:24:58.000Z</time>
      </trkpt>
      <trkpt lat="42.98754" lon="0.89849">
        <ele>564.400024</ele>
        <time>2020-12-16T11:25:19.000Z</time>
      </trkpt>
      <trkpt lat="42.98755" lon="0.89849">
        <ele>564.200012</ele>
        <time>2020-12-16T11:25:32.000Z</time>
      </trkpt>
      <trkpt lat="42.98755" lon="0.89849">
        <ele>564.200012</ele>
        <time>2020-12-16T11:25:43.000Z</time>
      </trkpt>
      <trkpt lat="42.98755" lon="0.89849">
        <ele>564.200012</ele>
        <time>2020-12-16T11:26:04.000Z</time>
      </trkpt>
      <trkpt lat="42.98755" lon="0.89849">
        <ele>564.400024</ele>
        <time>2020-12-16T11:26:15.000Z</time>
      </trkpt>
      <trkpt lat="42.98755" lon="0.89849">
        <ele>564.400024</ele>
        <time>2020-12-16T11:26:26.000Z</time>
      </trkpt>
      <trkpt lat="42.98755" lon="0.89849">
        <ele>564.400024</ele>
        <time>2020-12-16T11:26:38.000Z</time>
      </trkpt>
      <trkpt lat="42.98755" lon="0.89849">
        <ele>564.400024</ele>
        <time>2020-12-16T11:26:49.000Z</time>
      </trkpt>
      <trkpt lat="42.98756" lon="0.89849">
        <ele>564.200012</ele>
        <time>2020-12-16T11:27:05.000Z</time>
      </trkpt>
      <trkpt lat="42.98757" lon="0.89849">
        <ele>564</ele>
        <time>2020-12-16T11:27:09.000Z</time>
      </trkpt>
      <trkpt lat="42.98753" lon="0.89851">
        <ele>563.799988</ele>
        <time>2020-12-16T11:27:14.000Z</time>
      </trkpt>
      <trkpt lat="42.98753" lon="0.89853">
        <ele>563.200012</ele>
        <time>2020-12-16T11:27:18.000Z</time>
      </trkpt>
      <trkpt lat="42.98754" lon="0.89854">
        <ele>563</ele>
        <time>2020-12-16T11:27:22.000Z</time>
      </trkpt>
      <trkpt lat="42.98757" lon="0.89857">
        <ele>561.400024</ele>
        <time>2020-12-16T11:27:27.000Z</time>
      </trkpt>
      <trkpt lat="42.9876" lon="0.89857">
        <ele>561</ele>
        <time>2020-12-16T11:27:29.000Z</time>
      </trkpt>
      <trkpt lat="42.98759" lon="0.89856">
        <ele>561</ele>
        <time>2020-12-16T11:27:31.000Z</time>
      </trkpt>
      <trkpt lat="42.9876" lon="0.89856">
        <ele>561</ele>
        <time>2020-12-16T11:27:36.000Z</time>
      </trkpt>
      <trkpt lat="42.9876" lon="0.89857">
        <ele>560.599976</ele>
        <time>2020-12-16T11:27:43.000Z</time>
      </trkpt>
      <trkpt lat="42.98763" lon="0.89862">
        <ele>558.599976</ele>
        <time>2020-12-16T11:27:49.000Z</time>
      </trkpt>
      <trkpt lat="42.98761" lon="0.89864">
        <ele>558.200012</ele>
        <time>2020-12-16T11:27:57.000Z</time>
      </trkpt>
      <trkpt lat="42.98763" lon="0.89864">
        <ele>557.799988</ele>
        <time>2020-12-16T11:28:03.000Z</time>
      </trkpt>
      <trkpt lat="42.98765" lon="0.89865">
        <ele>557</ele>
        <time>2020-12-16T11:28:08.000Z</time>
      </trkpt>
      <trkpt lat="42.98766" lon="0.89867">
        <ele>556.400024</ele>
        <time>2020-12-16T11:28:15.000Z</time>
      </trkpt>
      <trkpt lat="42.9877" lon="0.89869">
        <ele>554.799988</ele>
        <time>2020-12-16T11:28:20.000Z</time>
      </trkpt>
      <trkpt lat="42.98773" lon="0.89874">
        <ele>552.799988</ele>
        <time>2020-12-16T11:28:24.000Z</time>
      </trkpt>
      <trkpt lat="42.98777" lon="0.89878">
        <ele>550.799988</ele>
        <time>2020-12-16T11:28:29.000Z</time>
      </trkpt>
      <trkpt lat="42.9878" lon="0.89882">
        <ele>548.599976</ele>
        <time>2020-12-16T11:28:33.000Z</time>
      </trkpt>
      <trkpt lat="42.98778" lon="0.89883">
        <ele>548.599976</ele>
        <time>2020-12-16T11:28:38.000Z</time>
      </trkpt>
      <trkpt lat="42.98779" lon="0.89884">
        <ele>548.200012</ele>
        <time>2020-12-16T11:28:44.000Z</time>
      </trkpt>
      <trkpt lat="42.9878" lon="0.89885">
        <ele>548</ele>
        <time>2020-12-16T11:28:51.000Z</time>
      </trkpt>
      <trkpt lat="42.98782" lon="0.89888">
        <ele>546.599976</ele>
        <time>2020-12-16T11:28:56.000Z</time>
      </trkpt>
      <trkpt lat="42.98785" lon="0.89889">
        <ele>545.400024</ele>
        <time>2020-12-16T11:29:01.000Z</time>
      </trkpt>
      <trkpt lat="42.98786" lon="0.89894">
        <ele>544.200012</ele>
        <time>2020-12-16T11:29:07.000Z</time>
      </trkpt>
      <trkpt lat="42.98786" lon="0.89895">
        <ele>544</ele>
        <time>2020-12-16T11:29:12.000Z</time>
      </trkpt>
      <trkpt lat="42.98787" lon="0.89898">
        <ele>543.200012</ele>
        <time>2020-12-16T11:29:17.000Z</time>
      </trkpt>
      <trkpt lat="42.98791" lon="0.89904">
        <ele>541.200012</ele>
        <time>2020-12-16T11:29:21.000Z</time>
      </trkpt>
      <trkpt lat="42.98795" lon="0.89912">
        <ele>539</ele>
        <time>2020-12-16T11:29:26.000Z</time>
      </trkpt>
      <trkpt lat="42.98797" lon="0.89915">
        <ele>537.799988</ele>
        <time>2020-12-16T11:29:33.000Z</time>
      </trkpt>
      <trkpt lat="42.98802" lon="0.89917">
        <ele>536.799988</ele>
        <time>2020-12-16T11:29:37.000Z</time>
      </trkpt>
      <trkpt lat="42.98803" lon="0.89918">
        <ele>536.200012</ele>
        <time>2020-12-16T11:29:41.000Z</time>
      </trkpt>
      <trkpt lat="42.98805" lon="0.89922">
        <ele>535</ele>
        <time>2020-12-16T11:29:47.000Z</time>
      </trkpt>
      <trkpt lat="42.98809" lon="0.89931">
        <ele>532.400024</ele>
        <time>2020-12-16T11:29:53.000Z</time>
      </trkpt>
      <trkpt lat="42.9881" lon="0.89931">
        <ele>532.400024</ele>
        <time>2020-12-16T11:29:59.000Z</time>
      </trkpt>
      <trkpt lat="42.98813" lon="0.89932">
        <ele>531.599976</ele>
        <time>2020-12-16T11:30:03.000Z</time>
      </trkpt>
      <trkpt lat="42.98817" lon="0.89935">
        <ele>530.200012</ele>
        <time>2020-12-16T11:30:08.000Z</time>
      </trkpt>
      <trkpt lat="42.9882" lon="0.89937">
        <ele>529.200012</ele>
        <time>2020-12-16T11:30:12.000Z</time>
      </trkpt>
      <trkpt lat="42.98828" lon="0.89943">
        <ele>526.599976</ele>
        <time>2020-12-16T11:30:17.000Z</time>
      </trkpt>
      <trkpt lat="42.98835" lon="0.89952">
        <ele>523.400024</ele>
        <time>2020-12-16T11:30:23.000Z</time>
      </trkpt>
      <trkpt lat="42.98838" lon="0.89959">
        <ele>521.599976</ele>
        <time>2020-12-16T11:30:28.000Z</time>
      </trkpt>
      <trkpt lat="42.98839" lon="0.89959">
        <ele>521.599976</ele>
        <time>2020-12-16T11:30:32.000Z</time>
      </trkpt>
      <trkpt lat="42.9884" lon="0.89962">
        <ele>520.599976</ele>
        <time>2020-12-16T11:30:36.000Z</time>
      </trkpt>
      <trkpt lat="42.98844" lon="0.89965">
        <ele>519</ele>
        <time>2020-12-16T11:30:41.000Z</time>
      </trkpt>
      <trkpt lat="42.98847" lon="0.89967">
        <ele>518</ele>
        <time>2020-12-16T11:30:45.000Z</time>
      </trkpt>
      <trkpt lat="42.98852" lon="0.89971">
        <ele>515.799988</ele>
        <time>2020-12-16T11:30:49.000Z</time>
      </trkpt>
      <trkpt lat="42.98857" lon="0.89969">
        <ele>514.799988</ele>
        <time>2020-12-16T11:30:54.000Z</time>
      </trkpt>
      <trkpt lat="42.98864" lon="0.89966">
        <ele>513.599976</ele>
        <time>2020-12-16T11:30:59.000Z</time>
      </trkpt>
      <trkpt lat="42.98865" lon="0.89966">
        <ele>513.200012</ele>
        <time>2020-12-16T11:31:02.000Z</time>
      </trkpt>
      <trkpt lat="42.98872" lon="0.89968">
        <ele>511</ele>
        <time>2020-12-16T11:31:08.000Z</time>
      </trkpt>
      <trkpt lat="42.98877" lon="0.89962">
        <ele>510.799988</ele>
        <time>2020-12-16T11:31:13.000Z</time>
      </trkpt>
      <trkpt lat="42.98879" lon="0.89961">
        <ele>510.600006</ele>
        <time>2020-12-16T11:31:17.000Z</time>
      </trkpt>
      <trkpt lat="42.98883" lon="0.89957">
        <ele>510.399994</ele>
        <time>2020-12-16T11:31:23.000Z</time>
      </trkpt>
      <trkpt lat="42.98886" lon="0.89951">
        <ele>510.799988</ele>
        <time>2020-12-16T11:31:30.000Z</time>
      </trkpt>
      <trkpt lat="42.98889" lon="0.89951">
        <ele>510.200012</ele>
        <time>2020-12-16T11:31:34.000Z</time>
      </trkpt>
      <trkpt lat="42.98891" lon="0.89946">
        <ele>510.600006</ele>
        <time>2020-12-16T11:31:39.000Z</time>
      </trkpt>
      <trkpt lat="42.98894" lon="0.89942">
        <ele>510.600006</ele>
        <time>2020-12-16T11:31:44.000Z</time>
      </trkpt>
      <trkpt lat="42.98895" lon="0.89938">
        <ele>510</ele>
        <time>2020-12-16T11:31:51.000Z</time>
      </trkpt>
      <trkpt lat="42.98898" lon="0.89938">
        <ele>509</ele>
        <time>2020-12-16T11:31:55.000Z</time>
      </trkpt>
      <trkpt lat="42.98904" lon="0.89937">
        <ele>506.600006</ele>
        <time>2020-12-16T11:31:58.000Z</time>
      </trkpt>
      <trkpt lat="42.98904" lon="0.89937">
        <ele>506.399994</ele>
        <time>2020-12-16T11:31:59.000Z</time>
      </trkpt>
      <trkpt lat="42.98907" lon="0.89931">
        <ele>505.399994</ele>
        <time>2020-12-16T11:32:04.000Z</time>
      </trkpt>
      <trkpt lat="42.98907" lon="0.89929">
        <ele>505.799988</ele>
        <time>2020-12-16T11:32:10.000Z</time>
      </trkpt>
      <trkpt lat="42.98908" lon="0.89928">
        <ele>505.399994</ele>
        <time>2020-12-16T11:32:15.000Z</time>
      </trkpt>
      <trkpt lat="42.98909" lon="0.89926">
        <ele>505</ele>
        <time>2020-12-16T11:32:21.000Z</time>
      </trkpt>
      <trkpt lat="42.9891" lon="0.89926">
        <ele>504.600006</ele>
        <time>2020-12-16T11:32:26.000Z</time>
      </trkpt>
      <trkpt lat="42.98912" lon="0.89927">
        <ele>503.600006</ele>
        <time>2020-12-16T11:32:31.000Z</time>
      </trkpt>
      <trkpt lat="42.9891" lon="0.89926">
        <ele>504.399994</ele>
        <time>2020-12-16T11:32:32.000Z</time>
      </trkpt>
      <trkpt lat="42.9891" lon="0.89924">
        <ele>504.399994</ele>
        <time>2020-12-16T11:32:35.000Z</time>
      </trkpt>
      <trkpt lat="42.98911" lon="0.89923">
        <ele>504.200012</ele>
        <time>2020-12-16T11:32:42.000Z</time>
      </trkpt>
      <trkpt lat="42.98916" lon="0.89925">
        <ele>502.200012</ele>
        <time>2020-12-16T11:32:46.000Z</time>
      </trkpt>
      <trkpt lat="42.9892" lon="0.89926">
        <ele>500.399994</ele>
        <time>2020-12-16T11:32:52.000Z</time>
      </trkpt>
      <trkpt lat="42.98923" lon="0.89931">
        <ele>499</ele>
        <time>2020-12-16T11:32:56.000Z</time>
      </trkpt>
      <trkpt lat="42.98924" lon="0.89932">
        <ele>498.399994</ele>
        <time>2020-12-16T11:33:02.000Z</time>
      </trkpt>
      <trkpt lat="42.98929" lon="0.89934">
        <ele>496.600006</ele>
        <time>2020-12-16T11:33:07.000Z</time>
      </trkpt>
      <trkpt lat="42.9893" lon="0.8994">
        <ele>495.799988</ele>
        <time>2020-12-16T11:33:11.000Z</time>
      </trkpt>
      <trkpt lat="42.98932" lon="0.89944">
        <ele>495</ele>
        <time>2020-12-16T11:33:15.000Z</time>
      </trkpt>
      <trkpt lat="42.98938" lon="0.89947">
        <ele>493</ele>
        <time>2020-12-16T11:33:19.000Z</time>
      </trkpt>
      <trkpt lat="42.9894" lon="0.89949">
        <ele>492.200012</ele>
        <time>2020-12-16T11:33:27.000Z</time>
      </trkpt>
      <trkpt lat="42.98944" lon="0.89957">
        <ele>490.399994</ele>
        <time>2020-12-16T11:33:33.000Z</time>
      </trkpt>
      <trkpt lat="42.98946" lon="0.89962">
        <ele>489.399994</ele>
        <time>2020-12-16T11:33:38.000Z</time>
      </trkpt>
      <trkpt lat="42.98946" lon="0.89967">
        <ele>489.200012</ele>
        <time>2020-12-16T11:33:42.000Z</time>
      </trkpt>
      <trkpt lat="42.98947" lon="0.8997">
        <ele>488.600006</ele>
        <time>2020-12-16T11:33:46.000Z</time>
      </trkpt>
      <trkpt lat="42.98951" lon="0.89975">
        <ele>487</ele>
        <time>2020-12-16T11:33:50.000Z</time>
      </trkpt>
      <trkpt lat="42.98956" lon="0.89983">
        <ele>484.600006</ele>
        <time>2020-12-16T11:33:56.000Z</time>
      </trkpt>
      <trkpt lat="42.98955" lon="0.89986">
        <ele>484.600006</ele>
        <time>2020-12-16T11:34:00.000Z</time>
      </trkpt>
      <trkpt lat="42.98956" lon="0.89987">
        <ele>484.200012</ele>
        <time>2020-12-16T11:34:10.000Z</time>
      </trkpt>
      <trkpt lat="42.98956" lon="0.89988">
        <ele>484.200012</ele>
        <time>2020-12-16T11:34:17.000Z</time>
      </trkpt>
      <trkpt lat="42.98957" lon="0.8999">
        <ele>483.600006</ele>
        <time>2020-12-16T11:34:24.000Z</time>
      </trkpt>
      <trkpt lat="42.98962" lon="0.89992">
        <ele>482</ele>
        <time>2020-12-16T11:34:30.000Z</time>
      </trkpt>
      <trkpt lat="42.98959" lon="0.89992">
        <ele>482.600006</ele>
        <time>2020-12-16T11:34:34.000Z</time>
      </trkpt>
      <trkpt lat="42.98966" lon="0.89999">
        <ele>479.799988</ele>
        <time>2020-12-16T11:34:39.000Z</time>
      </trkpt>
      <trkpt lat="42.9897" lon="0.90002">
        <ele>478</ele>
        <time>2020-12-16T11:34:44.000Z</time>
      </trkpt>
      <trkpt lat="42.98976" lon="0.89999">
        <ele>476.600006</ele>
        <time>2020-12-16T11:34:49.000Z</time>
      </trkpt>
      <trkpt lat="42.98978" lon="0.89995">
        <ele>476.200012</ele>
        <time>2020-12-16T11:34:53.000Z</time>
      </trkpt>
      <trkpt lat="42.9898" lon="0.89994">
        <ele>475.600006</ele>
        <time>2020-12-16T11:34:54.000Z</time>
      </trkpt>
      <trkpt lat="42.98984" lon="0.89987">
        <ele>474.799988</ele>
        <time>2020-12-16T11:34:58.000Z</time>
      </trkpt>
      <trkpt lat="42.98989" lon="0.89984">
        <ele>473.600006</ele>
        <time>2020-12-16T11:35:03.000Z</time>
      </trkpt>
      <trkpt lat="42.98992" lon="0.89978">
        <ele>473.200012</ele>
        <time>2020-12-16T11:35:08.000Z</time>
      </trkpt>
      <trkpt lat="42.98992" lon="0.89978">
        <ele>473</ele>
        <time>2020-12-16T11:35:12.000Z</time>
      </trkpt>
      <trkpt lat="42.98993" lon="0.89981">
        <ele>472.200012</ele>
        <time>2020-12-16T11:35:16.000Z</time>
      </trkpt>
      <trkpt lat="42.98993" lon="0.89981">
        <ele>472.399994</ele>
        <time>2020-12-16T11:35:17.000Z</time>
      </trkpt>
      <trkpt lat="42.98992" lon="0.89985">
        <ele>472.200012</ele>
        <time>2020-12-16T11:35:23.000Z</time>
      </trkpt>
      <trkpt lat="42.98995" lon="0.89989">
        <ele>471</ele>
        <time>2020-12-16T11:35:27.000Z</time>
      </trkpt>
      <trkpt lat="42.98998" lon="0.89991">
        <ele>469.600006</ele>
        <time>2020-12-16T11:35:32.000Z</time>
      </trkpt>
      <trkpt lat="42.99001" lon="0.89994">
        <ele>468.600006</ele>
        <time>2020-12-16T11:35:36.000Z</time>
      </trkpt>
      <trkpt lat="42.99003" lon="0.89998">
        <ele>467.200012</ele>
        <time>2020-12-16T11:35:41.000Z</time>
      </trkpt>
      <trkpt lat="42.99005" lon="0.89999">
        <ele>466.600006</ele>
        <time>2020-12-16T11:35:47.000Z</time>
      </trkpt>
      <trkpt lat="42.99005" lon="0.90001">
        <ele>466.399994</ele>
        <time>2020-12-16T11:35:56.000Z</time>
      </trkpt>
      <trkpt lat="42.99007" lon="0.90004">
        <ele>465.600006</ele>
        <time>2020-12-16T11:35:58.000Z</time>
      </trkpt>
      <trkpt lat="42.99009" lon="0.90007">
        <ele>464.600006</ele>
        <time>2020-12-16T11:36:02.000Z</time>
      </trkpt>
      <trkpt lat="42.99011" lon="0.90009">
        <ele>464.200012</ele>
        <time>2020-12-16T11:36:07.000Z</time>
      </trkpt>
      <trkpt lat="42.99011" lon="0.90009">
        <ele>464.200012</ele>
        <time>2020-12-16T11:36:17.000Z</time>
      </trkpt>
      <trkpt lat="42.99012" lon="0.9001">
        <ele>464</ele>
        <time>2020-12-16T11:36:24.000Z</time>
      </trkpt>
      <trkpt lat="42.99017" lon="0.90017">
        <ele>462.200012</ele>
        <time>2020-12-16T11:36:30.000Z</time>
      </trkpt>
      <trkpt lat="42.99021" lon="0.90026">
        <ele>460.799988</ele>
        <time>2020-12-16T11:36:35.000Z</time>
      </trkpt>
      <trkpt lat="42.99022" lon="0.90036">
        <ele>459.799988</ele>
        <time>2020-12-16T11:36:41.000Z</time>
      </trkpt>
      <trkpt lat="42.9902" lon="0.9004">
        <ele>459.600006</ele>
        <time>2020-12-16T11:36:43.000Z</time>
      </trkpt>
      <trkpt lat="42.9902" lon="0.90042">
        <ele>459.399994</ele>
        <time>2020-12-16T11:36:45.000Z</time>
      </trkpt>
      <trkpt lat="42.99024" lon="0.9005">
        <ele>458</ele>
        <time>2020-12-16T11:36:50.000Z</time>
      </trkpt>
      <trkpt lat="42.99027" lon="0.90053">
        <ele>457.200012</ele>
        <time>2020-12-16T11:36:54.000Z</time>
      </trkpt>
      <trkpt lat="42.99025" lon="0.90059">
        <ele>457</ele>
        <time>2020-12-16T11:37:00.000Z</time>
      </trkpt>
      <trkpt lat="42.99029" lon="0.90063">
        <ele>455.799988</ele>
        <time>2020-12-16T11:37:05.000Z</time>
      </trkpt>
      <trkpt lat="42.9903" lon="0.90067">
        <ele>455.399994</ele>
        <time>2020-12-16T11:37:11.000Z</time>
      </trkpt>
      <trkpt lat="42.99028" lon="0.90075">
        <ele>454.799988</ele>
        <time>2020-12-16T11:37:17.000Z</time>
      </trkpt>
      <trkpt lat="42.99027" lon="0.90079">
        <ele>454</ele>
        <time>2020-12-16T11:37:22.000Z</time>
      </trkpt>
      <trkpt lat="42.99024" lon="0.90084">
        <ele>453.200012</ele>
        <time>2020-12-16T11:37:28.000Z</time>
      </trkpt>
      <trkpt lat="42.9902" lon="0.90091">
        <ele>451.799988</ele>
        <time>2020-12-16T11:37:32.000Z</time>
      </trkpt>
      <trkpt lat="42.99021" lon="0.90103">
        <ele>449.200012</ele>
        <time>2020-12-16T11:37:37.000Z</time>
      </trkpt>
      <trkpt lat="42.99023" lon="0.9011">
        <ele>447.600006</ele>
        <time>2020-12-16T11:37:44.000Z</time>
      </trkpt>
      <trkpt lat="42.99023" lon="0.90118">
        <ele>445.799988</ele>
        <time>2020-12-16T11:37:51.000Z</time>
      </trkpt>
      <trkpt lat="42.99021" lon="0.90126">
        <ele>444.399994</ele>
        <time>2020-12-16T11:37:57.000Z</time>
      </trkpt>
      <trkpt lat="42.99021" lon="0.90132">
        <ele>443</ele>
        <time>2020-12-16T11:38:03.000Z</time>
      </trkpt>
      <trkpt lat="42.99021" lon="0.90138">
        <ele>441.600006</ele>
        <time>2020-12-16T11:38:11.000Z</time>
      </trkpt>
      <trkpt lat="42.99018" lon="0.90146">
        <ele>441</ele>
        <time>2020-12-16T11:38:17.000Z</time>
      </trkpt>
      <trkpt lat="42.99019" lon="0.90156">
        <ele>440.200012</ele>
        <time>2020-12-16T11:38:24.000Z</time>
      </trkpt>
      <trkpt lat="42.9902" lon="0.90159">
        <ele>440</ele>
        <time>2020-12-16T11:38:28.000Z</time>
      </trkpt>
      <trkpt lat="42.9902" lon="0.90162">
        <ele>439.799988</ele>
        <time>2020-12-16T11:38:34.000Z</time>
      </trkpt>
      <trkpt lat="42.99021" lon="0.90169">
        <ele>439</ele>
        <time>2020-12-16T11:38:41.000Z</time>
      </trkpt>
      <trkpt lat="42.99021" lon="0.90174">
        <ele>438.600006</ele>
        <time>2020-12-16T11:38:45.000Z</time>
      </trkpt>
      <trkpt lat="42.99018" lon="0.90181">
        <ele>438.200012</ele>
        <time>2020-12-16T11:38:51.000Z</time>
      </trkpt>
      <trkpt lat="42.99017" lon="0.90189">
        <ele>437.600006</ele>
        <time>2020-12-16T11:38:57.000Z</time>
      </trkpt>
      <trkpt lat="42.99016" lon="0.90199">
        <ele>436.799988</ele>
        <time>2020-12-16T11:39:03.000Z</time>
      </trkpt>
      <trkpt lat="42.99015" lon="0.90204">
        <ele>436.399994</ele>
        <time>2020-12-16T11:39:07.000Z</time>
      </trkpt>
      <trkpt lat="42.99016" lon="0.90212">
        <ele>435.600006</ele>
        <time>2020-12-16T11:39:12.000Z</time>
      </trkpt>
      <trkpt lat="42.99015" lon="0.90221">
        <ele>435</ele>
        <time>2020-12-16T11:39:17.000Z</time>
      </trkpt>
      <trkpt lat="42.99014" lon="0.90228">
        <ele>434.399994</ele>
        <time>2020-12-16T11:39:23.000Z</time>
      </trkpt>
      <trkpt lat="42.99011" lon="0.90242">
        <ele>433</ele>
        <time>2020-12-16T11:39:28.000Z</time>
      </trkpt>
      <trkpt lat="42.99014" lon="0.90238">
        <ele>433.200012</ele>
        <time>2020-12-16T11:39:29.000Z</time>
      </trkpt>
      <trkpt lat="42.99017" lon="0.90241">
        <ele>432.799988</ele>
        <time>2020-12-16T11:39:32.000Z</time>
      </trkpt>
      <trkpt lat="42.99018" lon="0.90241">
        <ele>432.799988</ele>
        <time>2020-12-16T11:39:33.000Z</time>
      </trkpt>
      <trkpt lat="42.99022" lon="0.90241">
        <ele>432.799988</ele>
        <time>2020-12-16T11:39:37.000Z</time>
      </trkpt>
      <trkpt lat="42.99027" lon="0.90241">
        <ele>432.600006</ele>
        <time>2020-12-16T11:39:41.000Z</time>
      </trkpt>
      <trkpt lat="42.99031" lon="0.9024">
        <ele>432.600006</ele>
        <time>2020-12-16T11:39:46.000Z</time>
      </trkpt>
      <trkpt lat="42.99034" lon="0.9024">
        <ele>432.399994</ele>
        <time>2020-12-16T11:39:51.000Z</time>
      </trkpt>
      <trkpt lat="42.99038" lon="0.9024">
        <ele>432.399994</ele>
        <time>2020-12-16T11:39:56.000Z</time>
      </trkpt>
      <trkpt lat="42.99038" lon="0.9024">
        <ele>432.399994</ele>
        <time>2020-12-16T11:40:02.000Z</time>
      </trkpt>
      <trkpt lat="42.99057" lon="0.90239">
        <ele>431.799988</ele>
        <time>2020-12-16T11:40:08.000Z</time>
      </trkpt>
      <trkpt lat="42.99058" lon="0.90239">
        <ele>431.799988</ele>
        <time>2020-12-16T11:40:13.000Z</time>
      </trkpt>
      <trkpt lat="42.99063" lon="0.90238">
        <ele>431.600006</ele>
        <time>2020-12-16T11:40:19.000Z</time>
      </trkpt>
      <trkpt lat="42.99063" lon="0.90238">
        <ele>431.600006</ele>
        <time>2020-12-16T11:40:26.000Z</time>
      </trkpt>
      <trkpt lat="42.99063" lon="0.90238">
        <ele>431.600006</ele>
        <time>2020-12-16T11:40:33.000Z</time>
      </trkpt>
      <trkpt lat="42.99063" lon="0.90238">
        <ele>431.600006</ele>
        <time>2020-12-16T11:40:39.000Z</time>
      </trkpt>
      <trkpt lat="42.99063" lon="0.90238">
        <ele>431.600006</ele>
        <time>2020-12-16T11:40:43.000Z</time>
      </trkpt>
      <trkpt lat="42.99063" lon="0.90238">
        <ele>431.600006</ele>
        <time>2020-12-16T11:40:48.000Z</time>
      </trkpt>
      <trkpt lat="42.99094" lon="0.9025">
        <ele>429.399994</ele>
        <time>2020-12-16T11:40:54.000Z</time>
      </trkpt>
      <trkpt lat="42.99094" lon="0.9025">
        <ele>429.399994</ele>
        <time>2020-12-16T11:40:59.000Z</time>
      </trkpt>
      <trkpt lat="42.99103" lon="0.90253">
        <ele>428.799988</ele>
        <time>2020-12-16T11:41:05.000Z</time>
      </trkpt>
      <trkpt lat="42.99103" lon="0.90253">
        <ele>428.799988</ele>
        <time>2020-12-16T11:41:10.000Z</time>
      </trkpt>
      <trkpt lat="42.99111" lon="0.90265">
        <ele>427.600006</ele>
        <time>2020-12-16T11:41:17.000Z</time>
      </trkpt>
      <trkpt lat="42.99116" lon="0.90272">
        <ele>426.799988</ele>
        <time>2020-12-16T11:41:22.000Z</time>
      </trkpt>
      <trkpt lat="42.99116" lon="0.90272">
        <ele>426.799988</ele>
        <time>2020-12-16T11:41:27.000Z</time>
      </trkpt>
      <trkpt lat="42.99127" lon="0.90281">
        <ele>425.600006</ele>
        <time>2020-12-16T11:41:31.000Z</time>
      </trkpt>
      <trkpt lat="42.99134" lon="0.90286">
        <ele>425</ele>
        <time>2020-12-16T11:41:38.000Z</time>
      </trkpt>
      <trkpt lat="42.9914" lon="0.90291">
        <ele>424.399994</ele>
        <time>2020-12-16T11:41:43.000Z</time>
      </trkpt>
      <trkpt lat="42.9914" lon="0.90291">
        <ele>424.399994</ele>
        <time>2020-12-16T11:41:47.000Z</time>
      </trkpt>
      <trkpt lat="42.9915" lon="0.90292">
        <ele>424</ele>
        <time>2020-12-16T11:41:51.000Z</time>
      </trkpt>
      <trkpt lat="42.99155" lon="0.90292">
        <ele>424</ele>
        <time>2020-12-16T11:41:56.000Z</time>
      </trkpt>
      <trkpt lat="42.99163" lon="0.90292">
        <ele>423.799988</ele>
        <time>2020-12-16T11:42:00.000Z</time>
      </trkpt>
      <trkpt lat="42.99163" lon="0.90292">
        <ele>423.799988</ele>
        <time>2020-12-16T11:42:05.000Z</time>
      </trkpt>
      <trkpt lat="42.99163" lon="0.90292">
        <ele>423.799988</ele>
        <time>2020-12-16T11:42:11.000Z</time>
      </trkpt>
      <trkpt lat="42.99184" lon="0.9029">
        <ele>423.399994</ele>
        <time>2020-12-16T11:42:16.000Z</time>
      </trkpt>
      <trkpt lat="42.99192" lon="0.90289">
        <ele>423.200012</ele>
        <time>2020-12-16T11:42:21.000Z</time>
      </trkpt>
      <trkpt lat="42.99198" lon="0.90288">
        <ele>423</ele>
        <time>2020-12-16T11:42:26.000Z</time>
      </trkpt>
      <trkpt lat="42.99205" lon="0.90286">
        <ele>422.799988</ele>
        <time>2020-12-16T11:42:32.000Z</time>
      </trkpt>
      <trkpt lat="42.99213" lon="0.90285">
        <ele>422.600006</ele>
        <time>2020-12-16T11:42:38.000Z</time>
      </trkpt>
      <trkpt lat="42.99219" lon="0.90284">
        <ele>422.399994</ele>
        <time>2020-12-16T11:42:43.000Z</time>
      </trkpt>
      <trkpt lat="42.99221" lon="0.90284">
        <ele>422.200012</ele>
        <time>2020-12-16T11:42:44.000Z</time>
      </trkpt>
      <trkpt lat="42.99228" lon="0.90282">
        <ele>422</ele>
        <time>2020-12-16T11:42:51.000Z</time>
      </trkpt>
      <trkpt lat="42.99237" lon="0.90281">
        <ele>421.600006</ele>
        <time>2020-12-16T11:42:57.000Z</time>
      </trkpt>
      <trkpt lat="42.9924" lon="0.9028">
        <ele>421.399994</ele>
        <time>2020-12-16T11:43:02.000Z</time>
      </trkpt>
      <trkpt lat="42.99246" lon="0.9028">
        <ele>420.799988</ele>
        <time>2020-12-16T11:43:08.000Z</time>
      </trkpt>
      <trkpt lat="42.99252" lon="0.90278">
        <ele>420.200012</ele>
        <time>2020-12-16T11:43:13.000Z</time>
      </trkpt>
      <trkpt lat="42.99262" lon="0.90277">
        <ele>419.799988</ele>
        <time>2020-12-16T11:43:20.000Z</time>
      </trkpt>
      <trkpt lat="42.99269" lon="0.90276">
        <ele>420</ele>
        <time>2020-12-16T11:43:26.000Z</time>
      </trkpt>
      <trkpt lat="42.99278" lon="0.90274">
        <ele>420.200012</ele>
        <time>2020-12-16T11:43:33.000Z</time>
      </trkpt>
      <trkpt lat="42.99286" lon="0.90273">
        <ele>420.399994</ele>
        <time>2020-12-16T11:43:40.000Z</time>
      </trkpt>
      <trkpt lat="42.99293" lon="0.90272">
        <ele>420.600006</ele>
        <time>2020-12-16T11:43:47.000Z</time>
      </trkpt>
      <trkpt lat="42.99297" lon="0.90271">
        <ele>420.600006</ele>
        <time>2020-12-16T11:43:53.000Z</time>
      </trkpt>
      <trkpt lat="42.99303" lon="0.9027">
        <ele>420.799988</ele>
        <time>2020-12-16T11:43:58.000Z</time>
      </trkpt>
      <trkpt lat="42.99309" lon="0.90269">
        <ele>420.799988</ele>
        <time>2020-12-16T11:44:03.000Z</time>
      </trkpt>
      <trkpt lat="42.9931" lon="0.90269">
        <ele>420.799988</ele>
        <time>2020-12-16T11:44:08.000Z</time>
      </trkpt>
      <trkpt lat="42.9931" lon="0.90269">
        <ele>420.799988</ele>
        <time>2020-12-16T11:44:13.000Z</time>
      </trkpt>
      <trkpt lat="42.9931" lon="0.90269">
        <ele>420.799988</ele>
        <time>2020-12-16T11:44:24.000Z</time>
      </trkpt>
      <trkpt lat="42.99311" lon="0.90269">
        <ele>420.799988</ele>
        <time>2020-12-16T11:44:35.000Z</time>
      </trkpt>
      <trkpt lat="42.99311" lon="0.90269">
        <ele>420.799988</ele>
        <time>2020-12-16T11:44:40.000Z</time>
      </trkpt>
      <trkpt lat="42.99311" lon="0.90269">
        <ele>420.799988</ele>
        <time>2020-12-16T11:44:48.000Z</time>
      </trkpt>
      <trkpt lat="42.99311" lon="0.90269">
        <ele>420.799988</ele>
        <time>2020-12-16T11:44:54.000Z</time>
      </trkpt>
      <trkpt lat="42.99317" lon="0.90269">
        <ele>420.600006</ele>
        <time>2020-12-16T11:45:01.000Z</time>
      </trkpt>
      <trkpt lat="42.99324" lon="0.90269">
        <ele>420.600006</ele>
        <time>2020-12-16T11:45:07.000Z</time>
      </trkpt>
      <trkpt lat="42.99325" lon="0.90269">
        <ele>420.600006</ele>
        <time>2020-12-16T11:45:11.000Z</time>
      </trkpt>
      <trkpt lat="42.99329" lon="0.9027">
        <ele>420.399994</ele>
        <time>2020-12-16T11:45:16.000Z</time>
      </trkpt>
      <trkpt lat="42.99335" lon="0.9027">
        <ele>420.399994</ele>
        <time>2020-12-16T11:45:20.000Z</time>
      </trkpt>
      <trkpt lat="42.9934" lon="0.90271">
        <ele>420.399994</ele>
        <time>2020-12-16T11:45:24.000Z</time>
      </trkpt>
      <trkpt lat="42.99341" lon="0.90271">
        <ele>420.200012</ele>
        <time>2020-12-16T11:45:29.000Z</time>
      </trkpt>
      <trkpt lat="42.99347" lon="0.90271">
        <ele>420.200012</ele>
        <time>2020-12-16T11:45:35.000Z</time>
      </trkpt>
      <trkpt lat="42.99355" lon="0.90272">
        <ele>420.200012</ele>
        <time>2020-12-16T11:45:42.000Z</time>
      </trkpt>
      <trkpt lat="42.99355" lon="0.90272">
        <ele>420.200012</ele>
        <time>2020-12-16T11:45:46.000Z</time>
      </trkpt>
      <trkpt lat="42.99355" lon="0.90272">
        <ele>420.200012</ele>
        <time>2020-12-16T11:45:54.000Z</time>
      </trkpt>
      <trkpt lat="42.99355" lon="0.90272">
        <ele>420.200012</ele>
        <time>2020-12-16T11:46:01.000Z</time>
      </trkpt>
      <trkpt lat="42.99355" lon="0.90272">
        <ele>420.200012</ele>
        <time>2020-12-16T11:46:07.000Z</time>
      </trkpt>
      <trkpt lat="42.99355" lon="0.90272">
        <ele>420.200012</ele>
        <time>2020-12-16T11:46:14.000Z</time>
      </trkpt>
      <trkpt lat="42.99355" lon="0.90272">
        <ele>420.200012</ele>
        <time>2020-12-16T11:46:22.000Z</time>
      </trkpt>
      <trkpt lat="42.99355" lon="0.90272">
        <ele>420.200012</ele>
        <time>2020-12-16T11:46:28.000Z</time>
      </trkpt>
      <trkpt lat="42.99402" lon="0.90295">
        <ele>419.399994</ele>
        <time>2020-12-16T11:46:34.000Z</time>
      </trkpt>
      <trkpt lat="42.99408" lon="0.90298">
        <ele>419.399994</ele>
        <time>2020-12-16T11:46:40.000Z</time>
      </trkpt>
      <trkpt lat="42.99408" lon="0.90298">
        <ele>419.399994</ele>
        <time>2020-12-16T11:46:47.000Z</time>
      </trkpt>
      <trkpt lat="42.99426" lon="0.90296">
        <ele>419.399994</ele>
        <time>2020-12-16T11:46:54.000Z</time>
      </trkpt>
      <trkpt lat="42.99427" lon="0.90296">
        <ele>419.399994</ele>
        <time>2020-12-16T11:47:00.000Z</time>
      </trkpt>
      <trkpt lat="42.99434" lon="0.90323">
        <ele>418.799988</ele>
        <time>2020-12-16T11:47:06.000Z</time>
      </trkpt>
      <trkpt lat="42.99436" lon="0.90335">
        <ele>418.399994</ele>
        <time>2020-12-16T11:47:13.000Z</time>
      </trkpt>
      <trkpt lat="42.99445" lon="0.90338">
        <ele>418.600006</ele>
        <time>2020-12-16T11:47:19.000Z</time>
      </trkpt>
      <trkpt lat="42.99444" lon="0.90351">
        <ele>418</ele>
        <time>2020-12-16T11:47:26.000Z</time>
      </trkpt>
      <trkpt lat="42.99452" lon="0.90356">
        <ele>418.200012</ele>
        <time>2020-12-16T11:47:32.000Z</time>
      </trkpt>
      <trkpt lat="42.99454" lon="0.90361">
        <ele>418.200012</ele>
        <time>2020-12-16T11:47:36.000Z</time>
      </trkpt>
      <trkpt lat="42.99453" lon="0.90372">
        <ele>417.600006</ele>
        <time>2020-12-16T11:47:42.000Z</time>
      </trkpt>
      <trkpt lat="42.99455" lon="0.90381">
        <ele>417.399994</ele>
        <time>2020-12-16T11:47:48.000Z</time>
      </trkpt>
      <trkpt lat="42.99459" lon="0.90389">
        <ele>417.200012</ele>
        <time>2020-12-16T11:47:54.000Z</time>
      </trkpt>
      <trkpt lat="42.99463" lon="0.90396">
        <ele>417.200012</ele>
        <time>2020-12-16T11:48:01.000Z</time>
      </trkpt>
      <trkpt lat="42.99464" lon="0.90401">
        <ele>416.799988</ele>
        <time>2020-12-16T11:48:06.000Z</time>
      </trkpt>
      <trkpt lat="42.99468" lon="0.90405">
        <ele>416.799988</ele>
        <time>2020-12-16T11:48:11.000Z</time>
      </trkpt>
      <trkpt lat="42.99471" lon="0.90404">
        <ele>417</ele>
        <time>2020-12-16T11:48:12.000Z</time>
      </trkpt>
      <trkpt lat="42.99473" lon="0.90409">
        <ele>416.799988</ele>
        <time>2020-12-16T11:48:15.000Z</time>
      </trkpt>
      <trkpt lat="42.99476" lon="0.90415">
        <ele>416.600006</ele>
        <time>2020-12-16T11:48:20.000Z</time>
      </trkpt>
      <trkpt lat="42.99478" lon="0.90422">
        <ele>416.399994</ele>
        <time>2020-12-16T11:48:25.000Z</time>
      </trkpt>
      <trkpt lat="42.99481" lon="0.9043">
        <ele>416.200012</ele>
        <time>2020-12-16T11:48:31.000Z</time>
      </trkpt>
      <trkpt lat="42.99484" lon="0.90436">
        <ele>416</ele>
        <time>2020-12-16T11:48:36.000Z</time>
      </trkpt>
      <trkpt lat="42.99487" lon="0.90444">
        <ele>415.600006</ele>
        <time>2020-12-16T11:48:41.000Z</time>
      </trkpt>
      <trkpt lat="42.9949" lon="0.90452">
        <ele>415.399994</ele>
        <time>2020-12-16T11:48:46.000Z</time>
      </trkpt>
      <trkpt lat="42.99492" lon="0.90461">
        <ele>415.200012</ele>
        <time>2020-12-16T11:48:52.000Z</time>
      </trkpt>
      <trkpt lat="42.99496" lon="0.90474">
        <ele>415.200012</ele>
        <time>2020-12-16T11:49:01.000Z</time>
      </trkpt>
      <trkpt lat="42.99498" lon="0.90484">
        <ele>414.799988</ele>
        <time>2020-12-16T11:49:08.000Z</time>
      </trkpt>
      <trkpt lat="42.99501" lon="0.90493">
        <ele>414.399994</ele>
        <time>2020-12-16T11:49:15.000Z</time>
      </trkpt>
      <trkpt lat="42.99503" lon="0.90502">
        <ele>414</ele>
        <time>2020-12-16T11:49:22.000Z</time>
      </trkpt>
      <trkpt lat="42.99507" lon="0.90515">
        <ele>413.600006</ele>
        <time>2020-12-16T11:49:31.000Z</time>
      </trkpt>
      <trkpt lat="42.99507" lon="0.90515">
        <ele>413.600006</ele>
        <time>2020-12-16T11:49:36.000Z</time>
      </trkpt>
      <trkpt lat="42.99512" lon="0.90526">
        <ele>413</ele>
        <time>2020-12-16T11:49:42.000Z</time>
      </trkpt>
      <trkpt lat="42.99518" lon="0.90531">
        <ele>412.799988</ele>
        <time>2020-12-16T11:49:50.000Z</time>
      </trkpt>
      <trkpt lat="42.99525" lon="0.90538">
        <ele>412.399994</ele>
        <time>2020-12-16T11:49:55.000Z</time>
      </trkpt>
      <trkpt lat="42.9953" lon="0.90544">
        <ele>412.200012</ele>
        <time>2020-12-16T11:50:00.000Z</time>
      </trkpt>
      <trkpt lat="42.99538" lon="0.90549">
        <ele>412</ele>
        <time>2020-12-16T11:50:07.000Z</time>
      </trkpt>
      <trkpt lat="42.99543" lon="0.90552">
        <ele>411.799988</ele>
        <time>2020-12-16T11:50:14.000Z</time>
      </trkpt>
      <trkpt lat="42.99552" lon="0.90557">
        <ele>411.399994</ele>
        <time>2020-12-16T11:50:20.000Z</time>
      </trkpt>
      <trkpt lat="42.99557" lon="0.90561">
        <ele>411.399994</ele>
        <time>2020-12-16T11:50:23.000Z</time>
      </trkpt>
      <trkpt lat="42.99561" lon="0.90563">
        <ele>411.200012</ele>
        <time>2020-12-16T11:50:26.000Z</time>
      </trkpt>
      <trkpt lat="42.99558" lon="0.90572">
        <ele>411.200012</ele>
        <time>2020-12-16T11:50:31.000Z</time>
      </trkpt>
      <trkpt lat="42.99557" lon="0.90574">
        <ele>411.200012</ele>
        <time>2020-12-16T11:50:32.000Z</time>
      </trkpt>
      <trkpt lat="42.99557" lon="0.90577">
        <ele>411.200012</ele>
        <time>2020-12-16T11:50:34.000Z</time>
      </trkpt>
      <trkpt lat="42.99556" lon="0.90581">
        <ele>411.200012</ele>
        <time>2020-12-16T11:50:38.000Z</time>
      </trkpt>
      <trkpt lat="42.99555" lon="0.90587">
        <ele>411</ele>
        <time>2020-12-16T11:50:42.000Z</time>
      </trkpt>
      <trkpt lat="42.99553" lon="0.90595">
        <ele>411</ele>
        <time>2020-12-16T11:50:47.000Z</time>
      </trkpt>
      <trkpt lat="42.99553" lon="0.90599">
        <ele>411</ele>
        <time>2020-12-16T11:50:50.000Z</time>
      </trkpt>
      <trkpt lat="42.99551" lon="0.90608">
        <ele>410.799988</ele>
        <time>2020-12-16T11:50:54.000Z</time>
      </trkpt>
      <trkpt lat="42.99551" lon="0.90608">
        <ele>410.799988</ele>
        <time>2020-12-16T11:50:55.000Z</time>
      </trkpt>
      <trkpt lat="42.99555" lon="0.9062">
        <ele>410.600006</ele>
        <time>2020-12-16T11:50:58.000Z</time>
      </trkpt>
      <trkpt lat="42.99549" lon="0.90618">
        <ele>410.799988</ele>
        <time>2020-12-16T11:51:02.000Z</time>
      </trkpt>
      <trkpt lat="42.99549" lon="0.90618">
        <ele>410.799988</ele>
        <time>2020-12-16T11:51:04.000Z</time>
      </trkpt>
      <trkpt lat="42.99549" lon="0.90618">
        <ele>410.799988</ele>
        <time>2020-12-16T11:51:07.000Z</time>
      </trkpt>
      <trkpt lat="42.99549" lon="0.90618">
        <ele>410.799988</ele>
        <time>2020-12-16T11:51:10.000Z</time>
      </trkpt>
      <trkpt lat="42.99549" lon="0.90618">
        <ele>410.799988</ele>
        <time>2020-12-16T11:51:15.000Z</time>
      </trkpt>
      <trkpt lat="42.99549" lon="0.90618">
        <ele>410.799988</ele>
        <time>2020-12-16T11:51:20.000Z</time>
      </trkpt>
      <trkpt lat="42.99548" lon="0.90648">
        <ele>410.399994</ele>
        <time>2020-12-16T11:51:21.000Z</time>
      </trkpt>
      <trkpt lat="42.99549" lon="0.90659">
        <ele>410.200012</ele>
        <time>2020-12-16T11:51:24.000Z</time>
      </trkpt>
      <trkpt lat="42.99549" lon="0.90659">
        <ele>410.200012</ele>
        <time>2020-12-16T11:51:28.000Z</time>
      </trkpt>
      <trkpt lat="42.99549" lon="0.90659">
        <ele>410.200012</ele>
        <time>2020-12-16T11:51:40.000Z</time>
      </trkpt>
      <trkpt lat="42.99549" lon="0.90659">
        <ele>410.200012</ele>
        <time>2020-12-16T11:51:44.000Z</time>
      </trkpt>
      <trkpt lat="42.99549" lon="0.90659">
        <ele>410.200012</ele>
        <time>2020-12-16T11:51:54.000Z</time>
      </trkpt>
      <trkpt lat="42.99549" lon="0.90659">
        <ele>410.200012</ele>
        <time>2020-12-16T11:52:03.000Z</time>
      </trkpt>
    </trkseg>
  </trk>
</gpx>